Provisional Data: Lackawanna River near Forest City, PA


Please select a monitoring station.
Please select start date.
Please select start date.

Toggle Unit: C/F Toggle Unit: C/F
Sample Time Temperature (C) Temperature (F) Specific Conductivity (mS/cm) pH   Turbidity (NTU+) DO (mg/L)
12/23/2022 12:00:00 AM 0.57 33.026 0.07 6.96 4.38 13.16
12/23/2022 12:15:00 AM 0.58 33.044 0.07 6.98 4.68 13.15
12/23/2022 12:30:00 AM 0.6 33.08 0.07 6.99 4.63 13.17
12/23/2022 12:45:00 AM 0.61 33.098 0.07 6.99 4.26 13.17
12/23/2022 1:00:00 AM 0.63 33.134 0.07 6.99 4.11 13.14
12/23/2022 1:15:00 AM 0.65 33.17 0.07 7 4.38 13.1
12/23/2022 1:30:00 AM 0.67 33.206 0.07 6.99 4.3 13.08
12/23/2022 1:45:00 AM 0.69 33.242 0.069 7 4.59 13.09
12/23/2022 2:00:00 AM 0.72 33.296 0.069 7 4.73 13.11
12/23/2022 2:15:00 AM 0.74 33.332 0.069 7.01 4.94 13.06
12/23/2022 2:30:00 AM 0.76 33.368 0.069 6.99 5.23 13
12/23/2022 2:45:00 AM 0.77 33.386 0.069 6.99 5.17 12.98
12/23/2022 3:00:00 AM 0.79 33.422 0.07 6.99 5.7 12.97
12/23/2022 3:15:00 AM 0.8 33.44 0.07 6.98 5.94 12.93
12/23/2022 3:30:00 AM 0.83 33.494 0.07 6.98 5.94 12.89
12/23/2022 3:45:00 AM 0.86 33.548 0.069 6.98 5.93 12.91
12/23/2022 4:00:00 AM 0.9 33.62 0.069 6.98 5.74 12.92
12/23/2022 4:15:00 AM 0.9 33.62 0.07 6.97 5.85 12.86
12/23/2022 4:30:00 AM 0.96 33.728 0.07 6.98 6.2 12.86
12/23/2022 4:45:00 AM 0.99 33.782 0.07 6.98 6.02 12.88
12/23/2022 5:00:00 AM 1 33.8 0.07 6.97 6.64 12.86
12/23/2022 5:15:00 AM 1.01 33.818 0.071 6.96 6.39 12.85
12/23/2022 5:30:00 AM 1.02 33.836 0.071 6.96 5.73 12.84
12/23/2022 5:45:00 AM 1.04 33.872 0.071 6.96 5.01 12.85
12/23/2022 6:00:00 AM 1.05 33.89 0.071 6.93 5.21 12.85
12/23/2022 6:15:00 AM 1.06 33.908 0.072 6.93 4.87 12.83
12/23/2022 6:30:00 AM 1.06 33.908 0.071 6.92 4.81 12.82
12/23/2022 6:45:00 AM 1.04 33.872 0.071 6.92 4.88 12.81
12/23/2022 7:00:00 AM 1.03 33.854 0.072 6.9 4.39 12.8
12/23/2022 7:15:00 AM 1.03 33.854 0.072 6.9 5.04 12.77
12/23/2022 7:30:00 AM 1.02 33.836 0.072 6.9 6.04 12.76
12/23/2022 7:45:00 AM 1.02 33.836 0.073 6.88 4.67 12.73
12/23/2022 8:00:00 AM 1.01 33.818 0.073 6.89 5.07 12.73
12/23/2022 8:15:00 AM 1.01 33.818 0.072 6.89 4.74 12.75
12/23/2022 8:30:00 AM 1.01 33.818 0.072 6.87 4.87 12.73
12/23/2022 8:45:00 AM 1 33.8 0.072 6.88 4.88 12.75
12/23/2022 9:00:00 AM 1.01 33.818 0.072 6.87 5.45 12.72
12/23/2022 9:15:00 AM 1 33.8 0.072 6.86 4.97 12.74
12/23/2022 9:30:00 AM 1.01 33.818 0.071 6.87 4.97 12.75
12/23/2022 9:45:00 AM 1.01 33.818 0.071 6.86 5.55 12.74
12/23/2022 10:00:00 AM 1.01 33.818 0.07 6.87 5.54 12.78
12/23/2022 10:15:00 AM 1.01 33.818 0.07 6.87 5.66 12.79
12/23/2022 10:30:00 AM 1.01 33.818 0.07 6.86 5.89 12.79
12/23/2022 10:45:00 AM 1 33.8 0.07 6.87 5.64 12.81
12/23/2022 11:00:00 AM 0.99 33.782 0.07 6.88 6.05 12.86
12/23/2022 11:15:00 AM 0.99 33.782 0.07 6.87 8.04 12.84
12/23/2022 11:30:00 AM 0.98 33.764 0.07 6.87 6.28 12.88
12/23/2022 11:45:00 AM 0.97 33.746 0.069 6.87 6.36 12.91
12/23/2022 12:00:00 PM 0.96 33.728 0.068 6.88 6.23 12.96
12/23/2022 12:15:00 PM 0.92 33.656 0.068 6.88 7.17 13
12/23/2022 12:30:00 PM 0.9 33.62 0.067 6.87 7.1 13
12/23/2022 12:45:00 PM 0.87 33.566 0.067 6.86 8.04 13.03
12/23/2022 1:00:00 PM 0.82 33.476 0.067 6.86 8.67 13.03
12/23/2022 1:15:00 PM 0.76 33.368 0.066 6.84 8.69 13.04
12/23/2022 1:30:00 PM 0.71 33.278 0.066 6.84 8.75 13.05
12/23/2022 1:45:00 PM 0.66 33.188 0.066 6.83 8.48 13.05
12/23/2022 2:00:00 PM 0.59 33.062 0.066 6.82 9.09 13.06
12/23/2022 2:15:00 PM 0.53 32.954 0.066 6.82 9.47 13.1
12/23/2022 2:30:00 PM 0.47 32.846 0.065 6.83 9.61 13.11
12/23/2022 2:45:00 PM 0.43 32.774 0.066 6.82 10.33 13.11
12/23/2022 3:00:00 PM 0.36 32.648 0.065 6.82 10.29 13.14
12/23/2022 3:15:00 PM 0.3 32.54 0.065 6.82 10.96 13.18
12/23/2022 3:30:00 PM 0.26 32.468 0.065 6.82 11.78 13.19
12/23/2022 3:45:00 PM 0.21 32.378 0.065 6.81 10.24 13.21
12/23/2022 4:00:00 PM 0.15 32.27 0.065 6.81 9.32 13.25
12/23/2022 4:15:00 PM 0.09 32.162 0.065 6.8 10.43 13.25
12/23/2022 4:30:00 PM 0.04 32.072 0.065 6.81 10 13.28
12/23/2022 4:45:00 PM 0.02 32.036 0.065 6.8 10.16 13.28
12/23/2022 5:00:00 PM -0.04 31.928 0.065 6.8 9.87 13.31
12/23/2022 5:15:00 PM -0.06 31.892 0.066 6.8 9.89 13.33
12/23/2022 5:30:00 PM -0.07 31.874 0.066 6.79 10.58 13.35
12/23/2022 5:45:00 PM -0.06 31.892 0.066 6.79 10.38 13.36
12/23/2022 6:00:00 PM -0.07 31.874 0.066 6.79 13.1 13.38
12/23/2022 6:15:00 PM -0.06 31.892 0.066 6.79 10.62 13.38
12/23/2022 6:30:00 PM -0.07 31.874 0.067 6.79 10.38 13.39
12/23/2022 6:45:00 PM -0.06 31.892 0.067 6.78 10.01 13.39
12/23/2022 7:00:00 PM -0.06 31.892 0.068 6.78 9.73 13.39
12/23/2022 7:15:00 PM -0.06 31.892 0.068 6.79 10.71 13.37
12/23/2022 7:30:00 PM -0.06 31.892 0.068 6.79 13.86 13.37
12/23/2022 7:45:00 PM -0.04 31.928 0.068 6.79 13.91 13.32
12/23/2022 8:00:00 PM -0.05 31.91 0.069 6.79 11.67 13.3
12/23/2022 8:15:00 PM -0.05 31.91 0.069 6.79 12.1 13.31
12/23/2022 8:30:00 PM -0.04 31.928 0.069 6.79 12.01 13.34
12/23/2022 8:45:00 PM -0.05 31.91 0.069 6.79 12.3 13.34
12/23/2022 9:00:00 PM -0.05 31.91 0.069 6.78 11.96 13.36
12/23/2022 9:15:00 PM -0.06 31.892 0.069 6.78 12.18 13.39
12/23/2022 9:30:00 PM -0.06 31.892 0.069 6.79 11.87 13.43
12/23/2022 9:45:00 PM -0.06 31.892 0.069 6.78 12.2 13.43
12/23/2022 10:00:00 PM -0.05 31.91 0.069 6.78 10.95 13.44
12/23/2022 10:15:00 PM -0.05 31.91 0.068 6.79 11.14 13.45
12/23/2022 10:30:00 PM -0.06 31.892 0.068 6.77 12.27 13.46
12/23/2022 10:45:00 PM -0.06 31.892 0.068 6.78 11.35 13.46
12/23/2022 11:00:00 PM -0.06 31.892 0.068 6.78 10.69 13.46
12/23/2022 11:15:00 PM -0.06 31.892 0.068 6.78 10.61 13.46
12/23/2022 11:30:00 PM -0.06 31.892 0.068 6.77 11.26 13.47
12/23/2022 11:45:00 PM -0.07 31.874 0.068 6.77 10.61 13.48
12/24/2022 12:00:00 AM -0.08 31.856 0.068 6.77 10.21 13.48
12/24/2022 12:15:00 AM -0.07 31.874 0.068 6.77 10.78 13.51
12/24/2022 12:30:00 AM -0.08 31.856 0.068 6.77 10.16 13.53
12/24/2022 12:45:00 AM -0.07 31.874 0.068 6.78 9.72 13.54
12/24/2022 1:00:00 AM -0.07 31.874 0.068 6.78 10.01 13.53
12/24/2022 1:15:00 AM -0.07 31.874 0.068 6.78 10.03 13.56
12/24/2022 1:30:00 AM -0.07 31.874 0.068 6.78 9.44 13.58
12/24/2022 1:45:00 AM -0.07 31.874 0.068 6.78 8.84 13.59
12/24/2022 2:00:00 AM -0.07 31.874 0.067 6.78 10.76 13.61
12/24/2022 2:15:00 AM -0.07 31.874 0.067 6.78 9.54 13.62
12/24/2022 2:30:00 AM -0.07 31.874 0.067 6.77 9.83 13.61
12/24/2022 2:45:00 AM -0.07 31.874 0.067 6.77 10.83 13.63
12/24/2022 3:00:00 AM -0.07 31.874 0.067 6.77 9.11 13.64
12/24/2022 3:15:00 AM -0.07 31.874 0.067 6.77 9.62 13.63
12/24/2022 3:30:00 AM -0.07 31.874 0.067 6.76 11.87 13.62
12/24/2022 3:45:00 AM -0.07 31.874 0.067 6.75 9.28 13.62
12/24/2022 4:00:00 AM -0.06 31.892 0.067 6.75 9.59 13.65
12/24/2022 4:15:00 AM -0.07 31.874 0.067 6.75 10.26 13.63
12/24/2022 4:30:00 AM -0.08 31.856 0.067 6.75 10.19 13.65
12/24/2022 4:45:00 AM -0.08 31.856 0.067 6.75 9.26 13.66
12/24/2022 5:00:00 AM -0.08 31.856 0.066 6.74 10.95 13.65
12/24/2022 5:15:00 AM -0.08 31.856 0.066 6.74 10.64 13.65
12/24/2022 5:30:00 AM -0.08 31.856 0.066 6.74 8.61 13.65
12/24/2022 5:45:00 AM -0.08 31.856 0.067 6.74 11.15 13.67
12/24/2022 6:00:00 AM -0.09 31.838 0.066 6.74 8.08 13.68
12/24/2022 6:15:00 AM -0.08 31.856 0.066 6.74 8.02 13.67
12/24/2022 6:30:00 AM -0.08 31.856 0.066 6.73 7.73 13.67
12/24/2022 6:45:00 AM -0.07 31.874 0.067 6.73 8.37 13.68
12/24/2022 7:00:00 AM -0.07 31.874 0.066 6.73 8.25 13.7
12/24/2022 7:15:00 AM -0.07 31.874 0.066 6.73 8.54 13.69
12/24/2022 7:30:00 AM -0.07 31.874 0.067 6.73 8.4 13.71
12/24/2022 7:45:00 AM -0.06 31.892 0.067 6.73 9.76 13.69
12/24/2022 8:00:00 AM -0.06 31.892 0.067 6.73 8.49 13.71
12/24/2022 8:15:00 AM -0.06 31.892 0.067 6.74 8.51 13.7
12/24/2022 8:30:00 AM -0.06 31.892 0.067 6.75 9.39 13.73
12/24/2022 8:45:00 AM -0.05 31.91 0.067 6.75 7.99 13.72
12/24/2022 9:00:00 AM -0.05 31.91 0.067 6.75 8.76 13.74
12/24/2022 9:15:00 AM -0.04 31.928 0.067 6.75 9.04 13.74
12/24/2022 9:30:00 AM -0.04 31.928 0.067 6.75 9.05 13.74
12/24/2022 9:45:00 AM -0.03 31.946 0.067 6.75 9.39 13.75
12/24/2022 10:00:00 AM -0.03 31.946 0.067 6.75 9 13.76
12/24/2022 10:15:00 AM -0.03 31.946 0.067 6.76 9.14 13.78
12/24/2022 10:30:00 AM -0.02 31.964 0.067 6.76 9.38 13.78
12/24/2022 10:45:00 AM -0.01 31.982 0.067 6.77 8.06 13.79
12/24/2022 11:00:00 AM 0 32 0.067 6.76 8.85 13.8
12/24/2022 11:15:00 AM 0 32 0.067 6.76 8.78 13.82
12/24/2022 11:30:00 AM 0 32 0.067 6.76 8.38 13.83
12/24/2022 11:45:00 AM 0.01 32.018 0.067 6.77 9.1 13.83
12/24/2022 12:00:00 PM 0.01 32.018 0.067 6.77 8.34 13.84
12/24/2022 12:15:00 PM 0.02 32.036 0.067 6.76 8.39 13.85
12/24/2022 12:30:00 PM 0.02 32.036 0.067 6.77 9.88 13.87
12/24/2022 12:45:00 PM 0.03 32.054 0.067 6.78 8.55 13.9
12/24/2022 1:00:00 PM 0.04 32.072 0.067 6.77 7.79 13.88
12/24/2022 1:15:00 PM 0.04 32.072 0.067 6.78 7.32 13.9
12/24/2022 1:30:00 PM 0.05 32.09 0.067 6.78 7.49 13.91
12/24/2022 1:45:00 PM 0.05 32.09 0.067 6.78 7.88 13.9
12/24/2022 2:00:00 PM 0.05 32.09 0.067 6.78 7.68 13.91
12/24/2022 2:15:00 PM 0.06 32.108 0.067 6.78 7.09 13.92
12/24/2022 2:30:00 PM 0.06 32.108 0.067 6.79 7.33 13.92
12/24/2022 2:45:00 PM 0.06 32.108 0.067 6.77 7.04 13.92
12/24/2022 3:00:00 PM 0.05 32.09 0.067 6.73 9.41 13.93
12/24/2022 3:15:00 PM 0.05 32.09 0.067 6.77 7.04 13.92
12/24/2022 3:30:00 PM 0.04 32.072 0.066 6.76 7.28 13.93
12/24/2022 3:45:00 PM 0.04 32.072 0.066 6.77 7.66 13.93
12/24/2022 4:00:00 PM 0.03 32.054 0.066 6.77 8.11 13.93
12/24/2022 4:15:00 PM 0.02 32.036 0.066 6.76 7.63 13.93
12/24/2022 4:30:00 PM 0.01 32.018 0.066 6.76 10.05 13.92
12/24/2022 4:45:00 PM 0 32 0.066 6.75 10.95 13.92
12/24/2022 5:00:00 PM -0.01 31.982 0.066 6.75 9.75 13.93
12/24/2022 5:15:00 PM -0.01 31.982 0.065 6.76 9.18 13.92
12/24/2022 5:30:00 PM -0.02 31.964 0.066 6.74 9.06 13.93
12/24/2022 5:45:00 PM -0.03 31.946 0.066 6.75 8.92 13.93
12/24/2022 6:00:00 PM -0.03 31.946 0.065 6.74 8.19 13.94
12/24/2022 6:15:00 PM -0.03 31.946 0.065 6.72 8.62 13.94
12/24/2022 6:30:00 PM -0.04 31.928 0.065 6.74 8.99 13.96
12/24/2022 6:45:00 PM -0.04 31.928 0.065 6.75 8.52 13.94
12/24/2022 7:00:00 PM -0.04 31.928 0.065 6.74 8.65 13.94
12/24/2022 7:15:00 PM -0.04 31.928 0.065 6.74 8.42 13.96
12/24/2022 7:30:00 PM -0.04 31.928 0.065 6.74 8.71 13.96
12/24/2022 7:45:00 PM -0.04 31.928 0.065 6.75 8.36 13.96
12/24/2022 8:00:00 PM -0.04 31.928 0.065 6.74 8.98 13.94
12/24/2022 8:15:00 PM -0.04 31.928 0.064 6.73 8.34 13.95
12/24/2022 8:30:00 PM -0.04 31.928 0.064 6.74 8.31 13.96
12/24/2022 8:45:00 PM -0.04 31.928 0.064 6.74 8.77 13.96
12/24/2022 9:00:00 PM -0.04 31.928 0.064 6.73 10.91 13.96
12/24/2022 9:15:00 PM -0.04 31.928 0.064 6.74 8.75 13.96
12/24/2022 9:30:00 PM -0.03 31.946 0.064 6.73 8.72 13.94
12/24/2022 9:45:00 PM -0.04 31.928 0.064 6.73 8.63 13.97
12/24/2022 10:00:00 PM -0.04 31.928 0.064 6.73 7.97 13.97
12/24/2022 10:15:00 PM -0.04 31.928 0.064 6.73 7.56 13.96
12/24/2022 10:30:00 PM -0.04 31.928 0.064 6.73 7.72 13.96
12/24/2022 10:45:00 PM -0.04 31.928 0.063 6.73 7.7 13.97
12/24/2022 11:00:00 PM -0.03 31.946 0.064 6.73 8.53 13.96
12/24/2022 11:15:00 PM -0.03 31.946 0.064 6.71 8.68 13.95
12/24/2022 11:30:00 PM -0.03 31.946 0.063 6.73 8.5 13.95
12/24/2022 11:45:00 PM -0.03 31.946 0.063 6.74 8.38 13.95
12/25/2022 12:00:00 AM -0.03 31.946 0.063 6.73 7.51 13.96
12/25/2022 12:15:00 AM -0.04 31.928 0.063 6.73 8.66 13.95
12/25/2022 12:30:00 AM -0.04 31.928 0.063 6.72 7.28 13.95
12/25/2022 12:45:00 AM -0.04 31.928 0.063 6.73 7.2 13.96
12/25/2022 1:00:00 AM -0.04 31.928 0.063 6.73 7.4 13.97
12/25/2022 1:15:00 AM -0.04 31.928 0.063 6.71 7.31 13.95
12/25/2022 1:30:00 AM -0.04 31.928 0.063 6.73 7.63 13.95
12/25/2022 1:45:00 AM -0.04 31.928 0.063 6.72 6.98 13.95
12/25/2022 2:00:00 AM -0.04 31.928 0.063 6.71 7.13 13.95
12/25/2022 2:15:00 AM -0.04 31.928 0.062 6.73 6.73 13.95
12/25/2022 2:30:00 AM -0.04 31.928 0.062 6.72 7.04 13.95
12/25/2022 2:45:00 AM -0.04 31.928 0.062 6.72 7.92 13.94
12/25/2022 3:00:00 AM -0.04 31.928 0.062 6.72 6.78 13.95
12/25/2022 3:15:00 AM -0.04 31.928 0.062 6.72 7.01 13.94
12/25/2022 3:30:00 AM -0.04 31.928 0.062 6.71 7.84 13.93
12/25/2022 3:45:00 AM -0.04 31.928 0.062 6.72 7.35 13.95
12/25/2022 4:00:00 AM -0.04 31.928 0.062 6.72 7.21 13.94
12/25/2022 4:15:00 AM -0.04 31.928 0.062 6.72 6.35 13.93
12/25/2022 4:30:00 AM -0.04 31.928 0.062 6.72 7.37 13.95
12/25/2022 4:45:00 AM -0.04 31.928 0.062 6.71 7.29 13.94
12/25/2022 5:00:00 AM -0.04 31.928 0.062 6.71 6.58 13.93
12/25/2022 5:15:00 AM -0.03 31.946 0.062 6.71 6.18 13.93
12/25/2022 5:30:00 AM -0.04 31.928 0.062 6.72 6.74 13.94
12/25/2022 5:45:00 AM -0.03 31.946 0.062 6.71 6.54 13.92
12/25/2022 6:00:00 AM -0.03 31.946 0.062 6.71 6.83 13.92
12/25/2022 6:15:00 AM -0.04 31.928 0.062 6.71 6.57 13.93
12/25/2022 6:30:00 AM -0.03 31.946 0.062 6.72 6.17 13.93
12/25/2022 6:45:00 AM -0.04 31.928 0.062 6.71 6.21 13.93
12/25/2022 7:00:00 AM -0.03 31.946 0.062 6.71 6.7 13.9
12/25/2022 7:15:00 AM -0.03 31.946 0.062 6.71 6.26 13.91
12/25/2022 7:30:00 AM -0.03 31.946 0.062 6.71 6.4 13.91
12/25/2022 7:45:00 AM -0.03 31.946 0.062 6.72 6.49 13.91
12/25/2022 8:00:00 AM -0.03 31.946 0.061 6.72 6.09 13.91
12/25/2022 8:15:00 AM -0.03 31.946 0.062 6.71 6.15 13.9
12/25/2022 8:30:00 AM -0.03 31.946 0.062 6.71 5.89 13.9
12/25/2022 8:45:00 AM -0.02 31.964 0.062 6.71 7.22 13.9
12/25/2022 9:00:00 AM -0.02 31.964 0.062 6.7 7.06 13.91
12/25/2022 9:15:00 AM -0.01 31.982 0.062 6.72 6.41 13.92
12/25/2022 9:30:00 AM 0 32 0.062 6.72 6.24 13.91
12/25/2022 9:45:00 AM 0.01 32.018 0.062 6.73 6.21 13.93
12/25/2022 10:00:00 AM 0.03 32.054 0.062 6.72 7 13.92
12/25/2022 10:15:00 AM 0.03 32.054 0.062 6.73 6.25 13.96
12/25/2022 10:30:00 AM 0.04 32.072 0.062 6.74 6.17 13.95
12/25/2022 10:45:00 AM 0.06 32.108 0.062 6.73 6.52 13.93
12/25/2022 11:00:00 AM 0.07 32.126 0.062 6.74 6.05 13.97
12/25/2022 11:15:00 AM 0.08 32.144 0.062 6.74 5.99 13.98
12/25/2022 11:30:00 AM 0.09 32.162 0.062 6.74 6.02 13.96
12/25/2022 11:45:00 AM 0.11 32.198 0.062 6.74 6.16 13.97
12/25/2022 12:00:00 PM 0.12 32.216 0.062 6.73 5.81 13.96
12/25/2022 12:15:00 PM 0.13 32.234 0.062 6.73 7.08 13.97
12/25/2022 12:30:00 PM 0.14 32.252 0.062 6.75 5.97 13.97
12/25/2022 12:45:00 PM 0.14 32.252 0.062 6.75 6.32 13.98
12/25/2022 1:00:00 PM 0.15 32.27 0.062 6.75 6.26 14.01
12/25/2022 1:15:00 PM 0.15 32.27 0.062 6.74 6.46 14.01
12/25/2022 1:30:00 PM 0.15 32.27 0.062 6.73 7.47 14.01
12/25/2022 1:45:00 PM 0.15 32.27 0.062 6.75 8.19 14.02
12/25/2022 2:00:00 PM 0.14 32.252 0.062 6.76 9.71 14.03
12/25/2022 2:15:00 PM 0.14 32.252 0.062 6.76 8.52 14.03
12/25/2022 2:30:00 PM 0.14 32.252 0.062 6.76 7.64 14.03
12/25/2022 2:45:00 PM 0.13 32.234 0.062 6.76 7.85 14.04
12/25/2022 3:00:00 PM 0.14 32.252 0.062 6.77 7.72 14.05
12/25/2022 3:15:00 PM 0.13 32.234 0.062 6.76 9.1 14.04
12/25/2022 3:30:00 PM 0.13 32.234 0.062 6.77 7.71 14.04
12/25/2022 3:45:00 PM 0.12 32.216 0.062 6.76 7.02 14.05
12/25/2022 4:00:00 PM 0.11 32.198 0.062 6.76 6.99 14.04
12/25/2022 4:15:00 PM 0.1 32.18 0.062 6.76 7.81 14.04
12/25/2022 4:30:00 PM 0.09 32.162 0.062 6.77 9.34 14.03
12/25/2022 4:45:00 PM 0.08 32.144 0.062 6.77 8.37 14.04
12/25/2022 5:00:00 PM 0.07 32.126 0.062 6.77 7.4 14.03
12/25/2022 5:15:00 PM 0.06 32.108 0.062 6.74 7.57 14.03
12/25/2022 5:30:00 PM 0.06 32.108 0.062 6.76 7.27 14.01
12/25/2022 5:45:00 PM 0.05 32.09 0.062 6.77 9.04 14.02
12/25/2022 6:00:00 PM 0.05 32.09 0.062 6.76 7.75 13.99
12/25/2022 6:15:00 PM 0.04 32.072 0.062 6.76 7.32 13.99
12/25/2022 6:30:00 PM 0.04 32.072 0.062 6.74 7.33 13.99
12/25/2022 6:45:00 PM 0.03 32.054 0.062 6.75 6.93 13.97
12/25/2022 7:00:00 PM 0.03 32.054 0.062 6.75 7.15 13.98
12/25/2022 7:15:00 PM 0.03 32.054 0.062 6.74 6.63 13.98
12/25/2022 7:30:00 PM 0.03 32.054 0.062 6.75 8.17 13.95
12/25/2022 7:45:00 PM 0.03 32.054 0.062 6.73 6.79 13.96
12/25/2022 8:00:00 PM 0.03 32.054 0.062 6.73 6.68 13.94
12/25/2022 8:15:00 PM 0.03 32.054 0.062 6.75 6.29 13.94
12/25/2022 8:30:00 PM 0.02 32.036 0.062 6.72 6.23 13.95
12/25/2022 8:45:00 PM 0.02 32.036 0.062 6.73 6.22 13.94
12/25/2022 9:00:00 PM 0.03 32.054 0.062 6.74 6.57 13.93
12/25/2022 9:15:00 PM 0.03 32.054 0.062 6.74 7.6 13.92
12/25/2022 9:30:00 PM 0.02 32.036 0.062 6.75 6.78 13.93
12/25/2022 9:45:00 PM 0.03 32.054 0.062 6.71 6.11 13.92
12/25/2022 10:00:00 PM 0.02 32.036 0.062 6.73 7.23 13.92
12/25/2022 10:15:00 PM 0.03 32.054 0.062 6.72 6.51 13.9
12/25/2022 10:30:00 PM 0.03 32.054 0.062 6.73 6.51 13.91
12/25/2022 10:45:00 PM 0.03 32.054 0.062 6.72 6.54 13.92
12/25/2022 11:00:00 PM 0.03 32.054 0.062 6.72 5.59 13.91
12/25/2022 11:15:00 PM 0.03 32.054 0.062 6.74 6.27 13.92
12/25/2022 11:30:00 PM 0.03 32.054 0.062 6.73 6.1 13.92
12/25/2022 11:45:00 PM 0.03 32.054 0.062 6.74 6.28 13.92
12/26/2022 12:00:00 AM 0.03 32.054 0.062 6.73 6.46 13.91
12/26/2022 12:15:00 AM 0.04 32.072 0.062 6.73 6.33 13.91
12/26/2022 12:30:00 AM 0.04 32.072 0.062 6.74 5.79 13.89
12/26/2022 12:45:00 AM 0.04 32.072 0.062 6.74 5.9 13.92
12/26/2022 1:00:00 AM 0.04 32.072 0.062 6.73 6.54 13.9
12/26/2022 1:15:00 AM 0.04 32.072 0.062 6.72 7.57 13.89
12/26/2022 1:30:00 AM 0.04 32.072 0.062 6.73 9.12 13.89
12/26/2022 1:45:00 AM 0.04 32.072 0.062 6.74 6.06 13.89
12/26/2022 2:00:00 AM 0.04 32.072 0.061 6.74 5.72 13.89
12/26/2022 2:15:00 AM 0.04 32.072 0.062 6.73 5.54 13.89
12/26/2022 2:30:00 AM 0.04 32.072 0.062 6.74 6.43 13.88
12/26/2022 2:45:00 AM 0.04 32.072 0.062 6.72 6.62 13.88
12/26/2022 3:00:00 AM 0.04 32.072 0.062 6.73 7.06 13.87
12/26/2022 3:15:00 AM 0.04 32.072 0.062 6.74 4.9 13.89
12/26/2022 3:30:00 AM 0.04 32.072 0.062 6.73 5.36 13.88
12/26/2022 3:45:00 AM 0.05 32.09 0.062 6.73 5.39 13.87
12/26/2022 4:00:00 AM 0.05 32.09 0.062 6.73 6.41 13.86
12/26/2022 4:15:00 AM 0.05 32.09 0.062 6.74 5.41 13.86
12/26/2022 4:30:00 AM 0.05 32.09 0.062 6.73 5.69 13.84
12/26/2022 4:45:00 AM 0.05 32.09 0.062 6.73 6.76 13.85
12/26/2022 5:00:00 AM 0.05 32.09 0.062 6.73 5.11 13.86
12/26/2022 5:15:00 AM 0.05 32.09 0.062 6.75 5 13.83
12/26/2022 5:30:00 AM 0.05 32.09 0.062 6.73 4.99 13.84
12/26/2022 5:45:00 AM 0.05 32.09 0.062 6.72 7.31 13.83
12/26/2022 6:00:00 AM 0.05 32.09 0.062 6.74 5.08 13.84
12/26/2022 6:15:00 AM 0.05 32.09 0.062 6.73 5.25 13.84
12/26/2022 6:30:00 AM 0.05 32.09 0.062 6.73 4.67 13.83
12/26/2022 6:45:00 AM 0.05 32.09 0.062 6.73 6.16 13.83
12/26/2022 7:00:00 AM 0.05 32.09 0.062 6.71 4.68 13.83
12/26/2022 7:15:00 AM 0.05 32.09 0.062 6.72 5.03 13.82
12/26/2022 7:30:00 AM 0.05 32.09 0.062 6.73 4.78 13.83
12/26/2022 7:45:00 AM 0.05 32.09 0.062 6.73 5.22 13.81
12/26/2022 8:00:00 AM 0.05 32.09 0.062 6.72 5.29 13.82
12/26/2022 8:15:00 AM 0.06 32.108 0.062 6.71 4.79 13.81
12/26/2022 8:30:00 AM 0.06 32.108 0.062 6.72 4.63 13.82
12/26/2022 8:45:00 AM 0.06 32.108 0.062 6.73 5 13.82
12/26/2022 9:00:00 AM 0.07 32.126 0.062 6.72 5.07 13.83
12/26/2022 9:15:00 AM 0.09 32.162 0.062 6.73 6.2 13.83
12/26/2022 9:30:00 AM 0.1 32.18 0.062 6.73 6.14 13.84
12/26/2022 9:45:00 AM 0.11 32.198 0.062 6.72 5.1 13.85
12/26/2022 10:00:00 AM 0.12 32.216 0.062 6.72 4.94 13.83
12/26/2022 10:15:00 AM 0.14 32.252 0.062 6.72 4.82 13.85
12/26/2022 10:30:00 AM 0.16 32.288 0.062 6.72 5.33 13.86
12/26/2022 10:45:00 AM 0.18 32.324 0.062 6.72 4.54 13.85
12/26/2022 11:00:00 AM 0.19 32.342 0.062 6.72 4.77 13.85
12/26/2022 11:15:00 AM 0.21 32.378 0.062 6.72 4.79 13.85
12/26/2022 11:30:00 AM 0.21 32.378 0.062 6.72 5.32 13.86
12/26/2022 11:45:00 AM 0.21 32.378 0.062 6.71 4.75 13.83
12/26/2022 12:00:00 PM 0.21 32.378 0.062 6.72 4.91 13.85
12/26/2022 12:15:00 PM 0.22 32.396 0.062 6.73 4.84 13.86
12/26/2022 12:30:00 PM 0.23 32.414 0.062 6.73 4.73 13.85
12/26/2022 12:45:00 PM 0.23 32.414 0.062 6.73 4.77 13.86
12/26/2022 1:00:00 PM 0.24 32.432 0.062 6.73 4.77 13.86
12/26/2022 1:15:00 PM 0.24 32.432 0.062 6.73 4.67 13.87
12/26/2022 1:30:00 PM 0.25 32.45 0.062 6.75 4.61 13.85
12/26/2022 1:45:00 PM 0.26 32.468 0.062 6.75 4.8 13.86
12/26/2022 2:00:00 PM 0.26 32.468 0.062 6.75 4.78 13.87
12/26/2022 2:15:00 PM 0.26 32.468 0.062 6.74 4.63 13.85
12/26/2022 2:30:00 PM 0.26 32.468 0.062 6.75 4.63 13.85
12/26/2022 2:45:00 PM 0.26 32.468 0.062 6.76 4.59 13.85
12/26/2022 3:00:00 PM 0.25 32.45 0.062 6.74 4.68 13.85
12/26/2022 3:15:00 PM 0.25 32.45 0.062 6.76 4.59 13.85
12/26/2022 3:30:00 PM 0.24 32.432 0.062 6.76 4.64 13.87
12/26/2022 3:45:00 PM 0.24 32.432 0.062 6.76 4.6 13.84
12/26/2022 4:00:00 PM 0.23 32.414 0.062 6.76 4.84 13.82
12/26/2022 4:15:00 PM 0.22 32.396 0.061 6.75 4.8 13.83
12/26/2022 4:30:00 PM 0.2 32.36 0.062 6.74 5.06 13.81
12/26/2022 4:45:00 PM 0.19 32.342 0.062 6.75 4.9 13.8
12/26/2022 5:00:00 PM 0.18 32.324 0.062 6.75 4.89 13.78
12/26/2022 5:15:00 PM 0.17 32.306 0.062 6.72 4.77 13.79
12/26/2022 5:30:00 PM 0.16 32.288 0.062 6.72 4.72 13.77
12/26/2022 5:45:00 PM 0.15 32.27 0.062 6.73 5.06 13.75
12/26/2022 6:00:00 PM 0.14 32.252 0.061 6.72 5.04 13.78
12/26/2022 6:15:00 PM 0.14 32.252 0.062 6.74 4.88 13.76
12/26/2022 6:30:00 PM 0.13 32.234 0.062 6.75 4.81 13.76
12/26/2022 6:45:00 PM 0.13 32.234 0.062 6.72 4.96 13.75
12/26/2022 7:00:00 PM 0.12 32.216 0.062 6.73 5.25 13.73
12/26/2022 7:15:00 PM 0.12 32.216 0.061 6.72 5.43 13.74
12/26/2022 7:30:00 PM 0.11 32.198 0.062 6.73 5.31 13.71
12/26/2022 7:45:00 PM 0.11 32.198 0.062 6.71 5.05 13.71
12/26/2022 8:00:00 PM 0.11 32.198 0.062 6.71 4.83 13.71
12/26/2022 8:15:00 PM 0.11 32.198 0.061 6.71 5.04 13.73
12/26/2022 8:30:00 PM 0.11 32.198 0.062 6.7 5.64 13.7
12/26/2022 8:45:00 PM 0.11 32.198 0.062 6.69 5.48 13.7
12/26/2022 9:00:00 PM 0.11 32.198 0.062 6.73 5.17 13.72
12/26/2022 9:15:00 PM 0.1 32.18 0.062 6.7 5.51 13.7
12/26/2022 9:30:00 PM 0.1 32.18 0.062 6.7 5.04 13.7
12/26/2022 9:45:00 PM 0.1 32.18 0.062 6.72 4.81 13.71
12/26/2022 10:00:00 PM 0.1 32.18 0.061 6.72 4.77 13.7
12/26/2022 10:15:00 PM 0.1 32.18 0.062 6.7 5.13 13.73
12/26/2022 10:30:00 PM 0.1 32.18 0.062 6.7 5.68 13.7
12/26/2022 10:45:00 PM 0.1 32.18 0.061 6.73 5.02 13.7
12/26/2022 11:00:00 PM 0.1 32.18 0.061 6.73 4.79 13.7
12/26/2022 11:15:00 PM 0.1 32.18 0.061 6.7 4.78 13.69
12/26/2022 11:30:00 PM 0.1 32.18 0.061 6.69 5.64 13.69
12/26/2022 11:45:00 PM 0.1 32.18 0.061 6.73 5.41 13.7
12/27/2022 12:00:00 AM 0.1 32.18 0.062 6.7 4.9 13.68
12/27/2022 12:15:00 AM 0.1 32.18 0.062 6.69 4.82 13.72
12/27/2022 12:30:00 AM 0.1 32.18 0.062 6.7 5.21 13.69
12/27/2022 12:45:00 AM 0.11 32.198 0.062 6.67 5.04 13.66
12/27/2022 1:00:00 AM 0.1 32.18 0.062 6.69 5.19 13.71
12/27/2022 1:15:00 AM 0.11 32.198 0.062 6.7 4.93 13.68
12/27/2022 1:30:00 AM 0.11 32.198 0.062 6.7 4.87 13.68
12/27/2022 1:45:00 AM 0.11 32.198 0.062 6.7 5.06 13.67
12/27/2022 2:00:00 AM 0.11 32.198 0.062 6.72 5.11 13.68
12/27/2022 2:15:00 AM 0.12 32.216 0.062 6.7 5.2 13.66
12/27/2022 2:30:00 AM 0.11 32.198 0.062 6.7 5.06 13.67
12/27/2022 2:45:00 AM 0.12 32.216 0.062 6.7 5.15 13.67
12/27/2022 3:00:00 AM 0.12 32.216 0.062 6.7 4.88 13.66
12/27/2022 3:15:00 AM 0.12 32.216 0.062 6.7 4.77 13.65
12/27/2022 3:30:00 AM 0.12 32.216 0.062 6.67 4.89 13.65
12/27/2022 3:45:00 AM 0.12 32.216 0.062 6.68 5.17 13.63
12/27/2022 4:00:00 AM 0.12 32.216 0.062 6.7 5.4 13.63
12/27/2022 4:15:00 AM 0.12 32.216 0.062 6.68 5.6 13.63
12/27/2022 4:30:00 AM 0.12 32.216 0.062 6.7 5.17 13.63
12/27/2022 4:45:00 AM 0.12 32.216 0.062 6.7 4.89 13.65
12/27/2022 5:00:00 AM 0.12 32.216 0.062 6.69 4.98 13.62
12/27/2022 5:15:00 AM 0.12 32.216 0.062 6.69 4.56 13.63
12/27/2022 5:30:00 AM 0.12 32.216 0.062 6.68 4.98 13.63
12/27/2022 5:45:00 AM 0.12 32.216 0.062 6.68 4.89 13.64
12/27/2022 6:00:00 AM 0.12 32.216 0.062 6.7 4.74 13.64
12/27/2022 6:15:00 AM 0.12 32.216 0.062 6.69 4.7 13.61
12/27/2022 6:30:00 AM 0.12 32.216 0.062 6.69 4.52 13.62
12/27/2022 6:45:00 AM 0.12 32.216 0.062 6.7 4.96 13.64
12/27/2022 7:00:00 AM 0.12 32.216 0.062 6.7 5.1 13.63
12/27/2022 7:15:00 AM 0.12 32.216 0.062 6.7 4.97 13.62
12/27/2022 7:30:00 AM 0.12 32.216 0.062 6.7 5.08 13.61
12/27/2022 7:45:00 AM 0.12 32.216 0.062 6.7 4.88 13.61
12/27/2022 8:00:00 AM 0.12 32.216 0.062 6.7 4.85 13.62
12/27/2022 8:15:00 AM 0.12 32.216 0.062 6.7 4.91 13.63
12/27/2022 8:30:00 AM 0.13 32.234 0.062 6.7 4.41 13.62
12/27/2022 8:45:00 AM 0.13 32.234 0.062 6.7 4.93 13.62
12/27/2022 9:00:00 AM 0.13 32.234 0.062 6.7 4.62 13.61
12/27/2022 9:15:00 AM 0.14 32.252 0.062 6.69 4.65 13.61
12/27/2022 9:30:00 AM 0.15 32.27 0.062 6.68 4.57 13.64
12/27/2022 9:45:00 AM 0.15 32.27 0.062 6.69 4.57 13.63
12/27/2022 10:00:00 AM 0.16 32.288 0.062 6.68 4.86 13.65
12/27/2022 10:15:00 AM 0.16 32.288 0.062 6.69 4.77 13.65
12/27/2022 10:30:00 AM 0.17 32.306 0.062 6.7 4.71 13.66
12/27/2022 10:45:00 AM 0.18 32.324 0.062 6.7 5.1 13.67
12/27/2022 11:00:00 AM 0.19 32.342 0.062 6.71 4.68 13.69
12/27/2022 11:15:00 AM 0.2 32.36 0.062 6.7 4.8 13.7
12/27/2022 11:30:00 AM 0.21 32.378 0.062 6.7 4.6 13.67
12/27/2022 11:45:00 AM 0.22 32.396 0.062 6.71 4.62 13.7
12/27/2022 12:00:00 PM 0.23 32.414 0.062 6.71 4.94 13.7
12/27/2022 12:15:00 PM 0.24 32.432 0.062 6.71 4.49 13.69
12/27/2022 12:30:00 PM 0.25 32.45 0.062 6.72 4.62 13.72
12/27/2022 12:45:00 PM 0.26 32.468 0.062 6.72 4.64 13.74
12/27/2022 1:00:00 PM 0.27 32.486 0.062 6.71 4.52 13.73
12/27/2022 1:15:00 PM 0.28 32.504 0.062 6.72 4.75 13.75
12/27/2022 1:30:00 PM 0.29 32.522 0.062 6.71 4.56 13.74
12/27/2022 1:45:00 PM 0.3 32.54 0.062 6.72 4.74 13.75
12/27/2022 2:00:00 PM 0.31 32.558 0.062 6.72 4.55 13.73
12/27/2022 2:15:00 PM 0.3 32.54 0.062 6.72 4.73 13.77
12/27/2022 2:30:00 PM 0.31 32.558 0.062 6.73 4.51 13.77
12/27/2022 2:45:00 PM 0.31 32.558 0.061 6.73 4.61 13.75
12/27/2022 3:00:00 PM 0.31 32.558 0.061 6.73 4.55 13.77
12/27/2022 3:15:00 PM 0.31 32.558 0.061 6.72 4.79 13.75
12/27/2022 3:30:00 PM 0.3 32.54 0.061 6.73 4.89 13.77
12/27/2022 3:45:00 PM 0.29 32.522 0.061 6.71 4.69 13.78
12/27/2022 4:00:00 PM 0.29 32.522 0.061 6.71 4.79 13.76
12/27/2022 4:15:00 PM 0.28 32.504 0.061 6.71 4.74 13.76
12/27/2022 4:30:00 PM 0.27 32.486 0.061 6.71 4.6 13.76
12/27/2022 4:45:00 PM 0.26 32.468 0.062 6.71 4.82 13.75
12/27/2022 5:00:00 PM 0.25 32.45 0.061 6.71 4.71 13.76
12/27/2022 5:15:00 PM 0.24 32.432 0.061 6.71 5.02 13.73
12/27/2022 5:30:00 PM 0.23 32.414 0.061 6.71 5.12 13.72
12/27/2022 5:45:00 PM 0.22 32.396 0.061 6.72 4.9 13.71
12/27/2022 6:00:00 PM 0.21 32.378 0.061 6.71 4.76 13.7
12/27/2022 6:15:00 PM 0.2 32.36 0.061 6.71 4.97 13.69
12/27/2022 6:30:00 PM 0.19 32.342 0.061 6.72 4.9 13.69
12/27/2022 6:45:00 PM 0.19 32.342 0.061 6.72 5.26 13.68
12/27/2022 7:00:00 PM 0.18 32.324 0.061 6.72 5 13.67
12/27/2022 7:15:00 PM 0.18 32.324 0.061 6.71 4.93 13.66
12/27/2022 7:30:00 PM 0.18 32.324 0.061 6.72 5.05 13.66
12/27/2022 7:45:00 PM 0.17 32.306 0.061 6.72 4.82 13.66
12/27/2022 8:00:00 PM 0.17 32.306 0.061 6.72 5.03 13.65
12/27/2022 8:15:00 PM 0.17 32.306 0.061 6.71 4.88 13.63
12/27/2022 8:30:00 PM 0.16 32.288 0.062 6.65 4.77 13.64
12/27/2022 8:45:00 PM 0.16 32.288 0.062 6.7 4.8 13.62
12/27/2022 9:00:00 PM 0.16 32.288 0.062 6.68 4.95 13.61
12/27/2022 9:15:00 PM 0.16 32.288 0.062 6.71 4.92 13.61
12/27/2022 9:30:00 PM 0.16 32.288 0.062 6.7 4.89 13.62
12/27/2022 9:45:00 PM 0.16 32.288 0.062 6.7 4.91 13.6
12/27/2022 10:00:00 PM 0.15 32.27 0.061 6.69 5.27 13.61
12/27/2022 10:15:00 PM 0.15 32.27 0.062 6.7 5.11 13.61
12/27/2022 10:30:00 PM 0.15 32.27 0.061 6.71 4.95 13.6
12/27/2022 10:45:00 PM 0.14 32.252 0.061 6.71 5.08 13.62
12/27/2022 11:00:00 PM 0.14 32.252 0.061 6.64 5.07 13.63
12/27/2022 11:15:00 PM 0.14 32.252 0.061 6.74 4.96 13.6
12/27/2022 11:30:00 PM 0.14 32.252 0.061 6.71 5.32 13.6
12/27/2022 11:45:00 PM 0.15 32.27 0.061 6.72 5.5 13.61
12/28/2022 12:00:00 AM 0.14 32.252 0.061 6.72 5.25 13.62
12/28/2022 12:15:00 AM 0.14 32.252 0.061 6.72 5.23 13.62
12/28/2022 12:30:00 AM 0.14 32.252 0.061 6.71 5.29 13.61
12/28/2022 12:45:00 AM 0.14 32.252 0.061 6.71 5.21 13.61
12/28/2022 1:00:00 AM 0.14 32.252 0.061 6.71 5.13 13.61
12/28/2022 1:15:00 AM 0.14 32.252 0.061 6.7 4.92 13.6
12/28/2022 1:30:00 AM 0.15 32.27 0.061 6.69 5.26 13.58
12/28/2022 1:45:00 AM 0.14 32.252 0.061 6.69 5.27 13.6
12/28/2022 2:00:00 AM 0.15 32.27 0.061 6.71 5.25 13.6
12/28/2022 2:15:00 AM 0.15 32.27 0.061 6.7 5.15 13.59
12/28/2022 2:30:00 AM 0.15 32.27 0.061 6.7 5.66 13.59
12/28/2022 2:45:00 AM 0.14 32.252 0.061 6.7 5.28 13.59
12/28/2022 3:00:00 AM 0.14 32.252 0.061 6.7 5.08 13.59
12/28/2022 3:15:00 AM 0.15 32.27 0.061 6.69 4.98 13.57
12/28/2022 3:30:00 AM 0.14 32.252 0.061 6.71 5.23 13.6
12/28/2022 3:45:00 AM 0.15 32.27 0.061 6.65 5.15 13.58
12/28/2022 4:00:00 AM 0.15 32.27 0.061 6.64 5.01 13.6
12/28/2022 4:15:00 AM 0.16 32.288 0.061 6.69 5.08 13.56
12/28/2022 4:30:00 AM 0.16 32.288 0.061 6.69 4.94 13.56
12/28/2022 4:45:00 AM 0.17 32.306 0.061 6.7 5.1 13.55
12/28/2022 5:00:00 AM 0.16 32.288 0.061 6.69 4.8 13.56
12/28/2022 5:15:00 AM 0.16 32.288 0.061 6.7 4.97 13.54
12/28/2022 5:30:00 AM 0.17 32.306 0.061 6.64 4.76 13.54
12/28/2022 5:45:00 AM 0.16 32.288 0.061 6.7 5.1 13.54
12/28/2022 6:00:00 AM 0.17 32.306 0.061 6.7 5.12 13.53
12/28/2022 6:15:00 AM 0.17 32.306 0.061 6.64 5.09 13.55
12/28/2022 6:30:00 AM 0.17 32.306 0.061 6.71 4.73 13.54
12/28/2022 6:45:00 AM 0.17 32.306 0.062 6.7 4.79 13.54
12/28/2022 7:00:00 AM 0.17 32.306 0.062 6.7 4.65 13.52
12/28/2022 7:15:00 AM 0.17 32.306 0.061 6.7 5 13.53
12/28/2022 7:30:00 AM 0.17 32.306 0.061 6.7 4.84 13.51
12/28/2022 7:45:00 AM 0.17 32.306 0.061 6.71 4.75 13.53
12/28/2022 8:00:00 AM 0.17 32.306 0.062 6.69 4.73 13.52
12/28/2022 8:15:00 AM 0.17 32.306 0.061 6.7 4.77 13.53
12/28/2022 8:30:00 AM 0.17 32.306 0.062 6.71 4.77 13.52
12/28/2022 8:45:00 AM 0.17 32.306 0.062 6.71 4.66 13.53
12/28/2022 9:00:00 AM 0.18 32.324 0.061 6.72 4.6 13.53
12/28/2022 9:15:00 AM 0.19 32.342 0.062 6.7 4.78 13.54
12/28/2022 9:30:00 AM 0.2 32.36 0.061 6.73 4.55 13.55
12/28/2022 9:45:00 AM 0.22 32.396 0.061 6.74 4.76 13.55
12/28/2022 10:00:00 AM 0.24 32.432 0.061 6.71 4.72 13.56
12/28/2022 10:15:00 AM 0.27 32.486 0.062 6.72 4.61 13.56
12/28/2022 10:30:00 AM 0.29 32.522 0.062 6.72 4.47 13.58
12/28/2022 10:45:00 AM 0.32 32.576 0.061 6.73 4.63 13.61
12/28/2022 11:00:00 AM 0.34 32.612 0.061 6.73 4.5 13.64
12/28/2022 11:15:00 AM 0.38 32.684 0.061 6.71 4.36 13.63
12/28/2022 11:30:00 AM 0.4 32.72 0.061 6.75 4.5 13.64
12/28/2022 11:45:00 AM 0.42 32.756 0.062 6.73 4.63 13.63
12/28/2022 12:00:00 PM 0.44 32.792 0.062 6.74 4.45 13.67
12/28/2022 12:15:00 PM 0.47 32.846 0.062 6.75 4.65 13.66
12/28/2022 12:30:00 PM 0.49 32.882 0.061 6.73 4.47 13.67
12/28/2022 12:45:00 PM 0.51 32.918 0.061 6.72 4.42 13.68
12/28/2022 1:00:00 PM 0.52 32.936 0.061 6.76 4.4 13.68
12/28/2022 1:15:00 PM 0.53 32.954 0.062 6.76 4.43 13.69
12/28/2022 1:30:00 PM 0.54 32.972 0.061 6.75 4.52 13.72
12/28/2022 1:45:00 PM 0.56 33.008 0.061 6.77 4.56 13.7
12/28/2022 2:00:00 PM 0.58 33.044 0.061 6.77 4.41 13.72
12/28/2022 2:15:00 PM 0.59 33.062 0.061 6.77 4.6 13.72
12/28/2022 2:30:00 PM 0.6 33.08 0.061 6.77 4.63 13.72
12/28/2022 2:45:00 PM 0.61 33.098 0.061 6.77 4.62 13.71
12/28/2022 3:00:00 PM 0.62 33.116 0.061 6.75 4.37 13.73
12/28/2022 3:15:00 PM 0.62 33.116 0.061 6.76 4.24 13.72
12/28/2022 3:30:00 PM 0.6 33.08 0.061 6.78 4.66 13.71
12/28/2022 3:45:00 PM 0.6 33.08 0.061 6.76 4.29 13.71
12/28/2022 4:00:00 PM 0.58 33.044 0.062 6.73 4.61 13.7
12/28/2022 4:15:00 PM 0.57 33.026 0.062 6.78 4.55 13.69
12/28/2022 4:30:00 PM 0.55 32.99 0.062 6.76 4.6 13.69
12/28/2022 4:45:00 PM 0.54 32.972 0.062 6.74 4.49 13.67
12/28/2022 5:00:00 PM 0.52 32.936 0.062 6.75 4.53 13.68
12/28/2022 5:15:00 PM 0.49 32.882 0.062 6.79 4.61 13.68
12/28/2022 5:30:00 PM 0.47 32.846 0.062 6.77 4.58 13.69
12/28/2022 5:45:00 PM 0.45 32.81 0.062 6.78 4.55 13.67
12/28/2022 6:00:00 PM 0.42 32.756 0.061 6.77 4.53 13.68
12/28/2022 6:15:00 PM 0.4 32.72 0.062 6.77 4.8 13.66
12/28/2022 6:30:00 PM 0.37 32.666 0.062 6.77 4.75 13.67
12/28/2022 6:45:00 PM 0.35 32.63 0.061 6.76 4.65 13.65
12/28/2022 7:00:00 PM 0.33 32.594 0.062 6.75 4.7 13.64
12/28/2022 7:15:00 PM 0.31 32.558 0.062 6.75 4.79 13.63
12/28/2022 7:30:00 PM 0.3 32.54 0.062 6.75 4.71 13.62
12/28/2022 7:45:00 PM 0.28 32.504 0.062 6.76 4.62 13.62
12/28/2022 8:00:00 PM 0.27 32.486 0.061 6.74 4.59 13.62
12/28/2022 8:15:00 PM 0.25 32.45 0.061 6.76 4.81 13.6
12/28/2022 8:30:00 PM 0.24 32.432 0.062 6.75 5.05 13.59
12/28/2022 8:45:00 PM 0.23 32.414 0.061 6.75 4.88 13.59
12/28/2022 9:00:00 PM 0.23 32.414 0.061 6.74 5.2 13.57
12/28/2022 9:15:00 PM 0.22 32.396 0.061 6.75 5.19 13.58
12/28/2022 9:30:00 PM 0.21 32.378 0.061 6.75 4.7 13.58
12/28/2022 9:45:00 PM 0.22 32.396 0.061 6.75 4.8 13.56
12/28/2022 10:00:00 PM 0.21 32.378 0.061 6.69 4.8 13.56
12/28/2022 10:15:00 PM 0.2 32.36 0.061 6.75 5.13 13.56
12/28/2022 10:30:00 PM 0.2 32.36 0.061 6.72 5.06 13.57
12/28/2022 10:45:00 PM 0.2 32.36 0.061 6.72 5.08 13.57
12/28/2022 11:00:00 PM 0.2 32.36 0.061 6.71 5.19 13.56
12/28/2022 11:15:00 PM 0.19 32.342 0.061 6.66 4.86 13.57
12/28/2022 11:30:00 PM 0.18 32.324 0.062 6.74 4.83 13.57
12/28/2022 11:45:00 PM 0.18 32.324 0.061 6.74 4.88 13.57
12/29/2022 12:00:00 AM 0.18 32.324 0.061 6.74 5.04 13.56
12/29/2022 12:15:00 AM 0.18 32.324 0.062 6.73 5.06 13.57
12/29/2022 12:30:00 AM 0.18 32.324 0.061 6.74 4.89 13.56
12/29/2022 12:45:00 AM 0.17 32.306 0.061 6.74 5.22 13.57
12/29/2022 1:00:00 AM 0.17 32.306 0.061 6.73 5.08 13.56
12/29/2022 1:15:00 AM 0.17 32.306 0.061 6.73 5.26 13.57
12/29/2022 1:30:00 AM 0.17 32.306 0.061 6.74 5.18 13.57
12/29/2022 1:45:00 AM 0.16 32.288 0.061 6.74 5 13.57
12/29/2022 2:00:00 AM 0.16 32.288 0.061 6.63 5.06 13.56
12/29/2022 2:15:00 AM 0.16 32.288 0.061 6.74 5.14 13.57
12/29/2022 2:30:00 AM 0.16 32.288 0.061 6.74 5.18 13.56
12/29/2022 2:45:00 AM 0.16 32.288 0.061 6.71 5.2 13.55
12/29/2022 3:00:00 AM 0.16 32.288 0.062 6.71 5.21 13.55
12/29/2022 3:15:00 AM 0.16 32.288 0.061 6.65 5.34 13.55
12/29/2022 3:30:00 AM 0.15 32.27 0.061 6.73 5.1 13.55
12/29/2022 3:45:00 AM 0.15 32.27 0.061 6.64 4.88 13.55
12/29/2022 4:00:00 AM 0.15 32.27 0.061 6.7 5.26 13.55
12/29/2022 4:15:00 AM 0.14 32.252 0.061 6.71 5.53 13.55
12/29/2022 4:30:00 AM 0.14 32.252 0.061 6.73 5.06 13.55
12/29/2022 4:45:00 AM 0.15 32.27 0.061 6.73 4.98 13.54
12/29/2022 5:00:00 AM 0.15 32.27 0.061 6.73 6.02 13.55
12/29/2022 5:15:00 AM 0.15 32.27 0.061 6.69 5.59 13.54
12/29/2022 5:30:00 AM 0.15 32.27 0.061 6.69 5 13.53
12/29/2022 5:45:00 AM 0.15 32.27 0.062 6.71 5.55 13.53
12/29/2022 6:00:00 AM 0.15 32.27 0.062 6.72 4.99 13.52
12/29/2022 6:15:00 AM 0.14 32.252 0.061 6.71 4.72 13.53
12/29/2022 6:30:00 AM 0.14 32.252 0.062 6.72 4.75 13.53
12/29/2022 6:45:00 AM 0.16 32.288 0.062 6.7 4.93 13.51
12/29/2022 7:00:00 AM 0.15 32.27 0.062 6.71 4.8 13.52
12/29/2022 7:15:00 AM 0.14 32.252 0.062 6.68 4.72 13.52
12/29/2022 7:30:00 AM 0.14 32.252 0.062 6.7 4.66 13.52
12/29/2022 7:45:00 AM 0.14 32.252 0.062 6.72 4.45 13.53
12/29/2022 8:00:00 AM 0.14 32.252 0.062 6.7 5.81 13.53
12/29/2022 8:15:00 AM 0.15 32.27 0.062 6.68 4.54 13.53
12/29/2022 8:30:00 AM 0.15 32.27 0.062 6.72 4.65 13.53
12/29/2022 8:45:00 AM 0.15 32.27 0.062 6.63 4.58 13.55
12/29/2022 9:00:00 AM 0.15 32.27 0.062 6.63 4.28 13.56
12/29/2022 9:15:00 AM 0.17 32.306 0.062 6.71 4.43 13.57
12/29/2022 9:30:00 AM 0.19 32.342 0.062 6.71 4.57 13.58
12/29/2022 9:45:00 AM 0.22 32.396 0.062 6.73 4.52 13.59
12/29/2022 10:00:00 AM 0.25 32.45 0.062 6.73 4.45 13.6
12/29/2022 10:15:00 AM 0.27 32.486 0.062 6.73 4.35 13.61
12/29/2022 10:30:00 AM 0.3 32.54 0.061 6.72 4.35 13.63
12/29/2022 10:45:00 AM 0.34 32.612 0.061 6.72 4.44 13.64
12/29/2022 11:00:00 AM 0.36 32.648 0.061 6.72 4.53 13.65
12/29/2022 11:15:00 AM 0.4 32.72 0.061 6.73 4.38 13.66
12/29/2022 11:30:00 AM 0.43 32.774 0.061 6.73 4.62 13.69
12/29/2022 11:45:00 AM 0.49 32.882 0.061 6.75 4.26 13.68
12/29/2022 12:00:00 PM 0.52 32.936 0.061 6.72 4.38 13.69
12/29/2022 12:15:00 PM 0.55 32.99 0.061 6.73 4.34 13.71
12/29/2022 12:30:00 PM 0.57 33.026 0.061 6.73 4.45 13.72
12/29/2022 12:45:00 PM 0.59 33.062 0.061 6.75 4.41 13.73
12/29/2022 1:00:00 PM 0.62 33.116 0.061 6.73 4.44 13.72
12/29/2022 1:15:00 PM 0.64 33.152 0.061 6.76 4.35 13.74
12/29/2022 1:30:00 PM 0.66 33.188 0.061 6.76 4.09 13.74
12/29/2022 1:45:00 PM 0.68 33.224 0.061 6.75 4.43 13.75
12/29/2022 2:00:00 PM 0.69 33.242 0.061 6.76 4.23 13.76
12/29/2022 2:15:00 PM 0.71 33.278 0.061 6.76 4.4 13.77
12/29/2022 2:30:00 PM 0.72 33.296 0.061 6.76 4.31 13.77
12/29/2022 2:45:00 PM 0.73 33.314 0.061 6.75 4.41 13.77
12/29/2022 3:00:00 PM 0.72 33.296 0.061 6.76 4.29 13.78
12/29/2022 3:15:00 PM 0.73 33.314 0.061 6.76 4.28 13.77
12/29/2022 3:30:00 PM 0.73 33.314 0.061 6.77 4.19 13.77
12/29/2022 3:45:00 PM 0.72 33.296 0.061 6.78 4.33 13.77
12/29/2022 4:00:00 PM 0.71 33.278 0.061 6.79 4.36 13.78
12/29/2022 4:15:00 PM 0.7 33.26 0.061 6.7 4.47 13.76
12/29/2022 4:30:00 PM 0.69 33.242 0.061 6.79 4.26 13.75
12/29/2022 4:45:00 PM 0.68 33.224 0.061 6.75 4.5 13.74
12/29/2022 5:00:00 PM 0.67 33.206 0.061 6.79 4.12 13.73
12/29/2022 5:15:00 PM 0.63 33.134 0.061 6.79 4.21 13.74
12/29/2022 5:30:00 PM 0.61 33.098 0.061 6.78 4.38 13.72
12/29/2022 5:45:00 PM 0.6 33.08 0.061 6.78 4.14 13.7
12/29/2022 6:00:00 PM 0.59 33.062 0.062 6.78 4.32 13.68
12/29/2022 6:15:00 PM 0.57 33.026 0.061 6.7 4.15 13.67
12/29/2022 6:30:00 PM 0.54 32.972 0.062 6.66 4.27 13.66
12/29/2022 6:45:00 PM 0.52 32.936 0.062 6.7 4.2 13.64
12/29/2022 7:00:00 PM 0.5 32.9 0.062 6.77 4.39 13.63
12/29/2022 7:15:00 PM 0.47 32.846 0.062 6.77 4.46 13.62
12/29/2022 7:30:00 PM 0.45 32.81 0.062 6.68 4.85 13.63
12/29/2022 7:45:00 PM 0.42 32.756 0.062 6.68 4.7 13.61
12/29/2022 8:00:00 PM 0.4 32.72 0.062 6.67 4.35 13.61
12/29/2022 8:15:00 PM 0.39 32.702 0.062 6.66 4.26 13.59
12/29/2022 8:30:00 PM 0.37 32.666 0.062 6.67 4.48 13.58
12/29/2022 8:45:00 PM 0.36 32.648 0.062 6.67 4.58 13.57
12/29/2022 9:00:00 PM 0.35 32.63 0.062 6.67 4.45 13.56
12/29/2022 9:15:00 PM 0.34 32.612 0.062 6.74 4.58 13.56
12/29/2022 9:30:00 PM 0.34 32.612 0.062 6.71 4.7 13.55
12/29/2022 9:45:00 PM 0.33 32.594 0.062 6.73 4.66 13.54
12/29/2022 10:00:00 PM 0.32 32.576 0.062 6.69 4.63 13.54
12/29/2022 10:15:00 PM 0.31 32.558 0.062 6.74 4.81 13.54
12/29/2022 10:30:00 PM 0.32 32.576 0.062 6.66 4.59 13.52
12/29/2022 10:45:00 PM 0.31 32.558 0.062 6.75 4.71 13.53
12/29/2022 11:00:00 PM 0.32 32.576 0.062 6.72 4.48 13.52
12/29/2022 11:15:00 PM 0.32 32.576 0.062 6.73 4.4 13.52
12/29/2022 11:30:00 PM 0.33 32.594 0.062 6.75 4.41 13.52
12/29/2022 11:45:00 PM 0.33 32.594 0.062 6.75 4.35 13.52
12/30/2022 12:00:00 AM 0.34 32.612 0.062 6.75 4.55 13.51
12/30/2022 12:15:00 AM 0.35 32.63 0.062 6.75 4.37 13.5
12/30/2022 12:30:00 AM 0.35 32.63 0.062 6.75 4.52 13.5
12/30/2022 12:45:00 AM 0.36 32.648 0.062 6.73 4.81 13.5
12/30/2022 1:00:00 AM 0.38 32.684 0.062 6.71 4.94 13.47
12/30/2022 1:15:00 AM 0.37 32.666 0.062 6.68 4.56 13.49
12/30/2022 1:30:00 AM 0.38 32.684 0.062 6.74 4.66 13.47
12/30/2022 1:45:00 AM 0.38 32.684 0.062 6.74 4.47 13.49
12/30/2022 2:00:00 AM 0.4 32.72 0.062 6.75 5.08 13.48
12/30/2022 2:15:00 AM 0.39 32.702 0.062 6.77 5.09 13.48
12/30/2022 2:30:00 AM 0.38 32.684 0.062 6.76 5.49 13.51
12/30/2022 2:45:00 AM 0.39 32.702 0.062 6.75 4.58 13.5
12/30/2022 3:00:00 AM 0.4 32.72 0.062 6.75 4.69 13.49
12/30/2022 3:15:00 AM 0.4 32.72 0.062 6.75 4.58 13.48
12/30/2022 3:30:00 AM 0.4 32.72 0.062 6.76 4.51 13.48
12/30/2022 3:45:00 AM 0.41 32.738 0.062 6.75 4.43 13.48
12/30/2022 4:00:00 AM 0.41 32.738 0.062 6.75 4.54 13.48
12/30/2022 4:15:00 AM 0.42 32.756 0.062 6.76 4.8 13.49
12/30/2022 4:30:00 AM 0.42 32.756 0.062 6.72 4.6 13.46
12/30/2022 4:45:00 AM 0.42 32.756 0.062 6.75 4.45 13.45
12/30/2022 5:00:00 AM 0.43 32.774 0.062 6.76 4.46 13.47
12/30/2022 5:15:00 AM 0.42 32.756 0.062 6.76 4.59 13.47
12/30/2022 5:30:00 AM 0.43 32.774 0.062 6.71 4.66 13.46
12/30/2022 5:45:00 AM 0.43 32.774 0.062 6.72 4.57 13.46
12/30/2022 6:00:00 AM 0.43 32.774 0.062 6.76 4.55 13.46
12/30/2022 6:15:00 AM 0.43 32.774 0.062 6.7 4.42 13.47
12/30/2022 6:30:00 AM 0.42 32.756 0.062 6.78 4.8 13.47
12/30/2022 6:45:00 AM 0.43 32.774 0.062 6.76 4.67 13.45
12/30/2022 7:00:00 AM 0.43 32.774 0.062 6.77 4.79 13.47
12/30/2022 7:15:00 AM 0.43 32.774 0.062 6.76 4.56 13.46
12/30/2022 7:30:00 AM 0.43 32.774 0.062 6.76 4.37 13.45
12/30/2022 7:45:00 AM 0.43 32.774 0.062 6.69 4.27 13.46
12/30/2022 8:00:00 AM 0.44 32.792 0.062 6.77 4.24 13.45
12/30/2022 8:15:00 AM 0.43 32.774 0.062 6.71 4.93 13.46
12/30/2022 8:30:00 AM 0.43 32.774 0.062 6.7 4.27 13.46
12/30/2022 8:45:00 AM 0.45 32.81 0.062 6.71 4.22 13.46
12/30/2022 9:00:00 AM 0.46 32.828 0.062 6.68 4.28 13.46
12/30/2022 9:15:00 AM 0.47 32.846 0.062 6.67 4.44 13.47
12/30/2022 9:30:00 AM 0.48 32.864 0.062 6.7 4.01 13.47
12/30/2022 9:45:00 AM 0.48 32.864 0.062 6.77 4.18 13.49
12/30/2022 10:00:00 AM 0.5 32.9 0.062 6.79 4.21 13.49
12/30/2022 10:15:00 AM 0.52 32.936 0.062 6.75 4.07 13.5
12/30/2022 10:30:00 AM 0.54 32.972 0.062 6.79 4.15 13.53
12/30/2022 10:45:00 AM 0.56 33.008 0.062 6.77 4.02 13.52
12/30/2022 11:00:00 AM 0.59 33.062 0.062 6.77 4.3 13.53
12/30/2022 11:15:00 AM 0.62 33.116 0.062 6.77 4.22 13.53
12/30/2022 11:30:00 AM 0.64 33.152 0.062 6.7 4.14 13.55
12/30/2022 11:45:00 AM 0.66 33.188 0.062 6.8 4.13 13.56
12/30/2022 12:00:00 PM 0.69 33.242 0.062 6.72 4.8 13.58
12/30/2022 12:15:00 PM 0.72 33.296 0.061 6.72 4.07 13.6
12/30/2022 12:30:00 PM 0.76 33.368 0.061 6.81 4.11 13.62
12/30/2022 12:45:00 PM 0.79 33.422 0.062 6.72 4.08 13.62
12/30/2022 1:00:00 PM 0.81 33.458 0.061 6.81 4.12 13.64
12/30/2022 1:15:00 PM 0.85 33.53 0.062 6.82 4.08 13.66
12/30/2022 1:30:00 PM 0.89 33.602 0.061 6.8 4.09 13.67
12/30/2022 1:45:00 PM 0.92 33.656 0.061 6.83 4.02 13.67
12/30/2022 2:00:00 PM 0.94 33.692 0.062 6.72 3.99 13.7
12/30/2022 2:15:00 PM 0.97 33.746 0.061 6.8 4.19 13.7
12/30/2022 2:30:00 PM 0.99 33.782 0.061 6.82 4.09 13.71
12/30/2022 2:45:00 PM 1 33.8 0.061 6.75 4.05 13.72
12/30/2022 3:00:00 PM 1.01 33.818 0.061 6.82 4 13.73
12/30/2022 3:15:00 PM 1.02 33.836 0.061 6.84 4.1 13.73
12/30/2022 3:30:00 PM 1.02 33.836 0.061 6.84 4.02 13.74
12/30/2022 3:45:00 PM 1.02 33.836 0.061 6.84 4 13.73
12/30/2022 4:00:00 PM 1.01 33.818 0.061 6.82 4.13 13.74
12/30/2022 4:15:00 PM 1.01 33.818 0.061 6.78 4.28 13.73
12/30/2022 4:30:00 PM 1 33.8 0.061 6.84 4.05 13.73
12/30/2022 4:45:00 PM 0.98 33.764 0.061 6.85 4.07 13.72
12/30/2022 5:00:00 PM 0.96 33.728 0.061 6.84 4.1 13.71
12/30/2022 5:15:00 PM 0.93 33.674 0.062 6.83 4.24 13.69
12/30/2022 5:30:00 PM 0.91 33.638 0.061 6.81 4.12 13.67
12/30/2022 5:45:00 PM 0.87 33.566 0.062 6.84 4.06 13.68
12/30/2022 6:00:00 PM 0.85 33.53 0.062 6.83 4.26 13.66
12/30/2022 6:15:00 PM 0.83 33.494 0.062 6.82 4.1 13.64
12/30/2022 6:30:00 PM 0.8 33.44 0.062 6.81 4.21 13.61
12/30/2022 6:45:00 PM 0.78 33.404 0.062 6.83 4.1 13.61
12/30/2022 7:00:00 PM 0.75 33.35 0.062 6.82 4.13 13.59
12/30/2022 7:15:00 PM 0.73 33.314 0.062 6.82 4.04 13.57
12/30/2022 7:30:00 PM 0.71 33.278 0.062 6.81 4.22 13.57
12/30/2022 7:45:00 PM 0.69 33.242 0.062 6.8 4.27 13.55
12/30/2022 8:00:00 PM 0.66 33.188 0.062 6.79 4.27 13.54
12/30/2022 8:15:00 PM 0.64 33.152 0.062 6.8 4.43 13.53
12/30/2022 8:30:00 PM 0.63 33.134 0.062 6.79 4.5 13.51
12/30/2022 8:45:00 PM 0.61 33.098 0.062 6.79 4.59 13.5
12/30/2022 9:00:00 PM 0.6 33.08 0.062 6.79 4.89 13.48
12/30/2022 9:15:00 PM 0.58 33.044 0.062 6.79 5.01 13.47
12/30/2022 9:30:00 PM 0.57 33.026 0.062 6.81 4.62 13.46
12/30/2022 9:45:00 PM 0.56 33.008 0.062 6.8 4.77 13.45
12/30/2022 10:00:00 PM 0.55 32.99 0.062 6.79 4.66 13.45
12/30/2022 10:15:00 PM 0.54 32.972 0.062 6.78 4.49 13.43
12/30/2022 10:30:00 PM 0.53 32.954 0.062 6.78 4.4 13.43
12/30/2022 10:45:00 PM 0.52 32.936 0.062 6.79 4.4 13.41
12/30/2022 11:00:00 PM 0.52 32.936 0.062 6.78 4.25 13.41
12/30/2022 11:15:00 PM 0.52 32.936 0.062 6.78 4.25 13.4
12/30/2022 11:30:00 PM 0.52 32.936 0.062 6.79 4.24 13.41
12/30/2022 11:45:00 PM 0.51 32.918 0.062 6.78 4.47 13.4
12/31/2022 12:00:00 AM 0.51 32.918 0.062 6.71 4.37 13.4
12/31/2022 12:15:00 AM 0.52 32.936 0.062 6.78 4.36 13.39
12/31/2022 12:30:00 AM 0.52 32.936 0.062 6.71 4.79 13.4
12/31/2022 12:45:00 AM 0.52 32.936 0.062 6.77 4.81 13.39
12/31/2022 1:00:00 AM 0.52 32.936 0.062 6.79 4.71 13.4
12/31/2022 1:15:00 AM 0.51 32.918 0.062 6.78 4.53 13.42
12/31/2022 1:30:00 AM 0.5 32.9 0.062 6.78 4.52 13.4
12/31/2022 1:45:00 AM 0.51 32.918 0.062 6.72 4.89 13.41
12/31/2022 2:00:00 AM 0.5 32.9 0.062 6.78 4.65 13.39
12/31/2022 2:15:00 AM 0.5 32.9 0.062 6.78 4.64 13.4
12/31/2022 2:30:00 AM 0.5 32.9 0.062 6.78 4.67 13.39
12/31/2022 2:45:00 AM 0.5 32.9 0.062 6.76 4.67 13.39
12/31/2022 3:00:00 AM 0.51 32.918 0.062 6.78 4.57 13.4
12/31/2022 3:15:00 AM 0.5 32.9 0.062 6.72 4.7 13.41
12/31/2022 3:30:00 AM 0.51 32.918 0.062 6.67 5.08 13.41
12/31/2022 3:45:00 AM 0.51 32.918 0.061 6.78 5.07 13.39
12/31/2022 4:00:00 AM 0.51 32.918 0.061 6.77 4.76 13.41
12/31/2022 4:15:00 AM 0.52 32.936 0.061 6.74 4.74 13.39
12/31/2022 4:30:00 AM 0.52 32.936 0.061 6.74 4.74 13.41
12/31/2022 4:45:00 AM 0.51 32.918 0.061 6.68 4.79 13.41
12/31/2022 5:00:00 AM 0.53 32.954 0.061 6.78 5.12 13.41
12/31/2022 5:15:00 AM 0.53 32.954 0.061 6.79 4.68 13.41
12/31/2022 5:30:00 AM 0.54 32.972 0.061 6.79 4.73 13.4
12/31/2022 5:45:00 AM 0.55 32.99 0.061 6.78 4.87 13.42
12/31/2022 6:00:00 AM 0.56 33.008 0.061 6.79 4.93 13.41
12/31/2022 6:15:00 AM 0.57 33.026 0.061 6.78 4.84 13.41
12/31/2022 6:30:00 AM 0.57 33.026 0.061 6.77 5.02 13.4
12/31/2022 6:45:00 AM 0.57 33.026 0.061 6.78 4.9 13.42
12/31/2022 7:00:00 AM 0.59 33.062 0.062 6.79 4.81 13.43
12/31/2022 7:15:00 AM 0.6 33.08 0.061 6.79 4.94 13.41
12/31/2022 7:30:00 AM 0.6 33.08 0.062 6.78 4.72 13.43
12/31/2022 7:45:00 AM 0.6 33.08 0.061 6.77 4.64 13.42
12/31/2022 8:00:00 AM 0.61 33.098 0.061 6.77 4.55 13.42
12/31/2022 8:15:00 AM 0.61 33.098 0.062 6.79 4.47 13.41
12/31/2022 8:30:00 AM 0.62 33.116 0.061 6.78 4.6 13.41
12/31/2022 8:45:00 AM 0.63 33.134 0.062 6.78 4.68 13.41
12/31/2022 9:00:00 AM 0.64 33.152 0.062 6.74 4.44 13.44
12/31/2022 9:15:00 AM 0.65 33.17 0.062 6.8 4.54 13.42
12/31/2022 9:30:00 AM 0.66 33.188 0.061 6.79 4.36 13.44
12/31/2022 9:45:00 AM 0.68 33.224 0.061 6.78 4.54 13.43
12/31/2022 10:00:00 AM 0.69 33.242 0.061 6.79 4.32 13.44
12/31/2022 10:15:00 AM 0.7 33.26 0.061 6.74 4.46 13.45
12/31/2022 10:30:00 AM 0.72 33.296 0.061 6.71 4.57 13.46
12/31/2022 10:45:00 AM 0.74 33.332 0.061 6.72 4.7 13.46
12/31/2022 11:00:00 AM 0.75 33.35 0.062 6.72 4.57 13.46
12/31/2022 11:15:00 AM 0.77 33.386 0.062 6.79 4.33 13.49
12/31/2022 11:30:00 AM 0.79 33.422 0.062 6.7 4.33 13.49
12/31/2022 11:45:00 AM 0.81 33.458 0.062 6.71 4.46 13.49
12/31/2022 12:00:00 PM 0.82 33.476 0.062 6.72 4.37 13.51
12/31/2022 12:15:00 PM 0.83 33.494 0.062 6.83 4.36 13.54
12/31/2022 12:30:00 PM 0.86 33.548 0.062 6.82 4.61 13.52
12/31/2022 12:45:00 PM 0.87 33.566 0.062 6.82 4.37 13.55
12/31/2022 1:00:00 PM 0.88 33.584 0.062 6.82 4.3 13.54
12/31/2022 1:15:00 PM 0.9 33.62 0.062 6.82 4.29 13.54
12/31/2022 1:30:00 PM 0.9 33.62 0.062 6.83 4.52 13.56
12/31/2022 1:45:00 PM 0.91 33.638 0.062 6.82 4.13 13.57
12/31/2022 2:00:00 PM 0.92 33.656 0.062 6.83 4.23 13.56
12/31/2022 2:15:00 PM 0.93 33.674 0.063 6.83 4.21 13.57
12/31/2022 2:30:00 PM 0.93 33.674 0.063 6.83 4.46 13.57
12/31/2022 2:45:00 PM 0.93 33.674 0.063 6.82 4.15 13.57
12/31/2022 3:00:00 PM 0.94 33.692 0.063 6.83 4.22 13.58
12/31/2022 3:15:00 PM 0.94 33.692 0.063 6.82 4.09 13.57
12/31/2022 3:30:00 PM 0.94 33.692 0.063 6.84 4.22 13.57
12/31/2022 3:45:00 PM 0.94 33.692 0.063 6.83 4.12 13.57
12/31/2022 4:00:00 PM 0.94 33.692 0.063 6.83 4.04 13.56
12/31/2022 4:15:00 PM 0.94 33.692 0.063 6.82 4.1 13.56
12/31/2022 4:30:00 PM 0.93 33.674 0.063 6.75 4.18 13.53
12/31/2022 4:45:00 PM 0.93 33.674 0.063 6.83 4.29 13.53
12/31/2022 5:00:00 PM 0.92 33.656 0.063 6.81 4.08 13.53
12/31/2022 5:15:00 PM 0.91 33.638 0.063 6.82 4.21 13.52
12/31/2022 5:30:00 PM 0.91 33.638 0.063 6.73 4 13.51
12/31/2022 5:45:00 PM 0.9 33.62 0.063 6.74 4.12 13.49
12/31/2022 6:00:00 PM 0.9 33.62 0.063 6.74 4.3 13.47
12/31/2022 6:15:00 PM 0.89 33.602 0.063 6.81 3.98 13.48
12/31/2022 6:30:00 PM 0.89 33.602 0.063 6.82 4.08 13.45
12/31/2022 6:45:00 PM 0.89 33.602 0.063 6.81 3.99 13.43
12/31/2022 7:00:00 PM 0.88 33.584 0.063 6.82 4.12 13.44
12/31/2022 7:15:00 PM 0.88 33.584 0.063 6.82 4.06 13.43
12/31/2022 7:30:00 PM 0.87 33.566 0.063 6.81 4.14 13.42
12/31/2022 7:45:00 PM 0.87 33.566 0.063 6.8 4 13.41
12/31/2022 8:00:00 PM 0.87 33.566 0.063 6.81 5.38 13.38
12/31/2022 8:15:00 PM 0.87 33.566 0.063 6.8 4.19 13.39
12/31/2022 8:30:00 PM 0.88 33.584 0.063 6.81 4.29 13.37
12/31/2022 8:45:00 PM 0.87 33.566 0.063 6.81 4.48 13.37
12/31/2022 9:00:00 PM 0.87 33.566 0.063 6.82 4.51 13.36
12/31/2022 9:15:00 PM 0.87 33.566 0.064 6.81 4.41 13.37
12/31/2022 9:30:00 PM 0.87 33.566 0.064 6.8 4.25 13.35
12/31/2022 9:45:00 PM 0.87 33.566 0.063 6.81 4.27 13.35
12/31/2022 10:00:00 PM 0.88 33.584 0.063 6.79 4.47 13.35
12/31/2022 10:15:00 PM 0.88 33.584 0.064 6.81 4.45 13.33
12/31/2022 10:30:00 PM 0.88 33.584 0.063 6.81 4.7 13.32
12/31/2022 10:45:00 PM 0.89 33.602 0.064 6.82 4.5 13.33
12/31/2022 11:00:00 PM 0.9 33.62 0.064 6.81 4.65 13.31
12/31/2022 11:15:00 PM 0.9 33.62 0.063 6.81 4.55 13.32
12/31/2022 11:30:00 PM 0.91 33.638 0.063 6.82 4.73 13.32
12/31/2022 11:45:00 PM 0.91 33.638 0.063 6.8 4.47 13.3
1/1/2023 12:00:00 AM 0.91 33.638 0.064 6.81 4.53 13.31
1/1/2023 12:15:00 AM 0.92 33.656 0.063 6.8 4.4 13.31
1/1/2023 12:30:00 AM 0.94 33.692 0.063 6.81 4.59 13.3
1/1/2023 12:45:00 AM 0.95 33.71 0.063 6.82 5.45 13.32
1/1/2023 1:00:00 AM 0.97 33.746 0.063 6.83 4.98 13.33
1/1/2023 1:15:00 AM 0.99 33.782 0.063 6.82 5.14 13.31
1/1/2023 1:30:00 AM 1.01 33.818 0.063 6.83 4.78 13.31
1/1/2023 1:45:00 AM 1.01 33.818 0.063 6.72 4.82 13.28
1/1/2023 2:00:00 AM 1.02 33.836 0.063 6.72 4.89 13.3
1/1/2023 2:15:00 AM 1.04 33.872 0.063 6.83 4.96 13.29
1/1/2023 2:30:00 AM 1.04 33.872 0.063 6.8 5.1 13.27
1/1/2023 2:45:00 AM 1.05 33.89 0.063 6.73 5.13 13.26
1/1/2023 3:00:00 AM 1.06 33.908 0.063 6.83 4.99 13.3
1/1/2023 3:15:00 AM 1.07 33.926 0.063 6.82 5.69 13.3
1/1/2023 3:30:00 AM 1.07 33.926 0.063 6.83 5.46 13.29
1/1/2023 3:45:00 AM 1.06 33.908 0.063 6.81 5.19 13.29
1/1/2023 4:00:00 AM 1.06 33.908 0.063 6.81 5.61 13.3
1/1/2023 4:15:00 AM 1.04 33.872 0.063 6.82 5.17 13.3
1/1/2023 4:30:00 AM 1.02 33.836 0.063 6.81 5.29 13.29
1/1/2023 4:45:00 AM 0.99 33.782 0.063 6.83 7.7 13.34
1/1/2023 5:00:00 AM 0.95 33.71 0.063 6.81 5.56 13.3
1/1/2023 5:15:00 AM 0.93 33.674 0.063 6.8 5.22 13.28
1/1/2023 5:30:00 AM 0.91 33.638 0.064 6.73 5.46 13.31
1/1/2023 5:45:00 AM 0.89 33.602 0.063 6.82 5.57 13.29
1/1/2023 6:00:00 AM 0.87 33.566 0.063 6.81 5.58 13.28
1/1/2023 6:15:00 AM 0.86 33.548 0.063 6.8 5.72 13.31
1/1/2023 6:30:00 AM 0.85 33.53 0.063 6.73 5.78 13.28
1/1/2023 6:45:00 AM 0.84 33.512 0.063 6.82 5.45 13.3
1/1/2023 7:00:00 AM 0.83 33.494 0.063 6.8 5.93 13.34
1/1/2023 7:15:00 AM 0.82 33.476 0.063 6.74 5.53 13.34
1/1/2023 7:30:00 AM 0.83 33.494 0.063 6.74 5.77 13.33
1/1/2023 7:45:00 AM 0.82 33.476 0.063 6.74 5.44 13.37
1/1/2023 8:00:00 AM 0.83 33.494 0.063 6.74 5.66 13.38
1/1/2023 8:15:00 AM 0.83 33.494 0.063 6.82 5.75 13.39
1/1/2023 8:30:00 AM 0.83 33.494 0.063 6.8 5.47 13.35
1/1/2023 8:45:00 AM 0.84 33.512 0.063 6.8 5.93 13.39
1/1/2023 9:00:00 AM 0.85 33.53 0.063 6.8 5.99 13.38
1/1/2023 9:15:00 AM 0.86 33.548 0.063 6.73 5.75 13.39
1/1/2023 9:30:00 AM 0.87 33.566 0.063 6.81 5.36 13.38
1/1/2023 9:45:00 AM 0.89 33.602 0.063 6.72 5.46 13.41
1/1/2023 10:00:00 AM 0.91 33.638 0.063 6.83 5.42 13.43
1/1/2023 10:15:00 AM 0.94 33.692 0.063 6.81 5.71 13.42
1/1/2023 10:30:00 AM 0.97 33.746 0.063 6.84 5.61 13.48
1/1/2023 10:45:00 AM 1.02 33.836 0.063 6.81 5.54 13.42
1/1/2023 11:00:00 AM 1.06 33.908 0.063 6.83 5.83 13.5
1/1/2023 11:15:00 AM 1.1 33.98 0.063 6.74 5.53 13.52
1/1/2023 11:30:00 AM 1.17 34.106 0.063 6.72 5.54 13.52
1/1/2023 11:45:00 AM 1.23 34.214 0.063 6.73 5.45 13.54
1/1/2023 12:00:00 PM 1.28 34.304 0.063 6.85 5.5 13.57
1/1/2023 12:15:00 PM 1.31 34.358 0.063 6.81 5.76 13.53
1/1/2023 12:30:00 PM 1.35 34.43 0.063 6.72 5.37 13.54
1/1/2023 12:45:00 PM 1.35 34.43 0.063 6.72 5.3 13.56
1/1/2023 1:00:00 PM 1.38 34.484 0.063 6.85 5.58 13.55
1/1/2023 1:15:00 PM 1.38 34.484 0.063 6.83 5.82 13.57
1/1/2023 1:30:00 PM 1.41 34.538 0.063 6.85 5.54 13.58
1/1/2023 1:45:00 PM 1.43 34.574 0.063 6.82 5.33 13.56
1/1/2023 2:00:00 PM 1.45 34.61 0.063 6.84 5.89 13.55
1/1/2023 2:15:00 PM 1.45 34.61 0.062 6.84 5.71 13.58
1/1/2023 2:30:00 PM 1.47 34.646 0.063 6.83 5.59 13.58
1/1/2023 2:45:00 PM 1.48 34.664 0.062 6.73 5.62 13.61
1/1/2023 3:00:00 PM 1.47 34.646 0.063 6.75 5.73 13.62
1/1/2023 3:15:00 PM 1.43 34.574 0.062 6.84 5.74 13.61
1/1/2023 3:30:00 PM 1.41 34.538 0.062 6.74 5.28 13.62
1/1/2023 3:45:00 PM 1.37 34.466 0.062 6.73 5.68 13.63
1/1/2023 4:00:00 PM 1.33 34.394 0.062 6.81 5.59 13.63
1/1/2023 4:15:00 PM 1.28 34.304 0.062 6.85 5.89 13.63
1/1/2023 4:30:00 PM 1.22 34.196 0.062 6.74 5.53 13.61
1/1/2023 4:45:00 PM 1.17 34.106 0.063 6.7 5.67 13.61
1/1/2023 5:00:00 PM 1.13 34.034 0.062 6.71 5.81 13.59
1/1/2023 5:15:00 PM 1.08 33.944 0.062 6.68 5.54 13.57
1/1/2023 5:30:00 PM 1.04 33.872 0.062 6.72 5.51 13.6
1/1/2023 5:45:00 PM 1.01 33.818 0.062 6.79 6.11 13.6
1/1/2023 6:00:00 PM 0.98 33.764 0.062 6.68 5.78 13.56
1/1/2023 6:15:00 PM 0.95 33.71 0.062 6.67 5.57 13.58
1/1/2023 6:30:00 PM 0.93 33.674 0.062 6.64 5.72 13.52
1/1/2023 6:45:00 PM 0.92 33.656 0.062 6.69 5.93 13.55
1/1/2023 7:00:00 PM 0.91 33.638 0.062 6.82 5.59 13.55
1/1/2023 7:15:00 PM 0.9 33.62 0.062 6.81 6.52 13.53
1/1/2023 7:30:00 PM 0.9 33.62 0.062 6.81 6.3 13.54
1/1/2023 7:45:00 PM 0.9 33.62 0.062 6.7 5.9 13.53
1/1/2023 8:00:00 PM 0.9 33.62 0.063 6.68 6.25 13.51
1/1/2023 8:15:00 PM 0.9 33.62 0.063 6.64 6.52 13.48
1/1/2023 8:30:00 PM 0.9 33.62 0.063 6.62 5.76 13.48
1/1/2023 8:45:00 PM 0.91 33.638 0.063 6.8 6.17 13.46
1/1/2023 9:00:00 PM 0.91 33.638 0.062 6.68 6.18 13.49
1/1/2023 9:15:00 PM 0.9 33.62 0.063 6.64 7.08 13.44
1/1/2023 9:30:00 PM 0.9 33.62 0.062 6.79 6.06 13.46
1/1/2023 9:45:00 PM 0.89 33.602 0.063 6.73 5.94 13.41
1/1/2023 10:00:00 PM 0.89 33.602 0.063 6.79 5.6 13.45
1/1/2023 10:15:00 PM 0.88 33.584 0.063 6.74 6.09 13.45
1/1/2023 10:30:00 PM 0.88 33.584 0.063 6.78 6.38 13.43
1/1/2023 10:45:00 PM 0.88 33.584 0.063 6.75 5.84 13.42
1/1/2023 11:00:00 PM 0.88 33.584 0.062 6.67 5.98 13.44
1/1/2023 11:15:00 PM 0.88 33.584 0.063 6.65 5.79 13.43
1/1/2023 11:30:00 PM 0.89 33.602 0.063 6.65 5.71 13.44
1/1/2023 11:45:00 PM 0.89 33.602 0.063 6.67 6.22 13.42
1/2/2023 12:00:00 AM 0.89 33.602 0.063 6.76 5.78 13.4
1/2/2023 12:15:00 AM 0.89 33.602 0.063 6.77 6.47 13.42
1/2/2023 12:30:00 AM 0.9 33.62 0.063 6.77 6.18 13.45
1/2/2023 12:45:00 AM 0.91 33.638 0.062 6.78 6.09 13.42
1/2/2023 1:00:00 AM 0.91 33.638 0.063 6.77 5.72 13.42
1/2/2023 1:15:00 AM 0.91 33.638 0.063 6.77 5.84 13.42
1/2/2023 1:30:00 AM 0.91 33.638 0.063 6.74 5.77 13.42
1/2/2023 1:45:00 AM 0.91 33.638 0.063 6.75 5.86 13.41
1/2/2023 2:00:00 AM 0.91 33.638 0.062 6.68 5.79 13.45
1/2/2023 2:15:00 AM 0.9 33.62 0.063 6.64 5.79 13.44
1/2/2023 2:30:00 AM 0.9 33.62 0.062 6.63 5.92 13.43
1/2/2023 2:45:00 AM 0.89 33.602 0.062 6.63 5.84 13.42
1/2/2023 3:00:00 AM 0.89 33.602 0.062 6.74 7.46 13.42
1/2/2023 3:15:00 AM 0.89 33.602 0.062 6.67 5.86 13.4
1/2/2023 3:30:00 AM 0.89 33.602 0.063 6.64 5.74 13.44
1/2/2023 3:45:00 AM 0.89 33.602 0.062 6.61 5.56 13.42
1/2/2023 4:00:00 AM 0.89 33.602 0.062 6.73 5.61 13.43
1/2/2023 4:15:00 AM 0.89 33.602 0.063 6.62 5.75 13.44
1/2/2023 4:30:00 AM 0.89 33.602 0.062 6.58 5.76 13.42
1/2/2023 4:45:00 AM 0.9 33.62 0.062 6.57 5.77 13.43
1/2/2023 5:00:00 AM 0.9 33.62 0.063 6.75 5.96 13.47
1/2/2023 5:15:00 AM 0.9 33.62 0.062 6.67 5.64 13.44
1/2/2023 5:30:00 AM 0.9 33.62 0.062 6.66 5.89 13.45
1/2/2023 5:45:00 AM 0.91 33.638 0.062 6.65 5.45 13.43
1/2/2023 6:00:00 AM 0.91 33.638 0.062 6.66 5.91 13.45
1/2/2023 6:15:00 AM 0.92 33.656 0.063 6.66 5.37 13.46
1/2/2023 6:30:00 AM 0.92 33.656 0.062 6.65 5.64 13.47
1/2/2023 6:45:00 AM 0.92 33.656 0.062 6.75 5.21 13.47
1/2/2023 7:00:00 AM 0.93 33.674 0.062 6.78 5.48 13.45
1/2/2023 7:15:00 AM 0.92 33.656 0.062 6.79 5.99 13.46
1/2/2023 7:30:00 AM 0.92 33.656 0.062 6.76 5.46 13.47
1/2/2023 7:45:00 AM 0.92 33.656 0.062 6.79 5.4 13.47
1/2/2023 8:00:00 AM 0.92 33.656 0.062 6.78 5.09 13.45
1/2/2023 8:15:00 AM 0.91 33.638 0.062 6.77 5.59 13.46
1/2/2023 8:30:00 AM 0.92 33.656 0.062 6.71 5.29 13.5
1/2/2023 8:45:00 AM 0.92 33.656 0.062 6.77 5.15 13.47
1/2/2023 9:00:00 AM 0.94 33.692 0.062 6.77 5.36 13.48
1/2/2023 9:15:00 AM 0.95 33.71 0.062 6.78 5.17 13.51
1/2/2023 9:30:00 AM 0.97 33.746 0.062 6.78 5.3 13.52
1/2/2023 9:45:00 AM 0.99 33.782 0.061 6.68 5.13 13.52
1/2/2023 10:00:00 AM 1.04 33.872 0.062 6.81 5.17 13.53
1/2/2023 10:15:00 AM 1.06 33.908 0.062 6.79 5.09 13.58
1/2/2023 10:30:00 AM 1.1 33.98 0.061 6.82 5.09 13.59
1/2/2023 10:45:00 AM 1.14 34.052 0.061 6.7 5.39 13.61
1/2/2023 11:00:00 AM 1.18 34.124 0.061 6.82 5.15 13.61
1/2/2023 11:15:00 AM 1.23 34.214 0.061 6.79 5.14 13.66
1/2/2023 11:30:00 AM 1.26 34.268 0.061 6.7 5.26 13.67
1/2/2023 11:45:00 AM 1.3 34.34 0.061 6.66 5.5 13.69
1/2/2023 12:00:00 PM 1.34 34.412 0.061 6.64 6.16 13.7
1/2/2023 12:15:00 PM 1.39 34.502 0.06 6.85 5.81 13.78
1/2/2023 12:30:00 PM 1.4 34.52 0.06 6.82 6.5 13.77
1/2/2023 12:45:00 PM 1.43 34.574 0.06 6.85 6.61 13.75
1/2/2023 1:00:00 PM 1.45 34.61 0.06 6.83 7.15 13.78
1/2/2023 1:15:00 PM 1.47 34.646 0.06 6.72 7.35 13.82
1/2/2023 1:30:00 PM 1.5 34.7 0.059 6.7 8.13 13.81
1/2/2023 1:45:00 PM 1.51 34.718 0.059 6.69 8.53 13.84
1/2/2023 2:00:00 PM 1.53 34.754 0.059 6.7 8.32 13.84
1/2/2023 2:15:00 PM 1.53 34.754 0.059 6.81 8.19 13.83
1/2/2023 2:30:00 PM 1.52 34.736 0.059 6.81 7.42 13.83
1/2/2023 2:45:00 PM 1.5 34.7 0.059 6.86 7.22 13.8
1/2/2023 3:00:00 PM 1.49 34.682 0.059 6.82 7.05 13.79
1/2/2023 3:15:00 PM 1.46 34.628 0.059 6.85 8.22 13.79
1/2/2023 3:30:00 PM 1.42 34.556 0.059 6.86 6.93 13.78
1/2/2023 3:45:00 PM 1.37 34.466 0.059 6.82 7.09 13.76
1/2/2023 4:00:00 PM 1.34 34.412 0.059 6.84 8.29 13.73
1/2/2023 4:15:00 PM 1.29 34.322 0.059 6.84 9.8 13.71
1/2/2023 4:30:00 PM 1.25 34.25 0.058 6.8 7.72 13.72
1/2/2023 4:45:00 PM 1.22 34.196 0.058 6.83 6.98 13.69
1/2/2023 5:00:00 PM 1.19 34.142 0.059 6.8 6.73 13.67
1/2/2023 5:15:00 PM 1.17 34.106 0.059 6.81 7.45 13.66
1/2/2023 5:30:00 PM 1.14 34.052 0.058 6.8 7 13.62
1/2/2023 5:45:00 PM 1.12 34.016 0.058 6.81 6.94 13.65
1/2/2023 6:00:00 PM 1.12 34.016 0.058 6.77 6.91 13.62
1/2/2023 6:15:00 PM 1.11 33.998 0.058 6.81 7.81 13.61
1/2/2023 6:30:00 PM 1.09 33.962 0.058 6.76 7.33 13.61
1/2/2023 6:45:00 PM 1.08 33.944 0.058 6.66 7.2 13.59
1/2/2023 7:00:00 PM 1.08 33.944 0.058 6.66 6.83 13.6
1/2/2023 7:15:00 PM 1.07 33.926 0.058 6.74 7.37 13.59
1/2/2023 7:30:00 PM 1.07 33.926 0.058 6.76 8.32 13.6
1/2/2023 7:45:00 PM 1.07 33.926 0.058 6.71 6.41 13.58
1/2/2023 8:00:00 PM 1.07 33.926 0.058 6.76 6.82 13.6
1/2/2023 8:15:00 PM 1.08 33.944 0.058 6.77 6.56 13.59
1/2/2023 8:30:00 PM 1.08 33.944 0.058 6.67 6.12 13.59
1/2/2023 8:45:00 PM 1.09 33.962 0.058 6.76 6.08 13.58
1/2/2023 9:00:00 PM 1.1 33.98 0.058 6.78 6.96 13.61
1/2/2023 9:15:00 PM 1.09 33.962 0.058 6.66 8.77 13.59
1/2/2023 9:30:00 PM 1.1 33.98 0.058 6.73 6.71 13.57
1/2/2023 9:45:00 PM 1.1 33.98 0.058 6.76 6.13 13.55
1/2/2023 10:00:00 PM 1.12 34.016 0.058 6.64 6.29 13.58
1/2/2023 10:15:00 PM 1.12 34.016 0.058 6.62 6.37 13.58
1/2/2023 10:30:00 PM 1.14 34.052 0.058 6.62 7.23 13.56
1/2/2023 10:45:00 PM 1.14 34.052 0.058 6.63 5.95 13.52
1/2/2023 11:00:00 PM 1.16 34.088 0.058 6.63 7.53 13.54
1/2/2023 11:15:00 PM 1.17 34.106 0.058 6.64 6.57 13.54
1/2/2023 11:30:00 PM 1.18 34.124 0.057 6.66 6.28 13.54
1/2/2023 11:45:00 PM 1.18 34.124 0.058 6.75 6.38 13.52
1/3/2023 12:00:00 AM 1.21 34.178 0.057 6.63 6.15 13.53
1/3/2023 12:15:00 AM 1.2 34.16 0.057 6.63 6.26 13.52
1/3/2023 12:30:00 AM 1.2 34.16 0.057 6.66 6.19 13.49
1/3/2023 12:45:00 AM 1.22 34.196 0.057 6.62 5.9 13.5
1/3/2023 1:00:00 AM 1.23 34.214 0.057 6.73 5.83 13.5
1/3/2023 1:15:00 AM 1.23 34.214 0.057 6.67 5.88 13.49
1/3/2023 1:30:00 AM 1.24 34.232 0.057 6.64 6.03 13.49
1/3/2023 1:45:00 AM 1.24 34.232 0.057 6.72 6.21 13.5
1/3/2023 2:00:00 AM 1.26 34.268 0.057 6.61 6.37 13.49
1/3/2023 2:15:00 AM 1.27 34.286 0.057 6.66 6.17 13.5
1/3/2023 2:30:00 AM 1.27 34.286 0.057 6.73 6.07 13.5
1/3/2023 2:45:00 AM 1.27 34.286 0.057 6.66 5.89 13.49
1/3/2023 3:00:00 AM 1.27 34.286 0.057 6.73 5.57 13.47
1/3/2023 3:15:00 AM 1.29 34.322 0.057 6.6 5.86 13.47
1/3/2023 3:30:00 AM 1.31 34.358 0.057 6.73 5.44 13.48
1/3/2023 3:45:00 AM 1.31 34.358 0.057 6.66 5.77 13.47
1/3/2023 4:00:00 AM 1.32 34.376 0.057 6.65 6.54 13.46
1/3/2023 4:15:00 AM 1.34 34.412 0.056 6.66 6.01 13.47
1/3/2023 4:30:00 AM 1.35 34.43 0.056 6.62 6.67 13.46
1/3/2023 4:45:00 AM 1.34 34.412 0.056 6.63 6.49 13.46
1/3/2023 5:00:00 AM 1.37 34.466 0.056 6.64 6.09 13.48
1/3/2023 5:15:00 AM 1.37 34.466 0.056 6.67 6.29 13.45
1/3/2023 5:30:00 AM 1.38 34.484 0.056 6.65 5.57 13.46
1/3/2023 5:45:00 AM 1.4 34.52 0.056 6.75 6 13.43
1/3/2023 6:00:00 AM 1.41 34.538 0.056 6.65 6.27 13.44
1/3/2023 6:15:00 AM 1.42 34.556 0.056 6.66 5.55 13.45
1/3/2023 6:30:00 AM 1.43 34.574 0.056 6.67 5.86 13.44
1/3/2023 6:45:00 AM 1.46 34.628 0.056 6.66 5.65 13.44
1/3/2023 7:00:00 AM 1.45 34.61 0.056 6.66 5.83 13.44
1/3/2023 7:15:00 AM 1.46 34.628 0.056 6.66 5.82 13.43
1/3/2023 7:30:00 AM 1.46 34.628 0.056 6.73 8.72 13.44
1/3/2023 7:45:00 AM 1.48 34.664 0.056 6.65 5.59 13.42
1/3/2023 8:00:00 AM 1.5 34.7 0.056 6.65 5.8 13.42
1/3/2023 8:15:00 AM 1.51 34.718 0.056 6.6 5.32 13.42
1/3/2023 8:30:00 AM 1.52 34.736 0.056 6.66 5.53 13.41
1/3/2023 8:45:00 AM 1.53 34.754 0.056 6.61 5.8 13.41
1/3/2023 9:00:00 AM 1.54 34.772 0.055 6.73 5.39 13.4
1/3/2023 9:15:00 AM 1.55 34.79 0.055 6.66 5.8 13.42
1/3/2023 9:30:00 AM 1.56 34.808 0.055 6.76 5.28 13.41
1/3/2023 9:45:00 AM 1.59 34.862 0.056 6.7 5.34 13.41
1/3/2023 10:00:00 AM 1.61 34.898 0.055 6.75 5.49 13.41
1/3/2023 10:15:00 AM 1.63 34.934 0.055 6.74 5.41 13.4
1/3/2023 10:30:00 AM 1.64 34.952 0.055 6.76 5.44 13.42
1/3/2023 10:45:00 AM 1.65 34.97 0.055 6.68 5.61 13.42
1/3/2023 11:00:00 AM 1.65 34.97 0.055 6.75 5.62 13.41
1/3/2023 11:15:00 AM 1.66 34.988 0.055 6.69 5.49 13.43
1/3/2023 11:30:00 AM 1.69 35.042 0.055 6.77 5.79 13.4
1/3/2023 11:45:00 AM 1.7 35.06 0.055 6.77 5.8 13.4
1/3/2023 12:00:00 PM 1.7 35.06 0.055 6.66 5.63 13.4
1/3/2023 12:15:00 PM 1.75 35.15 0.055 6.66 5.65 13.42
1/3/2023 12:30:00 PM 1.79 35.222 0.055 6.68 6.35 13.44
1/3/2023 12:45:00 PM 1.81 35.258 0.055 6.65 6.63 13.43
1/3/2023 1:00:00 PM 1.83 35.294 0.054 6.68 5.89 13.41
1/3/2023 1:15:00 PM 1.85 35.33 0.055 6.68 5.87 13.41
1/3/2023 1:30:00 PM 1.86 35.348 0.055 6.75 5.57 13.4
1/3/2023 1:45:00 PM 1.89 35.402 0.055 6.67 5.68 13.37
1/3/2023 2:00:00 PM 1.9 35.42 0.055 6.64 6.41 13.37
1/3/2023 2:15:00 PM 1.91 35.438 0.055 6.67 5.64 13.36
1/3/2023 2:30:00 PM 1.92 35.456 0.055 6.75 6.72 13.35
1/3/2023 2:45:00 PM 1.91 35.438 0.055 6.74 5.87 13.36
1/3/2023 3:00:00 PM 1.91 35.438 0.055 6.75 5.92 13.32
1/3/2023 3:15:00 PM 1.91 35.438 0.055 6.68 6.77 13.3
1/3/2023 3:30:00 PM 1.92 35.456 0.054 6.68 5.85 13.3
1/3/2023 3:45:00 PM 1.96 35.528 0.055 6.65 5.9 13.29
1/3/2023 4:00:00 PM 1.95 35.51 0.055 6.65 6.11 13.28
1/3/2023 4:15:00 PM 1.98 35.564 0.055 6.75 5.87 13.25
1/3/2023 4:30:00 PM 2 35.6 0.055 6.69 5.88 13.25
1/3/2023 4:45:00 PM 1.99 35.582 0.055 6.66 5.82 13.22
1/3/2023 5:00:00 PM 2 35.6 0.055 6.68 6.15 13.2
1/3/2023 5:15:00 PM 2.01 35.618 0.055 6.63 5.96 13.17
1/3/2023 5:30:00 PM 2 35.6 0.055 6.64 5.8 13.14
1/3/2023 5:45:00 PM 2.01 35.618 0.055 6.74 6.24 13.13
1/3/2023 6:00:00 PM 2.03 35.654 0.055 6.67 6.06 13.11
1/3/2023 6:15:00 PM 2.03 35.654 0.055 6.74 6.7 13.07
1/3/2023 6:30:00 PM 2.04 35.672 0.056 6.66 5.97 13.07
1/3/2023 6:45:00 PM 2.06 35.708 0.056 6.66 6.15 13.08
1/3/2023 7:00:00 PM 2.06 35.708 0.055 6.66 5.85 13.06
1/3/2023 7:15:00 PM 2.05 35.69 0.056 6.64 6.04 13.06
1/3/2023 7:30:00 PM 2.04 35.672 0.055 6.65 6.02 13.06
1/3/2023 7:45:00 PM 2.05 35.69 0.055 6.66 6.64 13.05
1/3/2023 8:00:00 PM 2.03 35.654 0.055 6.66 6.14 13.06
1/3/2023 8:15:00 PM 2.02 35.636 0.055 6.72 5.91 13.06
1/3/2023 8:30:00 PM 2.01 35.618 0.056 6.66 6.49 13.06
1/3/2023 8:45:00 PM 2 35.6 0.055 6.65 6.91 13.05
1/3/2023 9:00:00 PM 2.02 35.636 0.055 6.66 5.92 13.06
1/3/2023 9:15:00 PM 2.02 35.636 0.055 6.64 6.1 13.09
1/3/2023 9:30:00 PM 2.05 35.69 0.055 6.66 6.41 13.1
1/3/2023 9:45:00 PM 2.07 35.726 0.055 6.67 6.16 13.08
1/3/2023 10:00:00 PM 2.06 35.708 0.055 6.67 6.1 13.09
1/3/2023 10:15:00 PM 2.08 35.744 0.055 6.68 7.93 13.09
1/3/2023 10:30:00 PM 2.08 35.744 0.055 6.67 6.29 13.08
1/3/2023 10:45:00 PM 2.08 35.744 0.055 6.66 6.53 13.08
1/3/2023 11:00:00 PM 2.1 35.78 0.055 6.67 6.27 13.09
1/3/2023 11:15:00 PM 2.12 35.816 0.055 6.66 7.12 13.09
1/3/2023 11:30:00 PM 2.17 35.906 0.054 6.75 7.01 13.11
1/3/2023 11:45:00 PM 2.19 35.942 0.054 6.68 8.11 13.1
1/4/2023 12:00:00 AM 2.2 35.96 0.054 6.73 6.43 13.09
1/4/2023 12:15:00 AM 2.21 35.978 0.054 6.68 6.36 13.09
1/4/2023 12:30:00 AM 2.23 36.014 0.054 6.67 6.71 13.08
1/4/2023 12:45:00 AM 2.24 36.032 0.054 6.68 7.01 13.06
1/4/2023 1:00:00 AM 2.25 36.05 0.054 6.67 6.9 13.04
1/4/2023 1:15:00 AM 2.27 36.086 0.054 6.65 6.75 13.05
1/4/2023 1:30:00 AM 2.29 36.122 0.053 6.66 7.38 13.08
1/4/2023 1:45:00 AM 2.29 36.122 0.053 6.66 7.02 13.07
1/4/2023 2:00:00 AM 2.29 36.122 0.053 6.62 7.15 13.03
1/4/2023 2:15:00 AM 2.3 36.14 0.053 6.65 6.74 13.04
1/4/2023 2:30:00 AM 2.3 36.14 0.053 6.65 7.1 13.03
1/4/2023 2:45:00 AM 2.31 36.158 0.053 6.66 7.68 13.02
1/4/2023 3:00:00 AM 2.3 36.14 0.053 6.69 7.45 13.04
1/4/2023 3:15:00 AM 2.29 36.122 0.053 6.66 7.65 13
1/4/2023 3:30:00 AM 2.32 36.176 0.053 6.63 7.23 13.04
1/4/2023 3:45:00 AM 2.32 36.176 0.053 6.63 7.86 13.02
1/4/2023 4:00:00 AM 2.33 36.194 0.053 6.63 7.37 13.02
1/4/2023 4:15:00 AM 2.33 36.194 0.052 6.63 10.48 13.03
1/4/2023 4:30:00 AM 2.32 36.176 0.052 6.65 8.13 13.04
1/4/2023 4:45:00 AM 2.32 36.176 0.052 6.64 8.9 13.05
1/4/2023 5:00:00 AM 2.33 36.194 0.052 6.63 8.6 13.07
1/4/2023 5:15:00 AM 2.32 36.176 0.052 6.62 7.89 13.04
1/4/2023 5:30:00 AM 2.33 36.194 0.052 6.69 7.71 13.02
1/4/2023 5:45:00 AM 2.32 36.176 0.052 6.62 8.35 13.04
1/4/2023 6:00:00 AM 2.32 36.176 0.052 6.63 9.27 13.04
1/4/2023 6:15:00 AM 2.3 36.14 0.052 6.65 8.89 13.04
1/4/2023 6:30:00 AM 2.3 36.14 0.052 6.62 9.44 13.06
1/4/2023 6:45:00 AM 2.3 36.14 0.052 6.6 9.2 13.05
1/4/2023 7:00:00 AM 2.29 36.122 0.052 6.69 10.22 13.04
1/4/2023 7:15:00 AM 2.3 36.14 0.052 6.72 9.61 13.04
1/4/2023 7:30:00 AM 2.24 36.032 0.052 6.7 7.77 13
1/4/2023 7:45:00 AM 2.28 36.104 0.051 6.71 7.56 13.04
1/4/2023 8:00:00 AM 2.3 36.14 0.052 6.71 8.66 13.05
1/4/2023 8:15:00 AM 2.29 36.122 0.052 6.7 7.7 13.03
1/4/2023 8:30:00 AM 2.3 36.14 0.052 6.7 7.72 13.06
1/4/2023 8:45:00 AM 2.32 36.176 0.052 6.62 7.68 13.05
1/4/2023 9:00:00 AM 2.35 36.23 0.052 6.71 8.59 13.07
1/4/2023 9:15:00 AM 2.37 36.266 0.051 6.7 9.02 13.06
1/4/2023 9:30:00 AM 2.4 36.32 0.051 6.71 10.35 13.1
1/4/2023 9:45:00 AM 2.43 36.374 0.051 6.72 11.15 13.13
1/4/2023 10:00:00 AM 2.45 36.41 0.051 6.62 9.37 13.14
1/4/2023 10:15:00 AM 2.48 36.464 0.051 6.72 7.93 13.19
1/4/2023 10:30:00 AM 2.52 36.536 0.051 6.73 8.48 13.22
1/4/2023 10:45:00 AM 2.53 36.554 0.051 6.73 11.78 13.24
1/4/2023 11:00:00 AM 2.55 36.59 0.051 6.73 12.6 13.25
1/4/2023 11:15:00 AM 2.56 36.608 0.051 6.72 15.2 13.26
1/4/2023 11:30:00 AM 2.58 36.644 0.051 6.7 13.39 13.27
1/4/2023 11:45:00 AM 2.6 36.68 0.05 6.73 17.56 13.26
1/4/2023 12:00:00 PM 2.62 36.716 0.05 6.73 21.16 13.26
1/4/2023 12:15:00 PM 2.66 36.788 0.051 6.72 15.84 13.28
1/4/2023 12:30:00 PM 2.67 36.806 0.05 6.72 14.93 13.28
1/4/2023 12:45:00 PM 2.65 36.77 0.05 6.71 30.48 13.26
1/4/2023 1:00:00 PM 2.71 36.878 0.05 6.53 13.36 13.28
1/4/2023 1:15:00 PM 2.71 36.878 0.051 6.46 36.71 13.27
1/4/2023 1:30:00 PM 2.72 36.896 0.053 6.5 16.95 13.25
1/4/2023 1:45:00 PM 2.77 36.986 0.051 6.67 36.68 13.23
1/4/2023 2:00:00 PM 2.8 37.04 0.052 6.78 31.76 13.29
1/4/2023 2:15:00 PM 2.8 37.04 0.045 6.77 24.08 13.26
1/4/2023 2:30:00 PM 2.81 37.058 0.033 6.76 31.95 13.24
1/4/2023 2:45:00 PM 2.8 37.04 0.053 6.67 47.55 13.22
1/4/2023 3:00:00 PM 2.8 37.04 0.05 6.7 23.43 13.17
1/4/2023 3:15:00 PM 2.79 37.022 0.042 6.76 51.96 13.1
1/4/2023 3:30:00 PM 2.77 36.986 0.051 6.88 199.4 12.39
1/4/2023 3:45:00 PM 2.76 36.968 0.053 6.51 40.91 12.56
1/4/2023 4:00:00 PM 2.77 36.986 0.053 6.87 35.93 12.58
1/4/2023 4:15:00 PM 2.76 36.968 0.046 6.64 37.81 12.24
1/4/2023 4:30:00 PM 2.74 36.932 0.049 7.63 21.23 12.68
1/4/2023 4:45:00 PM 2.73 36.914 0.06 6.67 68.01 12.17
1/4/2023 5:00:00 PM 2.71 36.878 0.062 6.71 178.09 12.39
1/4/2023 5:15:00 PM 2.71 36.878 0.061 6.72 52.63 12.23
1/4/2023 5:30:00 PM 2.7 36.86 0.064 6.66 141.66 11.81
1/4/2023 5:45:00 PM 2.69 36.842 0.063 6.89 19.13 11.65
1/4/2023 6:00:00 PM 2.7 36.86 0.062 6.75 26.74 11.64
1/4/2023 6:15:00 PM 2.7 36.86 0.063 6.64 123.44 11.71
1/4/2023 6:30:00 PM 2.72 36.896 0.06 6.32 62.85 11.41
1/4/2023 6:45:00 PM 2.75 36.95 0.058 6.62 62.21 11.43
1/4/2023 7:00:00 PM 2.79 37.022 0.059 6.65 56.56 11.58
1/4/2023 7:15:00 PM 2.82 37.076 0.057 6.66 57.21 11.47
1/4/2023 7:30:00 PM 2.84 37.112 0.058 6.62 64.18 11.3
1/4/2023 7:45:00 PM 2.86 37.148 0.055 6.68 65.15 11.33
1/4/2023 8:00:00 PM 2.88 37.184 0.055 6.6 47.26 11.34
1/4/2023 8:15:00 PM 2.9 37.22 0.054 6.65 49.98 11.73
1/4/2023 8:30:00 PM 2.92 37.256 0.056 6.68 44.54 11.96
1/4/2023 8:45:00 PM 2.95 37.31 0.056 6.76 54.09 11.9
1/4/2023 9:00:00 PM 2.97 37.346 0.054 6.63 64.4 11.78
1/4/2023 9:15:00 PM 2.96 37.328 0.054 6.64 70.52 12.02
1/4/2023 9:30:00 PM 2.95 37.31 0.053 6.81 36.35 12.05
1/4/2023 9:45:00 PM 2.95 37.31 0.05 6.67 20.29 12.06
1/4/2023 10:00:00 PM 2.95 37.31 0.048 6.8 80.32 12.05
1/4/2023 10:15:00 PM 2.96 37.328 0.047 6.6 89.45 12.01
1/4/2023 10:30:00 PM 2.96 37.328 0.046 6.76 46.6 11.67
1/4/2023 10:45:00 PM 2.97 37.346 0.045 6.87 48.32 11.45
1/4/2023 11:00:00 PM 2.97 37.346 0.045 6.72 80.6 11.5
1/4/2023 11:15:00 PM 2.97 37.346 0.05 6.83 1124.19 11.57
1/4/2023 11:30:00 PM 2.98 37.364 0.048 6.69 1840.6 11.57
1/4/2023 11:45:00 PM 2.99 37.382 0.047 6.75 2199.8 11.58
1/5/2023 12:00:00 AM 2.99 37.382 0.045 6.64 3629.3 11.57
1/5/2023 12:15:00 AM 2.99 37.382 0.047 6.9 2844.83 11.58
1/5/2023 12:30:00 AM 3 37.4 0.047 6.83 3690.73 11.6
1/5/2023 12:45:00 AM 3.02 37.436 0.047 6.84 1651.38 11.65
1/5/2023 1:00:00 AM 3.03 37.454 0.047 6.75 576.06 11.71
1/5/2023 1:15:00 AM 3.05 37.49 0.047 6.65 289.46 11.83
1/5/2023 1:30:00 AM 3.06 37.508 0.047 6.71 49.38 11.9
1/5/2023 1:45:00 AM 3.07 37.526 0.046 6.71 35.93 11.9
1/5/2023 2:00:00 AM 3.07 37.526 0.047 6.78 53.07 11.83
1/5/2023 2:15:00 AM 3.07 37.526 0.052 6.78 54.76 11.8
1/5/2023 2:30:00 AM 3.07 37.526 0.054 6.7 57.42 11.8
1/5/2023 2:45:00 AM 3.08 37.544 0.055 6.74 58.51 11.81
1/5/2023 3:00:00 AM 3.07 37.526 0.06 6.67 57.59 11.77
1/5/2023 3:15:00 AM 3.07 37.526 0.055 6.74 55.9 11.72
1/5/2023 3:30:00 AM 3.07 37.526 0.057 6.7 56.48 11.71
1/5/2023 3:45:00 AM 3.07 37.526 0.057 6.66 56.21 11.71
1/5/2023 4:00:00 AM 3.08 37.544 0.057 6.74 56.2 11.73
1/5/2023 4:15:00 AM 3.09 37.562 0.062 6.72 56.97 11.72
1/5/2023 4:30:00 AM 3.11 37.598 0.057 6.71 57.06 11.7
1/5/2023 4:45:00 AM 3.12 37.616 0.063 6.74 58.2 11.72
1/5/2023 5:00:00 AM 3.13 37.634 0.054 6.68 58.31 11.66
1/5/2023 5:15:00 AM 3.13 37.634 0.067 6.73 58.85 11.68
1/5/2023 5:30:00 AM 3.13 37.634 0.06 6.74 57.53 11.69
1/5/2023 5:45:00 AM 3.13 37.634 0.059 6.74 56.86 11.72
1/5/2023 6:00:00 AM 3.13 37.634 0.058 6.7 56.82 11.67
1/5/2023 6:15:00 AM 3.12 37.616 0.059 6.75 57.8 11.74
1/5/2023 6:30:00 AM 3.11 37.598 0.058 6.74 58.56 11.74
1/5/2023 6:45:00 AM 3.11 37.598 0.062 6.74 59.34 11.74
1/5/2023 7:00:00 AM 3.1 37.58 0.061 6.69 60.01 11.78
1/5/2023 7:15:00 AM 3.09 37.562 0.062 6.74 60.68 11.76
1/5/2023 7:30:00 AM 3.09 37.562 0.062 6.81 61.53 11.75
1/5/2023 7:45:00 AM 3.09 37.562 0.064 6.73 62.23 11.73
1/5/2023 8:00:00 AM 3.1 37.58 0.062 6.73 62.7 11.74
1/5/2023 8:15:00 AM 3.11 37.598 0.064 6.73 63.16 11.74
1/5/2023 8:30:00 AM 3.11 37.598 0.067 6.72 64.29 11.75
1/5/2023 8:45:00 AM 3.12 37.616 0.074 6.72 64.13 11.82
1/5/2023 9:00:00 AM 3.14 37.652 0.072 6.71 63.19 11.83
1/5/2023 9:15:00 AM 3.16 37.688 0.074 6.74 62.09 11.84
1/5/2023 9:30:00 AM 3.18 37.724 0.072 6.73 62.43 11.85
1/5/2023 9:45:00 AM 3.21 37.778 0.077 6.73 62 11.85
1/5/2023 10:00:00 AM 3.25 37.85 0.08 6.72 61.47 11.87
1/5/2023 10:15:00 AM 3.31 37.958 0.077 6.74 60.99 11.88
1/5/2023 10:30:00 AM 3.36 38.048 0.07 6.71 61.24 11.88
1/5/2023 10:45:00 AM 3.42 38.156 0.072 6.73 61.61 11.9
1/5/2023 11:00:00 AM 3.47 38.246 0.07 6.72 61.78 11.91
1/5/2023 11:15:00 AM 3.54 38.372 0.075 6.7 61.58 11.92
1/5/2023 11:30:00 AM 3.61 38.498 0.075 6.72 61.24 11.92
1/5/2023 11:45:00 AM 3.69 38.642 0.08 6.71 61.91 11.94
1/5/2023 12:00:00 PM 3.77 38.786 0.082 6.72 61.06 11.96
1/5/2023 12:15:00 PM 3.83 38.894 0.087 6.72 61.47 12.03
1/5/2023 12:30:00 PM 3.9 39.02 0.089 6.7 61.48 12.06
1/5/2023 12:45:00 PM 3.95 39.11 0.093 6.71 60.74 12.06
1/5/2023 1:00:00 PM 4 39.2 0.094 6.71 61.74 12.13
1/5/2023 1:15:00 PM 4.03 39.254 0.086 6.7 62.5 12.12
1/5/2023 1:30:00 PM 4.07 39.326 0.083 6.7 63.52 12.11
1/5/2023 1:45:00 PM 4.11 39.398 0.082 6.69 63.44 12.08
1/5/2023 2:00:00 PM 4.15 39.47 0.081 6.69 63.64 12.13
1/5/2023 2:15:00 PM 4.17 39.506 0.084 6.7 63.77 12.13
1/5/2023 2:30:00 PM 4.18 39.524 0.085 6.7 65.28 12.11
1/5/2023 2:45:00 PM 4.19 39.542 0.09 6.7 63.3 12.11
1/5/2023 3:00:00 PM 4.19 39.542 0.088 6.68 63.62 12.1
1/5/2023 3:15:00 PM 4.19 39.542 0.095 6.75 64.62 12.08
1/5/2023 3:30:00 PM 4.18 39.524 0.092 6.72 65.64 12.07
1/5/2023 3:45:00 PM 4.17 39.506 0.094 6.71 66.89 12.08
1/5/2023 4:00:00 PM 4.14 39.452 0.087 6.72 65.93 12.12
1/5/2023 4:15:00 PM 4.11 39.398 0.096 6.73 66.03 12.13
1/5/2023 4:30:00 PM 4.08 39.344 0.088 6.68 66.52 12.13
1/5/2023 4:45:00 PM 4.05 39.29 0.088 6.72 67.57 12.12
1/5/2023 5:00:00 PM 4.03 39.254 0.095 6.7 67.24 12.12
1/5/2023 5:15:00 PM 4 39.2 0.096 6.69 68.64 12.09
1/5/2023 5:30:00 PM 3.96 39.128 0.106 6.68 68.98 12.09
1/5/2023 5:45:00 PM 3.93 39.074 0.1 6.7 72.34 12.07
1/5/2023 6:00:00 PM 3.9 39.02 0.106 6.7 70.6 12.04
1/5/2023 6:15:00 PM 3.87 38.966 0.147 6.69 71.27 12.02
1/5/2023 6:30:00 PM 3.84 38.912 0.124 6.69 74.05 12.02
1/5/2023 6:45:00 PM 3.81 38.858 0.135 6.69 75.37 12.04
1/5/2023 7:00:00 PM 3.79 38.822 0.137 6.69 75.45 12.03
1/5/2023 7:15:00 PM 3.77 38.786 0.102 6.7 76.6 12.02
1/5/2023 7:30:00 PM 3.75 38.75 0.096 6.66 77.74 12.01
1/5/2023 7:45:00 PM 3.72 38.696 0.092 6.67 77.75 12.01
1/5/2023 8:00:00 PM 3.7 38.66 0.094 6.65 74.93 12.02
1/5/2023 8:15:00 PM 3.68 38.624 0.094 6.67 72.1 12.01
1/5/2023 8:30:00 PM 3.66 38.588 0.096 6.64 76.72 12
1/5/2023 8:45:00 PM 3.64 38.552 0.094 6.68 78.51 12
1/5/2023 9:00:00 PM 3.63 38.534 0.1 6.68 77.68 12.02
1/5/2023 9:15:00 PM 3.62 38.516 0.102 6.67 73.73 12.03
1/5/2023 9:30:00 PM 3.61 38.498 0.115 6.66 72.63 12.01
1/5/2023 9:45:00 PM 3.6 38.48 0.097 6.66 70.07 12.01
1/5/2023 10:00:00 PM 3.6 38.48 0.098 6.7 67.9 12.01
1/5/2023 10:15:00 PM 3.6 38.48 0.096 6.67 66.89 12
1/5/2023 10:30:00 PM 3.6 38.48 0.115 6.67 68.09 11.99
1/5/2023 10:45:00 PM 3.6 38.48 0.097 6.68 67.53 11.98
1/5/2023 11:00:00 PM 3.6 38.48 0.109 6.66 67.17 11.99
1/5/2023 11:15:00 PM 3.61 38.498 0.093 6.67 63.67 11.98
1/5/2023 11:30:00 PM 3.61 38.498 0.106 6.64 63.05 11.97
1/5/2023 11:45:00 PM 3.62 38.516 0.108 6.65 61.71 12
1/6/2023 12:00:00 AM 3.62 38.516 0.1 6.64 61.72 11.99
1/6/2023 12:15:00 AM 3.62 38.516 0.112 6.63 61.21 11.99
1/6/2023 12:30:00 AM 3.63 38.534 0.096 6.69 61.23 11.97
1/6/2023 12:45:00 AM 3.65 38.57 0.098 6.63 62.11 11.95
1/6/2023 1:00:00 AM 3.66 38.588 0.1 6.64 63.25 11.96
1/6/2023 1:15:00 AM 3.67 38.606 0.091 6.61 64.74 11.94
1/6/2023 1:30:00 AM 3.67 38.606 0.093 6.59 67.24 11.94
1/6/2023 1:45:00 AM 3.68 38.624 0.089 6.66 70.34 11.95
1/6/2023 2:00:00 AM 3.68 38.624 0.098 6.66 74.17 11.9
1/6/2023 2:15:00 AM 3.68 38.624 0.097 6.64 75.14 11.9
1/6/2023 2:30:00 AM 3.69 38.642 0.093 6.64 73.59 11.87
1/6/2023 2:45:00 AM 3.69 38.642 0.094 6.62 73.43 11.87
1/6/2023 3:00:00 AM 3.69 38.642 0.115 6.64 71.69 11.84
1/6/2023 3:15:00 AM 3.68 38.624 0.101 6.66 72.75 11.85
1/6/2023 3:30:00 AM 3.68 38.624 0.091 6.65 70.94 11.86
1/6/2023 3:45:00 AM 3.67 38.606 0.095 6.6 68.39 11.87
1/6/2023 4:00:00 AM 3.66 38.588 0.099 6.62 68.44 11.87
1/6/2023 4:15:00 AM 3.65 38.57 0.094 6.64 68.66 11.83
1/6/2023 4:30:00 AM 3.65 38.57 0.099 6.64 67.9 11.82
1/6/2023 4:45:00 AM 3.64 38.552 0.105 6.66 68.63 11.81
1/6/2023 5:00:00 AM 3.64 38.552 0.098 6.62 67.98 11.84
1/6/2023 5:15:00 AM 3.63 38.534 0.096 6.61 66.83 11.84
1/6/2023 5:30:00 AM 3.63 38.534 0.094 6.6 65.83 11.83
1/6/2023 5:45:00 AM 3.62 38.516 0.1 6.62 65.68 11.79
1/6/2023 6:00:00 AM 3.62 38.516 0.098 6.64 64.99 11.83
1/6/2023 6:15:00 AM 3.61 38.498 0.097 6.61 66.27 11.82
1/6/2023 6:30:00 AM 3.61 38.498 0.101 6.62 64.45 11.8
1/6/2023 6:45:00 AM 3.61 38.498 0.104 6.62 63.73 11.82
1/6/2023 7:00:00 AM 3.61 38.498 0.11 6.62 64.25 11.8
1/6/2023 7:15:00 AM 3.61 38.498 0.105 6.64 64.36 11.83
1/6/2023 7:30:00 AM 3.61 38.498 0.106 6.69 64 11.79
1/6/2023 7:45:00 AM 3.61 38.498 0.113 6.65 62.59 11.79
1/6/2023 8:00:00 AM 3.61 38.498 0.103 6.61 63.01 11.8
1/6/2023 8:15:00 AM 3.61 38.498 0.102 6.61 62.61 11.8
1/6/2023 8:30:00 AM 3.62 38.516 0.111 6.64 61.99 11.79
1/6/2023 8:45:00 AM 3.62 38.516 0.106 6.6 60.45 11.83
1/6/2023 9:00:00 AM 3.63 38.534 0.106 6.65 60.05 11.87
1/6/2023 9:15:00 AM 3.63 38.534 0.11 6.61 59.79 11.88
1/6/2023 9:30:00 AM 3.64 38.552 0.116 6.64 59.26 11.9
1/6/2023 9:45:00 AM 3.65 38.57 0.118 6.63 58.95 11.88
1/6/2023 10:00:00 AM 3.66 38.588 0.117 6.63 59.36 11.88
1/6/2023 10:15:00 AM 3.67 38.606 0.118 6.64 59.79 11.88
1/6/2023 10:30:00 AM 3.69 38.642 0.126 6.67 59.63 11.9
1/6/2023 10:45:00 AM 3.71 38.678 0.113 6.63 60.05 11.91
1/6/2023 11:00:00 AM 3.73 38.714 0.127 6.68 59.71 11.9
1/6/2023 11:15:00 AM 3.75 38.75 0.132 6.64 60.36 11.93
1/6/2023 11:30:00 AM 3.78 38.804 0.139 6.66 59.47 11.95
1/6/2023 11:45:00 AM 3.8 38.84 0.12 6.67 58.5 11.98
1/6/2023 12:00:00 PM 3.83 38.894 0.121 6.64 58.14 11.98
1/6/2023 12:15:00 PM 3.85 38.93 0.121 6.64 58.75 12.01
1/6/2023 12:30:00 PM 3.87 38.966 0.121 6.63 59.09 12
1/6/2023 12:45:00 PM 3.89 39.002 0.124 6.65 59.25 11.99
1/6/2023 1:00:00 PM 3.9 39.02 0.139 6.63 59.23 12.03
1/6/2023 1:15:00 PM 3.9 39.02 0.132 6.59 59.05 12.05
1/6/2023 1:30:00 PM 3.9 39.02 0.121 6.59 59.01 12.07
1/6/2023 1:45:00 PM 3.9 39.02 0.128 6.67 59.47 12.06
1/6/2023 2:00:00 PM 3.89 39.002 0.128 6.62 59.28 12.08
1/6/2023 2:15:00 PM 3.88 38.984 0.13 6.63 58.31 12.04
1/6/2023 2:30:00 PM 3.87 38.966 0.135 6.59 58.15 12.05
1/6/2023 2:45:00 PM 3.85 38.93 0.126 6.68 58.48 12.05
1/6/2023 3:00:00 PM 3.84 38.912 0.134 6.65 58.55 12.03
1/6/2023 3:15:00 PM 3.83 38.894 0.132 6.64 58.21 12.02
1/6/2023 3:30:00 PM 3.82 38.876 0.134 6.63 58.8 12.02
1/6/2023 3:45:00 PM 3.8 38.84 0.144 6.65 58.56 12.01
1/6/2023 4:00:00 PM 3.78 38.804 0.147 6.65 57.69 12.01
1/6/2023 4:15:00 PM 3.77 38.786 0.151 6.64 57.93 12.02
1/6/2023 4:30:00 PM 3.75 38.75 0.148 6.63 59.01 12.03
1/6/2023 4:45:00 PM 3.74 38.732 0.136 6.63 59.84 12.05
1/6/2023 5:00:00 PM 3.71 38.678 0.138 6.62 58.95 12.06
1/6/2023 5:15:00 PM 3.7 38.66 0.146 6.63 59.3 12.05
1/6/2023 5:30:00 PM 3.68 38.624 0.153 6.64 59.6 12.04
1/6/2023 5:45:00 PM 3.66 38.588 0.156 6.65 59.57 12.01
1/6/2023 6:00:00 PM 3.64 38.552 0.143 6.64 59.13 12.02
1/6/2023 6:15:00 PM 3.61 38.498 0.155 6.63 58.78 12.01
1/6/2023 6:30:00 PM 3.6 38.48 0.145 6.65 59.13 11.99
1/6/2023 6:45:00 PM 3.58 38.444 0.146 6.62 59 11.98
1/6/2023 7:00:00 PM 3.56 38.408 0.152 6.64 58.71 11.95
1/6/2023 7:15:00 PM 3.55 38.39 0.14 6.63 59.05 11.95
1/6/2023 7:30:00 PM 3.53 38.354 0.161 6.63 58.16 11.95
1/6/2023 7:45:00 PM 3.52 38.336 0.153 6.63 57.66 11.83
1/6/2023 8:00:00 PM 3.52 38.336 0.151 6.61 57.33 11.84
1/6/2023 8:15:00 PM 3.5 38.3 0.142 6.64 56.86 11.85
1/6/2023 8:30:00 PM 3.49 38.282 0.16 6.66 57.04 11.84
1/6/2023 8:45:00 PM 3.48 38.264 0.153 6.64 57.26 11.87
1/6/2023 9:00:00 PM 3.47 38.246 0.148 6.61 58.45 11.87
1/6/2023 9:15:00 PM 3.46 38.228 0.151 6.76 57.48 11.82
1/6/2023 9:30:00 PM 3.45 38.21 0.155 6.65 57.8 11.78
1/6/2023 9:45:00 PM 3.45 38.21 0.156 6.63 58.23 11.82
1/6/2023 10:00:00 PM 3.44 38.192 0.156 6.73 57.75 11.9
1/6/2023 10:15:00 PM 3.43 38.174 0.15 6.68 58.06 11.89
1/6/2023 10:30:00 PM 3.43 38.174 0.153 6.64 58.58 11.86
1/6/2023 10:45:00 PM 3.43 38.174 0.172 6.67 59.27 11.9
1/6/2023 11:00:00 PM 3.42 38.156 0.175 6.7 60.45 11.9
1/6/2023 11:15:00 PM 3.43 38.174 0.164 6.67 60.9 11.89
1/6/2023 11:30:00 PM 3.43 38.174 0.138 6.72 60.45 11.87
1/6/2023 11:45:00 PM 3.43 38.174 0.163 6.7 60.03 11.85
1/7/2023 12:00:00 AM 3.42 38.156 0.152 6.68 60.76 11.82
1/7/2023 12:15:00 AM 3.42 38.156 0.158 6.68 61.14 11.8
1/7/2023 12:30:00 AM 3.42 38.156 0.149 6.7 61.67 11.77
1/7/2023 12:45:00 AM 3.42 38.156 0.153 6.67 61.95 11.84
1/7/2023 1:00:00 AM 3.42 38.156 0.193 6.68 62.15 11.81
1/7/2023 1:15:00 AM 3.42 38.156 0.267 6.72 61.64 11.77
1/7/2023 1:30:00 AM 3.43 38.174 0.171 6.66 62 11.71
1/7/2023 1:45:00 AM 3.43 38.174 0.15 6.68 61.79 11.8
1/7/2023 2:00:00 AM 3.43 38.174 0.172 6.65 61.43 11.7
1/7/2023 2:15:00 AM 3.43 38.174 0.157 6.65 62.21 11.69
1/7/2023 2:30:00 AM 3.43 38.174 0.179 6.68 62.63 11.67
1/7/2023 2:45:00 AM 3.43 38.174 0.165 6.66 63.51 11.69
1/7/2023 3:00:00 AM 3.44 38.192 0.189 6.66 62.96 11.68
1/7/2023 3:15:00 AM 3.44 38.192 0.161 6.66 62.22 11.63
1/7/2023 3:30:00 AM 3.44 38.192 0.181 6.67 62.36 11.61
1/7/2023 3:45:00 AM 3.44 38.192 0.173 6.67 62.1 11.54
1/7/2023 4:00:00 AM 3.44 38.192 0.167 6.65 61.83 11.55
1/7/2023 4:15:00 AM 3.44 38.192 0.174 6.66 62.36 11.54
1/7/2023 4:30:00 AM 3.43 38.174 0.161 6.65 62.15 11.56
1/7/2023 4:45:00 AM 3.43 38.174 0.18 6.65 63.21 11.55
1/7/2023 5:00:00 AM 3.43 38.174 0.216 6.67 63.72 11.57
1/7/2023 5:15:00 AM 3.42 38.156 0.175 6.66 64.17 11.54
1/7/2023 5:30:00 AM 3.41 38.138 0.188 6.65 63.84 11.54
1/7/2023 5:45:00 AM 3.41 38.138 0.252 6.68 63.67 11.62
1/7/2023 6:00:00 AM 3.4 38.12 0.188 6.68 63.43 11.64
1/7/2023 6:15:00 AM 3.4 38.12 0.203 6.68 62.81 11.59
1/7/2023 6:30:00 AM 3.4 38.12 0.174 6.69 61.55 11.63
1/7/2023 6:45:00 AM 3.39 38.102 0.171 6.7 61.27 11.65
1/7/2023 7:00:00 AM 3.39 38.102 0.179 6.66 60.93 11.66
1/7/2023 7:15:00 AM 3.38 38.084 0.299 6.68 60.59 11.58
1/7/2023 7:30:00 AM 3.38 38.084 0.328 6.68 60.99 11.71
1/7/2023 7:45:00 AM 3.37 38.066 0.201 6.68 61.62 11.59
1/7/2023 8:00:00 AM 3.36 38.048 0.214 6.66 61.67 11.52
1/7/2023 8:15:00 AM 3.36 38.048 0.311 6.68 61.38 11.67
1/7/2023 8:30:00 AM 3.36 38.048 0.241 6.68 61.21 11.63
1/7/2023 8:45:00 AM 3.36 38.048 0.197 6.7 60.9 11.55
1/7/2023 9:00:00 AM 3.35 38.03 0.247 6.68 60.59 11.61
1/7/2023 9:15:00 AM 3.35 38.03 0.328 6.69 60.45 11.59
1/7/2023 9:30:00 AM 3.35 38.03 0.337 6.68 60.36 11.52
1/7/2023 9:45:00 AM 3.35 38.03 0.186 6.69 60.67 11.52
1/7/2023 10:00:00 AM 3.35 38.03 0.175 6.68 60.48 11.6
1/7/2023 10:15:00 AM 3.35 38.03 0.356 6.71 60.2 11.59
1/7/2023 10:30:00 AM 3.36 38.048 0.737 6.68 60.31 11.5
1/7/2023 10:45:00 AM 3.37 38.066 0.763 6.67 60.15 11.53
1/7/2023 11:00:00 AM 3.37 38.066 0.421 6.66 60.53 11.6
1/7/2023 11:15:00 AM 3.38 38.084 0.168 6.66 60.16 11.63
1/7/2023 11:30:00 AM 3.39 38.102 0.172 6.7 60.18 11.59
1/7/2023 11:45:00 AM 3.4 38.12 0.754 6.65 60.22 11.57
1/7/2023 12:00:00 PM 3.4 38.12 0.153 6.66 60.29 11.6
1/7/2023 12:15:00 PM 3.41 38.138 0.153 6.69 59.86 11.61
1/7/2023 12:30:00 PM 3.42 38.156 0.182 6.67 59.79 11.59
1/7/2023 12:45:00 PM 3.43 38.174 0.177 6.69 60.03 11.58
1/7/2023 1:00:00 PM 3.43 38.174 0.213 6.69 60.03 11.6
1/7/2023 1:15:00 PM 3.44 38.192 0.154 6.69 59.83 11.59
1/7/2023 1:30:00 PM 3.44 38.192 0.174 6.68 59.48 11.57
1/7/2023 1:45:00 PM 3.45 38.21 0.205 6.66 59.62 11.53
1/7/2023 2:00:00 PM 3.46 38.228 0.188 6.68 59.6 11.54
1/7/2023 2:15:00 PM 3.47 38.246 0.221 6.68 59.31 11.66
1/7/2023 2:30:00 PM 3.47 38.246 0.34 6.69 59.29 11.71
1/7/2023 2:45:00 PM 3.48 38.264 0.145 6.69 59.26 11.75
1/7/2023 3:00:00 PM 3.48 38.264 0.268 6.69 59.23 11.79
1/7/2023 3:15:00 PM 3.49 38.282 0.15 6.68 59.56 11.76
1/7/2023 3:30:00 PM 3.49 38.282 0.745 6.69 59.52 11.7
1/7/2023 3:45:00 PM 3.49 38.282 0.338 6.7 59.25 11.7
1/7/2023 4:00:00 PM 3.49 38.282 0.142 6.67 59.19 11.68
1/7/2023 4:15:00 PM 3.49 38.282 0.141 6.69 59.02 11.69
1/7/2023 4:30:00 PM 3.47 38.246 0.262 6.67 58.8 11.68
1/7/2023 4:45:00 PM 3.46 38.228 0.22 6.68 59 11.74
1/7/2023 5:00:00 PM 3.44 38.192 0.158 6.68 58.91 11.76
1/7/2023 5:15:00 PM 3.42 38.156 0.147 6.7 58.94 11.74
1/7/2023 5:30:00 PM 3.4 38.12 0.225 6.68 58.84 11.77
1/7/2023 5:45:00 PM 3.38 38.084 0.218 6.7 58.75 11.79
1/7/2023 6:00:00 PM 3.36 38.048 0.214 6.69 58.89 11.72
1/7/2023 6:15:00 PM 3.34 38.012 0.202 6.69 58.9 11.72
1/7/2023 6:30:00 PM 3.31 37.958 0.223 6.68 58.96 11.65
1/7/2023 6:45:00 PM 3.29 37.922 0.208 6.67 58.88 11.62
1/7/2023 7:00:00 PM 3.27 37.886 0.216 6.68 58.86 11.65
1/7/2023 7:15:00 PM 3.24 37.832 0.233 6.68 59.03 11.64
1/7/2023 7:30:00 PM 3.22 37.796 0.243 6.68 59.02 11.64
1/7/2023 7:45:00 PM 3.2 37.76 0.242 6.67 59.12 11.57
1/7/2023 8:00:00 PM 3.19 37.742 0.221 6.67 59.08 11.59
1/7/2023 8:15:00 PM 3.17 37.706 0.216 6.66 59.03 11.61
1/7/2023 8:30:00 PM 3.15 37.67 0.21 6.7 59.24 11.56
1/7/2023 8:45:00 PM 3.14 37.652 0.234 6.69 59.21 11.52
1/7/2023 9:00:00 PM 3.12 37.616 0.259 6.68 59.33 11.56
1/7/2023 9:15:00 PM 3.1 37.58 0.241 6.68 59.3 11.62
1/7/2023 9:30:00 PM 3.08 37.544 0.238 6.67 59.34 11.54
1/7/2023 9:45:00 PM 3.06 37.508 0.374 6.68 59.33 11.56
1/7/2023 10:00:00 PM 3.04 37.472 0.224 6.7 59.28 11.57
1/7/2023 10:15:00 PM 3.03 37.454 0.226 6.72 59.35 11.58
1/7/2023 10:30:00 PM 3.01 37.418 0.226 6.72 59.14 11.55
1/7/2023 10:45:00 PM 3 37.4 0.231 6.72 59.14 11.57
1/7/2023 11:00:00 PM 2.98 37.364 0.179 6.7 58.98 11.52
1/7/2023 11:15:00 PM 2.97 37.346 0.254 6.72 59.11 11.52
1/7/2023 11:30:00 PM 2.95 37.31 0.199 6.72 59.02 11.57
1/7/2023 11:45:00 PM 2.93 37.274 0.231 6.71 59.22 11.53
1/8/2023 12:00:00 AM 2.91 37.238 0.25 6.7 59.18 11.46
1/8/2023 12:15:00 AM 2.89 37.202 0.225 6.71 59.25 11.57
1/8/2023 12:30:00 AM 2.87 37.166 0.215 6.71 59.26 11.58
1/8/2023 12:45:00 AM 2.86 37.148 0.199 6.71 59.29 11.58
1/8/2023 1:00:00 AM 2.83 37.094 0.191 6.7 59.41 11.55
1/8/2023 1:15:00 AM 2.81 37.058 0.187 6.71 59.29 11.48
1/8/2023 1:30:00 AM 2.79 37.022 0.191 6.71 59.42 11.44
1/8/2023 1:45:00 AM 2.77 36.986 0.159 6.69 59.36 11.42
1/8/2023 2:00:00 AM 2.75 36.95 1.199 6.7 59.23 11.43
1/8/2023 2:15:00 AM 2.71 36.878 0.183 6.71 59.26 11.43
1/8/2023 2:30:00 AM 2.68 36.824 0.165 6.72 59.22 11.41
1/8/2023 2:45:00 AM 2.65 36.77 0.163 6.71 59.14 11.36
1/8/2023 3:00:00 AM 2.61 36.698 0.848 6.71 59 11.41
1/8/2023 3:15:00 AM 2.58 36.644 0.216 6.7 59.09 11.46
1/8/2023 3:30:00 AM 2.55 36.59 0.182 6.72 59.09 11.41
1/8/2023 3:45:00 AM 2.51 36.518 0.959 6.69 59 11.43
1/8/2023 4:00:00 AM 2.48 36.464 0.728 6.69 59.12 11.4
1/8/2023 4:15:00 AM 2.45 36.41 0.433 6.68 59.06 11.44
1/8/2023 4:30:00 AM 2.43 36.374 0.771 6.69 58.89 11.43
1/8/2023 4:45:00 AM 2.4 36.32 1.725 6.69 58.89 11.39
1/8/2023 5:00:00 AM 2.37 36.266 0.394 6.7 59.18 11.48
1/8/2023 5:15:00 AM 2.34 36.212 0.457 6.68 59.02 11.51
1/8/2023 5:30:00 AM 2.32 36.176 0.379 6.67 59.07 11.52
1/8/2023 5:45:00 AM 2.31 36.158 0.38 6.7 59.07 11.57
1/8/2023 6:00:00 AM 2.29 36.122 3.959 6.68 58.88 11.62
1/8/2023 6:15:00 AM 2.27 36.086 0.184 6.69 58.82 11.86
1/8/2023 6:30:00 AM 2.25 36.05 1.323 6.7 58.78 11.88
1/8/2023 6:45:00 AM 2.24 36.032 0.202 6.68 58.83 11.99
1/8/2023 7:00:00 AM 2.26 36.068 2.187 6.72 59.01 11.97
1/8/2023 7:15:00 AM 2.25 36.05 0.206 6.72 59.11 11.99
1/8/2023 7:30:00 AM 2.23 36.014 0.185 6.72 59.47 11.93
1/8/2023 7:45:00 AM 2.23 36.014 0.178 6.68 59.56 11.91
1/8/2023 8:00:00 AM 2.23 36.014 0.179 6.69 59.34 11.96
1/8/2023 8:15:00 AM 2.23 36.014 0.181 6.7 59.45 11.99
1/8/2023 8:30:00 AM 2.23 36.014 0.174 6.73 59.47 12.02
1/8/2023 8:45:00 AM 2.22 35.996 0.18 6.7 59.45 11.99
1/8/2023 9:00:00 AM 2.22 35.996 0.19 6.7 59.3 12.02
1/8/2023 9:15:00 AM 2.22 35.996 1.623 6.69 59.35 11.96
1/8/2023 9:30:00 AM 2.23 36.014 0.207 6.7 59.24 11.96
1/8/2023 9:45:00 AM 2.26 36.068 0.188 6.68 59.26 11.95
1/8/2023 10:00:00 AM 2.29 36.122 0.627 6.7 59.22 11.9
1/8/2023 10:15:00 AM 2.34 36.212 0.184 6.7 59.17 12.03
1/8/2023 10:30:00 AM 2.39 36.302 0.167 6.69 59.01 12.11
1/8/2023 10:45:00 AM 2.44 36.392 0.166 6.7 59.09 12.06
1/8/2023 11:00:00 AM 2.5 36.5 0.191 6.74 59.05 12.08
1/8/2023 11:15:00 AM 2.57 36.626 0.19 6.71 58.98 12.07
1/8/2023 11:30:00 AM 2.65 36.77 0.171 6.7 59.06 12.09
1/8/2023 11:45:00 AM 2.73 36.914 0.186 6.71 59.09 12.06
1/8/2023 12:00:00 PM 2.82 37.076 0.191 6.72 59.26 11.96
1/8/2023 12:15:00 PM 2.9 37.22 0.194 6.71 59.02 12.09
1/8/2023 12:30:00 PM 2.98 37.364 0.175 6.71 59 12.07
1/8/2023 12:45:00 PM 3.05 37.49 0.192 6.67 59.12 12.07
1/8/2023 1:00:00 PM 3.13 37.634 0.186 6.74 59.12 12.11
1/8/2023 1:15:00 PM 3.21 37.778 0.209 6.7 59.16 12.06
1/8/2023 1:30:00 PM 3.28 37.904 0.211 6.73 59.34 11.98
1/8/2023 1:45:00 PM 3.34 38.012 2.405 6.73 59.35 11.88
1/8/2023 2:00:00 PM 3.4 38.12 0.745 6.71 59.47 12.02
1/8/2023 2:15:00 PM 3.44 38.192 0.633 6.72 59.79 12.02
1/8/2023 2:30:00 PM 3.48 38.264 1.351 6.68 59.84 11.99
1/8/2023 2:45:00 PM 3.51 38.318 15.027 6.73 59.84 11.3
1/8/2023 3:00:00 PM 3.54 38.372 1.266 6.72 59.78 11.89
1/8/2023 3:15:00 PM 3.55 38.39 0.372 6.71 59.65 11.89
1/8/2023 3:30:00 PM 3.56 38.408 1.145 6.71 60.12 11.77
1/8/2023 3:45:00 PM 3.55 38.39 1.171 6.71 59.88 11.76
1/8/2023 4:00:00 PM 3.53 38.354 0.682 6.71 60.02 11.85
1/8/2023 4:15:00 PM 3.51 38.318 1.278 6.73 59.77 11.84
1/8/2023 4:30:00 PM 3.49 38.282 0.291 6.74 59.87 11.84
1/8/2023 4:45:00 PM 3.45 38.21 2.439 6.71 59.81 11.77
1/8/2023 5:00:00 PM 3.39 38.102 2.195 6.71 59.79 11.75
1/8/2023 5:15:00 PM 3.33 37.994 2.078 6.7 59.77 11.67
1/8/2023 5:30:00 PM 3.27 37.886 1.885 6.71 59.73 11.64
1/8/2023 5:45:00 PM 3.21 37.778 0.629 6.7 59.97 11.57
1/8/2023 6:00:00 PM 3.14 37.652 1.148 6.71 59.73 11.6
1/8/2023 6:15:00 PM 3.08 37.544 0.45 6.68 59.87 11.68
1/8/2023 6:30:00 PM 3.02 37.436 0.96 6.69 59.98 11.61
1/8/2023 6:45:00 PM 2.96 37.328 1.93 6.69 59.81 11.53
1/8/2023 7:00:00 PM 2.9 37.22 1.338 6.7 59.83 11.53
1/8/2023 7:15:00 PM 2.84 37.112 3.892 6.68 59.83 11.47
1/8/2023 7:30:00 PM 2.78 37.004 4.933 6.7 59.73 11.44
1/8/2023 7:45:00 PM 2.72 36.896 2.688 6.69 59.9 11.57
1/8/2023 8:00:00 PM 2.67 36.806 4.001 6.68 59.91 11.49
1/8/2023 8:15:00 PM 2.63 36.734 2.667 6.71 59.76 11.59
1/8/2023 8:30:00 PM 2.59 36.662 3.041 6.68 59.81 11.54
1/8/2023 8:45:00 PM 2.55 36.59 0.881 6.68 59.64 11.61
1/8/2023 9:00:00 PM 2.52 36.536 1.115 6.68 59.65 11.59
1/8/2023 9:15:00 PM 2.49 36.482 3.278 6.65 59.68 11.46
1/8/2023 9:30:00 PM 2.46 36.428 1.151 6.69 59.68 11.48
1/8/2023 9:45:00 PM 2.43 36.374 2.232 6.66 59.8 11.42
1/8/2023 10:00:00 PM 2.41 36.338 0.935 6.65 59.75 11.45
1/8/2023 10:15:00 PM 2.39 36.302 0.896 6.66 59.75 11.37
1/8/2023 10:30:00 PM 2.37 36.266 0.362 6.68 60.53 11.49
1/8/2023 10:45:00 PM 2.36 36.248 0.422 6.67 59.93 11.46
1/8/2023 11:00:00 PM 2.33 36.194 1.403 6.65 59.95 11.39
1/8/2023 11:15:00 PM 2.31 36.158 0.233 6.68 59.9 11.56
1/8/2023 11:30:00 PM 2.3 36.14 1.001 6.67 60 11.43
1/8/2023 11:45:00 PM 2.28 36.104 3.295 6.68 60.04 11.37
1/9/2023 12:00:00 AM 2.27 36.086 1.616 6.68 60.07 11.29
1/9/2023 12:15:00 AM 2.27 36.086 1.286 6.68 60.23 11.32
1/9/2023 12:30:00 AM 2.27 36.086 1.07 6.69 60.28 11.29
1/9/2023 12:45:00 AM 2.27 36.086 2.551 6.69 60.06 11.39
1/9/2023 1:00:00 AM 2.28 36.104 0.269 6.68 60.47 11.48
1/9/2023 1:15:00 AM 2.29 36.122 0.828 6.67 60.37 11.48
1/9/2023 1:30:00 AM 2.31 36.158 0.999 6.7 60.44 11.43
1/9/2023 1:45:00 AM 2.33 36.194 0.978 6.69 60.65 11.39
1/9/2023 2:00:00 AM 2.35 36.23 5.263 6.71 60.69 11.14
1/9/2023 2:15:00 AM 2.37 36.266 1.002 6.7 60.67 11.26
1/9/2023 2:30:00 AM 2.38 36.284 0.214 6.69 61.27 11.3
1/9/2023 2:45:00 AM 2.4 36.32 0.194 6.74 61.48 11.25
1/9/2023 3:00:00 AM 2.42 36.356 0.642 6.66 61.36 11.14
1/9/2023 3:15:00 AM 2.43 36.374 0.199 6.68 61.07 11.11
1/9/2023 3:30:00 AM 2.45 36.41 0.19 6.68 61.16 11.17
1/9/2023 3:45:00 AM 2.47 36.446 0.195 6.68 61.34 11.09
1/9/2023 4:00:00 AM 2.48 36.464 0.744 6.69 61.69 11.03
1/9/2023 4:15:00 AM 2.49 36.482 1.583 6.68 61.61 10.93
1/9/2023 4:30:00 AM 2.5 36.5 3.028 6.67 61.66 10.81
1/9/2023 4:45:00 AM 2.5 36.5 0.209 6.67 62.06 10.85
1/9/2023 5:00:00 AM 2.5 36.5 0.832 6.66 62.15 10.78
1/9/2023 5:15:00 AM 2.5 36.5 4.685 6.69 62.37 10.65
1/9/2023 5:30:00 AM 2.49 36.482 0.185 6.67 62.41 10.81
1/9/2023 5:45:00 AM 2.48 36.464 0.183 6.67 62.23 10.84
1/9/2023 6:00:00 AM 2.47 36.446 0.272 6.66 62.38 10.83
1/9/2023 6:15:00 AM 2.45 36.41 0.425 6.67 62.47 10.82
1/9/2023 6:30:00 AM 2.43 36.374 0.685 6.65 63.23 10.77
1/9/2023 6:45:00 AM 2.4 36.32 1.088 6.65 62.8 10.76
1/9/2023 7:00:00 AM 2.37 36.266 0.839 6.66 63.02 10.81
1/9/2023 7:15:00 AM 2.35 36.23 3.94 6.66 63.14 10.69
1/9/2023 7:30:00 AM 2.33 36.194 0.509 6.66 63.12 10.85
1/9/2023 7:45:00 AM 2.31 36.158 0.199 6.66 62.96 10.86
1/9/2023 8:00:00 AM 2.29 36.122 0.181 6.67 62.96 10.82
1/9/2023 8:15:00 AM 2.28 36.104 0.178 6.66 63.21 10.81
1/9/2023 8:30:00 AM 2.27 36.086 0.182 6.64 63.42 10.72
1/9/2023 8:45:00 AM 2.27 36.086 0.174 6.65 63.4 10.71
1/9/2023 9:00:00 AM 2.26 36.068 0.181 6.65 63.47 10.71
1/9/2023 9:15:00 AM 2.25 36.05 0.427 6.7 63.16 10.72
1/9/2023 9:30:00 AM 2.25 36.05 0.224 6.65 63.99 10.71
1/9/2023 9:45:00 AM 2.24 36.032 0.194 6.65 64.06 10.69
1/9/2023 10:00:00 AM 2.23 36.014 0.199 6.65 64.03 10.75
1/9/2023 10:15:00 AM 2.23 36.014 0.208 6.64 64.11 10.78
1/9/2023 10:30:00 AM 2.23 36.014 0.207 6.67 63.97 10.91
1/9/2023 10:45:00 AM 2.23 36.014 1.995 6.66 63.9 10.85
1/9/2023 11:00:00 AM 2.23 36.014 1.121 6.66 64.18 10.86
1/9/2023 11:15:00 AM 2.24 36.032 1.39 6.68 64.61 10.88
1/9/2023 11:30:00 AM 2.25 36.05 1.075 6.66 64.2 10.87
1/9/2023 11:45:00 AM 2.26 36.068 0.229 6.67 64.11 10.94
1/9/2023 12:00:00 PM 2.27 36.086 0.652 6.66 63.99 10.95
1/9/2023 12:15:00 PM 2.28 36.104 0.201 6.66 64.23 10.96
1/9/2023 12:30:00 PM 2.3 36.14 0.421 6.67 64.39 10.99
1/9/2023 12:45:00 PM 2.32 36.176 0.191 6.68 64.43 11.06
1/9/2023 1:00:00 PM 2.34 36.212 0.615 6.66 64.59 11.07
1/9/2023 1:15:00 PM 2.36 36.248 0.733 6.65 64.71 11.07
1/9/2023 1:30:00 PM 2.37 36.266 0.869 6.66 64.92 11.12
1/9/2023 1:45:00 PM 2.39 36.302 1.815 6.69 65.04 11.05
1/9/2023 2:00:00 PM 2.42 36.356 7.622 6.65 64.65 10.82
1/9/2023 2:15:00 PM 2.44 36.392 1.181 6.68 64.46 11.08
1/9/2023 2:30:00 PM 2.47 36.446 1.456 6.66 64.24 11.08
1/9/2023 2:45:00 PM 2.5 36.5 14.802 6.68 64.86 10.56
1/9/2023 3:00:00 PM 2.53 36.554 13.822 6.68 65.33 10.57
1/9/2023 3:15:00 PM 2.56 36.608 1.668 6.67 65.28 11.04
1/9/2023 3:30:00 PM 2.58 36.644 13.999 6.68 65.07 10.56
1/9/2023 3:45:00 PM 2.6 36.68 0.192 6.69 64.98 11.07
1/9/2023 4:00:00 PM 2.61 36.698 1.072 6.69 65.14 11.15
1/9/2023 4:15:00 PM 2.62 36.716 4.179 6.67 65.26 11.03
1/9/2023 4:30:00 PM 2.62 36.716 1.405 6.69 65.14 11.19
1/9/2023 4:45:00 PM 2.62 36.716 0.674 6.67 64.85 11.22
1/9/2023 5:00:00 PM 2.62 36.716 0.226 6.65 64.87 11.23
1/9/2023 5:15:00 PM 2.6 36.68 1.422 6.71 65.06 11.12
1/9/2023 5:30:00 PM 2.58 36.644 1.262 6.69 65.22 11.17
1/9/2023 5:45:00 PM 2.56 36.608 0.613 6.74 65.67 11.13
1/9/2023 6:00:00 PM 2.54 36.572 1.108 6.69 65.9 11.17
1/9/2023 6:15:00 PM 2.51 36.518 1.286 6.69 65.63 11.15
1/9/2023 6:30:00 PM 2.49 36.482 3.655 6.68 65.53 11.02
1/9/2023 6:45:00 PM 2.46 36.428 1.175 6.66 65.3 11.11
1/9/2023 7:00:00 PM 2.43 36.374 0.709 6.68 65.31 11.12
1/9/2023 7:15:00 PM 2.4 36.32 0.281 6.68 65.34 11.09
1/9/2023 7:30:00 PM 2.36 36.248 0.232 6.67 65.51 11.04
1/9/2023 7:45:00 PM 2.33 36.194 1.201 6.66 65.43 10.99
1/9/2023 8:00:00 PM 2.3 36.14 0.271 6.67 67.15 10.98
1/9/2023 8:15:00 PM 2.27 36.086 1.307 6.69 66.25 11.01
1/9/2023 8:30:00 PM 2.24 36.032 0.286 6.67 66.02 11.07
1/9/2023 8:45:00 PM 2.2 35.96 0.202 6.67 65.89 10.99
1/9/2023 9:00:00 PM 2.17 35.906 0.578 6.65 65.68 11.01
1/9/2023 9:15:00 PM 2.14 35.852 1.257 6.65 65.82 11.01
1/9/2023 9:30:00 PM 2.12 35.816 0.329 6.66 65.71 10.93
1/9/2023 9:45:00 PM 2.09 35.762 0.195 6.66 65.86 10.98
1/9/2023 10:00:00 PM 2.06 35.708 0.203 6.65 65.85 10.95
1/9/2023 10:15:00 PM 2.03 35.654 0.276 6.66 65.51 10.89
1/9/2023 10:30:00 PM 2.01 35.618 4.354 6.67 65.7 11
1/9/2023 10:45:00 PM 1.99 35.582 0.205 6.61 67.16 10.97
1/9/2023 11:00:00 PM 1.98 35.564 3.54 6.67 66.09 10.97
1/9/2023 11:15:00 PM 1.97 35.546 3.244 6.65 65.68 10.89
1/9/2023 11:30:00 PM 1.97 35.546 2.017 6.68 65.83 10.95
1/9/2023 11:45:00 PM 1.96 35.528 5.261 6.66 65.89 10.78
1/10/2023 12:00:00 AM 1.95 35.51 1.606 6.66 65.8 10.93
1/10/2023 12:15:00 AM 1.95 35.51 1.975 6.65 65.64 10.94
1/10/2023 12:30:00 AM 1.94 35.492 2.129 6.67 65.59 10.99
1/10/2023 12:45:00 AM 1.94 35.492 5.454 6.66 65.69 10.79
1/10/2023 1:00:00 AM 1.94 35.492 4.456 6.66 66.06 10.82
1/10/2023 1:15:00 AM 1.94 35.492 3.966 6.66 65.85 10.91
1/10/2023 1:30:00 AM 1.95 35.51 12.54 6.64 65.94 10.43
1/10/2023 1:45:00 AM 1.96 35.528 12.403 6.68 65.96 10.49
1/10/2023 2:00:00 AM 1.96 35.528 6.977 6.66 66 10.58
1/10/2023 2:15:00 AM 1.97 35.546 0.31 6.64 67.6 10.77
1/10/2023 2:30:00 AM 1.97 35.546 0.998 6.68 66.62 10.76
1/10/2023 2:45:00 AM 1.98 35.564 1.348 6.67 65.92 10.66
1/10/2023 3:00:00 AM 1.98 35.564 5.098 6.69 65.87 10.52
1/10/2023 3:15:00 AM 1.98 35.564 1.97 6.68 65.7 10.69
1/10/2023 3:30:00 AM 1.98 35.564 0.363 6.66 65.89 10.8
1/10/2023 3:45:00 AM 1.98 35.564 0.258 6.67 65.85 10.87
1/10/2023 4:00:00 AM 1.98 35.564 0.635 6.65 66.06 10.87
1/10/2023 4:15:00 AM 1.98 35.564 9.253 6.66 65.95 10.58
1/10/2023 4:30:00 AM 1.98 35.564 0.235 6.67 65.71 10.94
1/10/2023 4:45:00 AM 1.98 35.564 0.254 6.64 65.78 10.95
1/10/2023 5:00:00 AM 1.98 35.564 0.216 6.61 67.58 10.85
1/10/2023 5:15:00 AM 1.99 35.582 3.846 6.66 66.42 10.8
1/10/2023 5:30:00 AM 1.99 35.582 0.257 6.63 66.11 10.83
1/10/2023 5:45:00 AM 1.99 35.582 0.259 6.65 66.19 10.82
1/10/2023 6:00:00 AM 1.99 35.582 0.264 6.68 66.09 10.8
1/10/2023 6:15:00 AM 1.99 35.582 0.261 6.65 66.38 10.72
1/10/2023 6:30:00 AM 2 35.6 0.26 6.66 66.66 10.7
1/10/2023 6:45:00 AM 2 35.6 0.254 6.66 66.72 10.69
1/10/2023 7:00:00 AM 2 35.6 0.268 6.67 67 10.7
1/10/2023 7:15:00 AM 2 35.6 3.504 6.66 66.79 10.65
1/10/2023 7:30:00 AM 2.01 35.618 11.944 6.64 66.31 10.16
1/10/2023 7:45:00 AM 2.01 35.618 0.25 6.68 66.39 10.56
1/10/2023 8:00:00 AM 2.01 35.618 0.262 6.66 66.45 10.54
1/10/2023 8:15:00 AM 2.02 35.636 0.26 6.64 66.21 10.56
1/10/2023 8:30:00 AM 2.03 35.654 0.202 6.68 66.44 10.62
1/10/2023 8:45:00 AM 2.04 35.672 3.508 6.67 66.63 10.58
1/10/2023 9:00:00 AM 2.05 35.69 0.256 6.66 66.49 10.71
1/10/2023 9:15:00 AM 2.05 35.69 0.253 6.7 66.53 10.69
1/10/2023 9:30:00 AM 2.05 35.69 0.245 6.67 66.63 10.71
1/10/2023 9:45:00 AM 2.06 35.708 0.253 6.73 66.3 10.68
1/10/2023 10:00:00 AM 2.06 35.708 0.226 6.63 67.85 10.67
1/10/2023 10:15:00 AM 2.06 35.708 0.256 6.66 66.74 10.76
1/10/2023 10:30:00 AM 2.06 35.708 0.246 6.67 66.55 10.65
1/10/2023 10:45:00 AM 2.07 35.726 0.233 6.68 66.49 10.62
1/10/2023 11:00:00 AM 2.07 35.726 0.217 6.68 66.44 10.63
1/10/2023 11:15:00 AM 2.07 35.726 6.801 6.66 66.53 10.38
1/10/2023 11:30:00 AM 2.08 35.744 13.328 6.68 66.6 10.1
1/10/2023 11:45:00 AM 2.08 35.744 0.245 6.65 66.35 10.63
1/10/2023 12:00:00 PM 2.09 35.762 2.608 6.66 66.25 10.42
1/10/2023 12:15:00 PM 2.1 35.78 0.255 6.64 66.32 10.59
1/10/2023 12:30:00 PM 2.11 35.798 22.437 6.66 66.03 9.66
1/10/2023 12:45:00 PM 2.12 35.816 0.206 6.65 66.02 10.61
1/10/2023 1:00:00 PM 2.13 35.834 0.216 6.66 65.95 10.64
1/10/2023 1:15:00 PM 2.14 35.852 0.21 6.65 66.07 10.67
1/10/2023 1:30:00 PM 2.15 35.87 0.248 6.67 66.12 10.71
1/10/2023 1:45:00 PM 2.16 35.888 0.203 6.65 66.18 10.7
1/10/2023 2:00:00 PM 2.17 35.906 0.252 6.63 66.02 10.77
1/10/2023 2:15:00 PM 2.18 35.924 0.218 6.65 68.09 10.81
1/10/2023 2:30:00 PM 2.18 35.924 0.238 6.67 66.9 10.83
1/10/2023 2:45:00 PM 2.19 35.942 0.24 6.65 66.54 10.75
1/10/2023 3:00:00 PM 2.19 35.942 0.247 6.66 66.37 10.76
1/10/2023 3:15:00 PM 2.19 35.942 0.245 6.66 66.51 10.71
1/10/2023 3:30:00 PM 2.19 35.942 0.222 6.66 66.36 10.62
1/10/2023 3:45:00 PM 2.19 35.942 0.238 6.66 66.87 10.71
1/10/2023 4:00:00 PM 2.19 35.942 0.218 6.64 66.9 10.69
1/10/2023 4:15:00 PM 2.18 35.924 0.231 6.64 66.8 10.63
1/10/2023 4:30:00 PM 2.18 35.924 0.269 6.65 66.71 10.64
1/10/2023 4:45:00 PM 2.18 35.924 2.886 6.67 66.45 10.57
1/10/2023 5:00:00 PM 2.17 35.906 0.233 6.65 66.33 10.58
1/10/2023 5:15:00 PM 2.16 35.888 0.202 6.64 66.71 10.63
1/10/2023 5:30:00 PM 2.16 35.888 0.501 6.63 66.53 10.67
1/10/2023 5:45:00 PM 2.15 35.87 0.233 6.65 65.99 10.69
1/10/2023 6:00:00 PM 2.14 35.852 0.2 6.71 67.64 10.76
1/10/2023 6:15:00 PM 2.13 35.834 0.227 6.67 66.49 10.73
1/10/2023 6:30:00 PM 2.11 35.798 0.243 6.66 66.45 10.68
1/10/2023 6:45:00 PM 2.11 35.798 0.213 6.68 66.17 10.7
1/10/2023 7:00:00 PM 2.1 35.78 0.213 6.64 65.89 10.7
1/10/2023 7:15:00 PM 2.09 35.762 0.204 6.64 65.84 10.67
1/10/2023 7:30:00 PM 2.08 35.744 0.213 6.65 65.96 10.65
1/10/2023 7:45:00 PM 2.07 35.726 0.227 6.66 66.24 10.65
1/10/2023 8:00:00 PM 2.06 35.708 0.223 6.63 66.26 10.64
1/10/2023 8:15:00 PM 2.06 35.708 0.237 6.63 66.15 10.64
1/10/2023 8:30:00 PM 2.05 35.69 0.205 6.64 66.15 10.58
1/10/2023 8:45:00 PM 2.04 35.672 0.229 6.66 67.86 10.58
1/10/2023 9:00:00 PM 2.03 35.654 0.195 6.64 66.77 10.64
1/10/2023 9:15:00 PM 2.03 35.654 0.224 6.63 66.69 10.59
1/10/2023 9:30:00 PM 2.03 35.654 0.248 6.63 66.59 10.51
1/10/2023 9:45:00 PM 2.02 35.636 0.236 6.63 66.5 10.41
1/10/2023 10:00:00 PM 2.01 35.618 0.238 6.62 66.44 10.42
1/10/2023 10:15:00 PM 2.01 35.618 0.244 6.64 66.54 10.49
1/10/2023 10:30:00 PM 2 35.6 0.235 6.67 66.43 10.5
1/10/2023 10:45:00 PM 2 35.6 0.238 6.66 66.52 10.37
1/10/2023 11:00:00 PM 1.99 35.582 0.226 6.67 66.55 10.31
1/10/2023 11:15:00 PM 1.99 35.582 0.216 6.65 66.56 10.36
1/10/2023 11:30:00 PM 1.98 35.564 0.208 6.66 68.3 10.2
1/10/2023 11:45:00 PM 1.98 35.564 0.233 6.67 66.99 10.27
1/11/2023 12:00:00 AM 1.98 35.564 0.227 6.61 66.35 10.17
1/11/2023 12:15:00 AM 1.97 35.546 0.216 6.62 66.29 10.13
1/11/2023 12:30:00 AM 1.97 35.546 0.218 6.63 66.15 10.11
1/11/2023 12:45:00 AM 1.97 35.546 0.227 6.64 65.98 10.12
1/11/2023 1:00:00 AM 1.96 35.528 0.224 6.64 66.11 10.06
1/11/2023 1:15:00 AM 1.96 35.528 0.246 6.64 65.99 10.05
1/11/2023 1:30:00 AM 1.96 35.528 0.251 6.66 65.86 10.01
1/11/2023 1:45:00 AM 1.96 35.528 0.236 6.67 66.02 10
1/11/2023 2:00:00 AM 1.96 35.528 0.238 6.67 66.16 10.04
1/11/2023 2:15:00 AM 1.96 35.528 0.232 6.67 67.8 10.05
1/11/2023 2:30:00 AM 1.96 35.528 0.253 6.66 66.7 10.1
1/11/2023 2:45:00 AM 1.96 35.528 0.25 6.64 66.36 10.12
1/11/2023 3:00:00 AM 1.96 35.528 0.221 6.65 66.24 10.1
1/11/2023 3:15:00 AM 1.96 35.528 0.19 6.65 66.08 10.07
1/11/2023 3:30:00 AM 1.96 35.528 0.242 6.64 66.05 10.04
1/11/2023 3:45:00 AM 1.96 35.528 0.233 6.66 65.94 10.03
1/11/2023 4:00:00 AM 1.96 35.528 0.245 6.65 66.14 10.02
1/11/2023 4:15:00 AM 1.96 35.528 0.247 6.65 66.06 10.1
1/11/2023 4:30:00 AM 1.96 35.528 0.244 6.65 66.17 10.07
1/11/2023 4:45:00 AM 1.96 35.528 0.246 6.62 65.85 10.09
1/11/2023 5:00:00 AM 1.96 35.528 0.243 6.65 65.72 10.07
1/11/2023 5:15:00 AM 1.96 35.528 0.228 6.66 65.73 10.14
1/11/2023 5:30:00 AM 1.96 35.528 0.239 6.66 66.09 10.11
1/11/2023 5:45:00 AM 1.95 35.51 0.208 6.64 66.12 10.12
1/11/2023 6:00:00 AM 1.95 35.51 0.228 6.64 66.12 10.1
1/11/2023 6:15:00 AM 1.95 35.51 0.203 6.62 66.26 10.05
1/11/2023 6:30:00 AM 1.94 35.492 0.228 6.62 66.28 10.06
1/11/2023 6:45:00 AM 1.93 35.474 0.23 6.63 66.47 10.06
1/11/2023 7:00:00 AM 1.93 35.474 0.226 6.64 66.25 10.04
1/11/2023 7:15:00 AM 1.92 35.456 0.218 6.64 66.39 10.09
1/11/2023 7:30:00 AM 1.91 35.438 0.242 6.66 66.34 10.08
1/11/2023 7:45:00 AM 1.9 35.42 0.243 6.66 66.49 10.07
1/11/2023 8:00:00 AM 1.89 35.402 0.237 6.64 66.66 10
1/11/2023 8:15:00 AM 1.88 35.384 0.253 6.68 66.92 10.14
1/11/2023 8:30:00 AM 1.88 35.384 0.245 6.64 66.58 10.07
1/11/2023 8:45:00 AM 1.87 35.366 0.233 6.63 66.55 10.03
1/11/2023 9:00:00 AM 1.87 35.366 0.256 6.67 66.39 10.13
1/11/2023 9:15:00 AM 1.87 35.366 0.256 6.65 66.24 10.07
1/11/2023 9:30:00 AM 1.87 35.366 0.22 6.65 66.36 10.03
1/11/2023 9:45:00 AM 1.88 35.384 0.259 6.65 66.79 9.92
1/11/2023 10:00:00 AM 1.88 35.384 0.252 6.66 67.04 9.92
1/11/2023 10:15:00 AM 1.9 35.42 0.204 6.65 67.1 9.94
1/11/2023 10:30:00 AM 1.92 35.456 0.229 6.68 67.16 9.91
1/11/2023 10:45:00 AM 1.94 35.492 0.232 6.66 67.38 9.87
1/11/2023 11:00:00 AM 1.96 35.528 0.221 6.66 67.08 9.9
1/11/2023 11:15:00 AM 1.99 35.582 0.238 6.67 67.29 9.91
1/11/2023 11:30:00 AM 2.02 35.636 0.234 6.66 67.13 9.92
1/11/2023 11:45:00 AM 2.05 35.69 0.233 6.65 66.99 9.95
1/11/2023 12:00:00 PM 2.09 35.762 0.215 6.65 67.08 9.9
1/11/2023 12:15:00 PM 2.13 35.834 0.226 6.66 67.13 9.95
1/11/2023 12:30:00 PM 2.16 35.888 0.245 6.65 67.23 9.96
1/11/2023 12:45:00 PM 2.2 35.96 0.24 6.67 67.08 9.94
1/11/2023 1:00:00 PM 2.24 36.032 0.225 6.68 67.08 9.84
1/11/2023 1:15:00 PM 2.28 36.104 0.228 6.64 67.1 9.93
1/11/2023 1:30:00 PM 2.32 36.176 0.232 6.64 67.23 9.96
1/11/2023 1:45:00 PM 2.37 36.266 0.229 6.63 67.35 9.91
1/11/2023 2:00:00 PM 2.41 36.338 0.204 6.66 67.12 9.9
1/11/2023 2:15:00 PM 2.45 36.41 0.22 6.64 67.34 9.93
1/11/2023 2:30:00 PM 2.49 36.482 0.226 6.66 67.28 9.94
1/11/2023 2:45:00 PM 2.52 36.536 0.259 6.65 67.38 9.97
1/11/2023 3:00:00 PM 2.54 36.572 0.244 6.65 67.91 9.93
1/11/2023 3:15:00 PM 2.57 36.626 0.252 6.67 68.06 9.98
1/11/2023 3:30:00 PM 2.58 36.644 0.251 6.66 68.07 9.93
1/11/2023 3:45:00 PM 2.6 36.68 0.255 6.66 68.07 9.96
1/11/2023 4:00:00 PM 2.61 36.698 0.251 6.65 67.95 9.98
1/11/2023 4:15:00 PM 2.61 36.698 0.23 6.66 68.36 10.05
1/11/2023 4:30:00 PM 2.61 36.698 0.235 6.66 68.16 10.07
1/11/2023 4:45:00 PM 2.6 36.68 0.216 6.67 68.48 10.18
1/11/2023 5:00:00 PM 2.6 36.68 0.248 6.67 68.54 10.14
1/11/2023 5:15:00 PM 2.58 36.644 0.23 6.66 68.65 10.13
1/11/2023 5:30:00 PM 2.56 36.608 0.243 6.66 68.5 10.2
1/11/2023 5:45:00 PM 2.54 36.572 0.247 6.67 68.56 10.12
1/11/2023 6:00:00 PM 2.52 36.536 0.202 6.65 68.85 10.11
1/11/2023 6:15:00 PM 2.49 36.482 0.188 6.65 69.01 10.11
1/11/2023 6:30:00 PM 2.46 36.428 0.202 6.66 68.89 10.19
1/11/2023 6:45:00 PM 2.43 36.374 0.212 6.66 69.1 10.07
1/11/2023 7:00:00 PM 2.4 36.32 0.217 6.65 69.25 9.96
1/11/2023 7:15:00 PM 2.37 36.266 0.246 6.67 69.07 9.95
1/11/2023 7:30:00 PM 2.34 36.212 0.204 6.65 68.97 10.04
1/11/2023 7:45:00 PM 2.31 36.158 0.253 6.67 69.52 9.99
1/11/2023 8:00:00 PM 2.27 36.086 0.257 6.67 69.52 9.94
1/11/2023 8:15:00 PM 2.24 36.032 0.251 6.67 69.46 9.84
1/11/2023 8:30:00 PM 2.21 35.978 0.24 6.64 69.2 9.83
1/11/2023 8:45:00 PM 2.18 35.924 0.223 6.66 69.03 9.85
1/11/2023 9:00:00 PM 2.15 35.87 0.243 6.66 69.33 9.94
1/11/2023 9:15:00 PM 2.12 35.816 0.236 6.67 69.23 9.93
1/11/2023 9:30:00 PM 2.09 35.762 0.246 6.69 69.04 9.96
1/11/2023 9:45:00 PM 2.06 35.708 0.25 6.66 69.08 9.91
1/11/2023 10:00:00 PM 2.04 35.672 0.25 6.7 68.63 9.84
1/11/2023 10:15:00 PM 2.02 35.636 0.247 6.68 68.56 9.82
1/11/2023 10:30:00 PM 2 35.6 0.234 6.67 68.85 9.74
1/11/2023 10:45:00 PM 1.98 35.564 0.22 6.67 69.15 9.74
1/11/2023 11:00:00 PM 1.97 35.546 0.214 6.68 69 9.68
1/11/2023 11:15:00 PM 1.96 35.528 0.222 6.69 69.14 9.66
1/11/2023 11:30:00 PM 1.95 35.51 0.238 6.67 69.13 9.71
1/11/2023 11:45:00 PM 1.94 35.492 0.253 6.67 69.03 9.75
1/12/2023 12:00:00 AM 1.93 35.474 0.213 6.66 69.05 9.77
1/12/2023 12:15:00 AM 1.93 35.474 0.234 6.73 69.08 9.86
1/12/2023 12:30:00 AM 1.92 35.456 0.203 6.68 69.04 9.87
1/12/2023 12:45:00 AM 1.91 35.438 0.201 6.69 68.96 9.91
1/12/2023 1:00:00 AM 1.9 35.42 0.244 6.65 68.95 9.83
1/12/2023 1:15:00 AM 1.89 35.402 0.207 6.65 69.12 9.8
1/12/2023 1:30:00 AM 1.89 35.402 0.206 6.67 68.93 9.76
1/12/2023 1:45:00 AM 1.88 35.384 0.213 6.67 69.02 9.78
1/12/2023 2:00:00 AM 1.88 35.384 0.208 6.67 69.21 9.82
1/12/2023 2:15:00 AM 1.88 35.384 0.21 6.69 69.2 9.77
1/12/2023 2:30:00 AM 1.88 35.384 0.191 6.66 69.35 9.79
1/12/2023 2:45:00 AM 1.88 35.384 0.186 6.67 69.45 9.84
1/12/2023 3:00:00 AM 1.88 35.384 0.23 6.64 69.57 9.78
1/12/2023 3:15:00 AM 1.88 35.384 0.209 6.65 69.65 9.7
1/12/2023 3:30:00 AM 1.87 35.366 0.213 6.65 69.76 9.63
1/12/2023 3:45:00 AM 1.87 35.366 0.218 6.65 69.8 9.53
1/12/2023 4:00:00 AM 1.87 35.366 0.223 6.65 70.05 9.56
1/12/2023 4:15:00 AM 1.88 35.384 0.226 6.68 70.27 9.54
1/12/2023 4:30:00 AM 1.87 35.366 0.246 6.64 70.34 9.52
1/12/2023 4:45:00 AM 1.87 35.366 0.242 6.65 70.37 9.52
1/12/2023 5:00:00 AM 1.87 35.366 0.251 6.64 70.3 9.48
1/12/2023 5:15:00 AM 1.87 35.366 0.236 6.65 70.55 9.43
1/12/2023 5:30:00 AM 1.88 35.384 0.222 6.66 70.31 9.38
1/12/2023 5:45:00 AM 1.88 35.384 0.221 6.67 70.27 9.34
1/12/2023 6:00:00 AM 1.88 35.384 0.228 6.67 70.1 9.34
1/12/2023 6:15:00 AM 1.88 35.384 0.248 6.64 69.98 9.3
1/12/2023 6:30:00 AM 1.88 35.384 0.227 6.64 69.92 9.32
1/12/2023 6:45:00 AM 1.87 35.366 0.192 6.64 70.26 9.31
1/12/2023 7:00:00 AM 1.86 35.348 0.245 6.64 70.14 9.33
1/12/2023 7:15:00 AM 1.85 35.33 0.249 6.66 70.31 9.29
1/12/2023 7:30:00 AM 1.83 35.294 0.247 6.66 70.27 9.38
1/12/2023 7:45:00 AM 1.82 35.276 0.252 6.63 70.33 9.36
1/12/2023 8:00:00 AM 1.81 35.258 0.203 6.62 70.16 9.39
1/12/2023 8:15:00 AM 1.79 35.222 0.241 6.62 70.26 9.36
1/12/2023 8:30:00 AM 1.77 35.186 0.217 6.61 70.33 9.31
1/12/2023 8:45:00 AM 1.76 35.168 0.236 6.62 70.54 9.29
1/12/2023 9:00:00 AM 1.75 35.15 0.22 6.63 70.75 9.32
1/12/2023 9:15:00 AM 1.76 35.168 0.212 6.63 70.79 9.37
1/12/2023 9:30:00 AM 1.77 35.186 0.263 6.61 70.79 9.28
1/12/2023 9:45:00 AM 1.77 35.186 0.226 6.62 70.9 9.29
1/12/2023 10:00:00 AM 1.77 35.186 0.25 6.64 70.76 9.34
1/12/2023 10:15:00 AM 1.78 35.204 0.255 6.61 70.82 9.25
1/12/2023 10:30:00 AM 1.79 35.222 0.25 6.61 70.53 9.27
1/12/2023 10:45:00 AM 1.81 35.258 0.252 6.61 70.95 9.23
1/12/2023 11:00:00 AM 1.83 35.294 0.255 6.63 71.09 9.13
1/12/2023 11:15:00 AM 1.84 35.312 0.207 6.62 71.32 9.17
1/12/2023 11:30:00 AM 1.86 35.348 0.234 6.64 70.98 9.14
1/12/2023 11:45:00 AM 1.87 35.366 0.256 6.67 71.26 9.12
1/12/2023 12:00:00 PM 1.88 35.384 0.232 6.64 71.25 9.14
1/12/2023 12:15:00 PM 1.9 35.42 0.235 6.65 71.14 9.13
1/12/2023 12:30:00 PM 1.92 35.456 0.229 6.62 71.45 9.12
1/12/2023 12:45:00 PM 1.94 35.492 0.253 6.64 71.52 9.07
1/12/2023 1:00:00 PM 1.96 35.528 0.257 6.63 71.4 9.21
1/12/2023 1:15:00 PM 1.99 35.582 0.22 6.63 71.19 9.19
1/12/2023 1:30:00 PM 2.01 35.618 0.239 6.61 71.31 9.13
1/12/2023 1:45:00 PM 2.04 35.672 0.228 6.62 71.5 9.15
1/12/2023 2:00:00 PM 2.06 35.708 0.223 6.61 71.74 9.2
1/12/2023 2:15:00 PM 2.08 35.744 0.217 6.6 71.76 9.17
1/12/2023 2:30:00 PM 2.09 35.762 0.227 6.64 71.59 9.16
1/12/2023 2:45:00 PM 2.1 35.78 0.186 6.64 71.69 9.14
1/12/2023 3:00:00 PM 2.11 35.798 0.215 6.62 71.66 9.17
1/12/2023 3:15:00 PM 2.13 35.834 0.219 6.61 71.85 9.1
1/12/2023 3:30:00 PM 2.15 35.87 0.233 6.61 71.59 9.15
1/12/2023 3:45:00 PM 2.17 35.906 0.234 6.62 71.65 9.08
1/12/2023 4:00:00 PM 2.18 35.924 0.244 6.65 71.84 9.11
1/12/2023 4:15:00 PM 2.19 35.942 0.242 6.62 71.91 9.14
1/12/2023 4:30:00 PM 2.2 35.96 0.255 6.64 72.06 9.08
1/12/2023 4:45:00 PM 2.21 35.978 0.254 6.64 71.94 9.13
1/12/2023 5:00:00 PM 2.22 35.996 0.244 6.61 72.04 9.12
1/12/2023 5:15:00 PM 2.23 36.014 0.246 6.62 72 9.14
1/12/2023 5:30:00 PM 2.23 36.014 0.215 6.6 71.77 9.15
1/12/2023 5:45:00 PM 2.23 36.014 0.243 6.62 71.88 9.17
1/12/2023 6:00:00 PM 2.23 36.014 0.25 6.64 72.13 9.21
1/12/2023 6:15:00 PM 2.23 36.014 0.252 6.62 72.2 9.22
1/12/2023 6:30:00 PM 2.23 36.014 0.253 6.63 72.34 9.31
1/12/2023 6:45:00 PM 2.23 36.014 0.253 6.62 72.41 9.27
1/12/2023 7:00:00 PM 2.22 35.996 0.256 6.64 71.93 9.29
1/12/2023 7:15:00 PM 2.23 36.014 0.257 6.62 72.11 9.36
1/12/2023 7:30:00 PM 2.23 36.014 0.244 6.62 72.27 9.4
1/12/2023 7:45:00 PM 2.24 36.032 0.241 6.63 72.21 9.52
1/12/2023 8:00:00 PM 2.26 36.068 0.241 6.62 72.17 9.53
1/12/2023 8:15:00 PM 2.27 36.086 0.252 6.61 72.04 9.54
1/12/2023 8:30:00 PM 2.28 36.104 0.178 6.62 72.03 9.45
1/12/2023 8:45:00 PM 2.29 36.122 0.221 6.62 72.01 9.44
1/12/2023 9:00:00 PM 2.31 36.158 0.224 6.63 72.03 9.35
1/12/2023 9:15:00 PM 2.32 36.176 0.233 6.62 72.33 9.35
1/12/2023 9:30:00 PM 2.34 36.212 0.223 6.64 72.38 9.38
1/12/2023 9:45:00 PM 2.35 36.23 0.221 6.64 72.27 9.3
1/12/2023 10:00:00 PM 2.37 36.266 0.213 6.62 72.01 9.24
1/12/2023 10:15:00 PM 2.39 36.302 0.228 6.62 71.74 9.18
1/12/2023 10:30:00 PM 2.4 36.32 0.226 6.61 72.15 9.14
1/12/2023 10:45:00 PM 2.42 36.356 0.234 6.61 71.88 9.11
1/12/2023 11:00:00 PM 2.43 36.374 0.236 6.62 71.8 9.09
1/12/2023 11:15:00 PM 2.45 36.41 0.253 6.62 71.72 9.07
1/12/2023 11:30:00 PM 2.46 36.428 0.171 6.6 72.85 9.08
1/12/2023 11:45:00 PM 2.47 36.446 0.241 6.62 71.7 9.06
1/13/2023 12:00:00 AM 2.49 36.482 0.219 6.6 71.3 9.05
1/13/2023 12:15:00 AM 2.51 36.518 0.244 6.6 71.09 8.96
1/13/2023 12:30:00 AM 2.53 36.554 0.256 6.6 71.25 8.93
1/13/2023 12:45:00 AM 2.55 36.59 0.258 6.6 71.4 8.94
1/13/2023 1:00:00 AM 2.57 36.626 0.248 6.6 71.36 9.03
1/13/2023 1:15:00 AM 2.59 36.662 0.247 6.62 71.49 8.99
1/13/2023 1:30:00 AM 2.6 36.68 0.25 6.61 71.56 8.98
1/13/2023 1:45:00 AM 2.61 36.698 0.207 6.61 71.94 8.89
1/13/2023 2:00:00 AM 2.62 36.716 0.219 6.6 71.88 8.87
1/13/2023 2:15:00 AM 2.64 36.752 0.236 6.59 72.27 8.86
1/13/2023 2:30:00 AM 2.65 36.77 0.236 6.6 72.52 8.78
1/13/2023 2:45:00 AM 2.66 36.788 0.237 6.62 72.14 8.84
1/13/2023 3:00:00 AM 2.67 36.806 0.232 6.6 72.24 8.84
1/13/2023 3:15:00 AM 2.67 36.806 0.24 6.62 72.11 8.89
1/13/2023 3:30:00 AM 2.68 36.824 0.212 6.61 71.57 8.97
1/13/2023 3:45:00 AM 2.69 36.842 0.242 6.63 71.69 8.99
1/13/2023 4:00:00 AM 2.7 36.86 0.239 6.61 72.13 9.02
1/13/2023 4:15:00 AM 2.71 36.878 0.243 6.63 72.01 8.99
1/13/2023 4:30:00 AM 2.72 36.896 0.218 6.62 72.54 9.01
1/13/2023 4:45:00 AM 2.73 36.914 0.244 6.62 72.93 8.92
1/13/2023 5:00:00 AM 2.73 36.914 0.243 6.64 72.68 8.92
1/13/2023 5:15:00 AM 2.74 36.932 0.25 6.63 72.66 8.94
1/13/2023 5:30:00 AM 2.75 36.95 0.214 6.63 72.27 8.97
1/13/2023 5:45:00 AM 2.75 36.95 0.176 6.63 72.37 9.01
1/13/2023 6:00:00 AM 2.77 36.986 0.204 6.62 72.74 8.98
1/13/2023 6:15:00 AM 2.78 37.004 0.215 6.61 72.78 8.96
1/13/2023 6:30:00 AM 2.8 37.04 0.227 6.63 73.03 9.02
1/13/2023 6:45:00 AM 2.81 37.058 0.205 6.61 73.34 9.04
1/13/2023 7:00:00 AM 2.82 37.076 0.166 6.62 73.18 8.99
1/13/2023 7:15:00 AM 2.83 37.094 0.163 6.63 72.9 9.02
1/13/2023 7:30:00 AM 2.83 37.094 0.165 6.63 72.95 8.97
1/13/2023 7:45:00 AM 2.85 37.13 0.17 6.62 72.7 8.96
1/13/2023 8:00:00 AM 2.86 37.148 0.222 6.62 72.77 8.98
1/13/2023 8:15:00 AM 2.87 37.166 0.217 6.62 72.75 8.92
1/13/2023 8:30:00 AM 2.88 37.184 0.243 6.63 73.22 8.96
1/13/2023 8:45:00 AM 2.89 37.202 0.227 6.62 73.07 8.91
1/13/2023 9:00:00 AM 2.9 37.22 0.239 6.62 73.12 8.92
1/13/2023 9:15:00 AM 2.91 37.238 0.231 6.63 73.21 9.01
1/13/2023 9:30:00 AM 2.91 37.238 0.228 6.62 73.13 9.15
1/13/2023 9:45:00 AM 2.91 37.238 0.242 6.61 73.07 9.29
1/13/2023 10:00:00 AM 2.91 37.238 0.246 6.63 72.91 9.18
1/13/2023 10:15:00 AM 2.91 37.238 0.248 6.63 72.87 9.31
1/13/2023 10:30:00 AM 2.89 37.202 0.248 6.63 73.17 9.28
1/13/2023 10:45:00 AM 2.87 37.166 0.245 6.64 73.34 9.29
1/13/2023 11:00:00 AM 2.85 37.13 0.23 6.63 73.1 9.23
1/13/2023 11:15:00 AM 2.83 37.094 0.247 6.62 72.54 9.26
1/13/2023 11:30:00 AM 2.8 37.04 0.157 6.64 72.55 9.41
1/13/2023 11:45:00 AM 2.78 37.004 0.225 6.63 72.35 9.5
1/13/2023 12:00:00 PM 2.76 36.968 0.244 6.63 72.34 9.59
1/13/2023 12:15:00 PM 2.74 36.932 0.184 6.63 72.1 9.65
1/13/2023 12:30:00 PM 2.72 36.896 0.215 6.63 72.5 9.76
1/13/2023 12:45:00 PM 2.7 36.86 0.231 6.63 72.75 9.82
1/13/2023 1:00:00 PM 2.68 36.824 0.226 6.63 72.89 9.9
1/13/2023 1:15:00 PM 2.67 36.806 0.216 6.64 72.67 9.94
1/13/2023 1:30:00 PM 2.66 36.788 0.221 6.62 72.91 10.02
1/13/2023 1:45:00 PM 2.65 36.77 0.238 6.64 72.64 10.1
1/13/2023 2:00:00 PM 2.65 36.77 0.219 6.64 72.79 10.08
1/13/2023 2:15:00 PM 2.64 36.752 0.236 6.66 73.11 10.14
1/13/2023 2:30:00 PM 2.63 36.734 0.221 6.63 73.16 10.21
1/13/2023 2:45:00 PM 2.62 36.716 0.223 6.62 73.13 10.2
1/13/2023 3:00:00 PM 2.6 36.68 0.244 6.63 73.21 10.26
1/13/2023 3:15:00 PM 2.59 36.662 0.221 6.63 73.29 10.3
1/13/2023 3:30:00 PM 2.58 36.644 0.224 6.63 72.77 10.37
1/13/2023 3:45:00 PM 2.58 36.644 0.243 6.63 72.76 10.41
1/13/2023 4:00:00 PM 2.57 36.626 0.228 6.64 73.24 10.45
1/13/2023 4:15:00 PM 2.56 36.608 0.228 6.66 73.39 10.47
1/13/2023 4:30:00 PM 2.54 36.572 0.236 6.65 73.23 10.44
1/13/2023 4:45:00 PM 2.52 36.536 0.211 6.65 72.52 10.53
1/13/2023 5:00:00 PM 2.51 36.518 0.208 6.63 72.28 10.57
1/13/2023 5:15:00 PM 2.49 36.482 0.222 6.63 72.43 10.6
1/13/2023 5:30:00 PM 2.47 36.446 0.235 6.64 72.48 10.58
1/13/2023 5:45:00 PM 2.46 36.428 0.208 6.62 72.54 10.57
1/13/2023 6:00:00 PM 2.44 36.392 0.22 6.65 72.45 10.56
1/13/2023 6:15:00 PM 2.42 36.356 0.233 6.64 72.27 10.5
1/13/2023 6:30:00 PM 2.4 36.32 0.223 6.65 72.33 10.52
1/13/2023 6:45:00 PM 2.39 36.302 0.194 6.64 72.43 10.49
1/13/2023 7:00:00 PM 2.37 36.266 0.207 6.63 72.69 10.54
1/13/2023 7:15:00 PM 2.35 36.23 0.21 6.66 72.58 10.56
1/13/2023 7:30:00 PM 2.33 36.194 0.218 6.64 72.66 10.57
1/13/2023 7:45:00 PM 2.32 36.176 0.2 6.64 72.56 10.59
1/13/2023 8:00:00 PM 2.29 36.122 0.227 6.67 72.82 10.72
1/13/2023 8:15:00 PM 2.27 36.086 0.209 6.64 72.55 10.78
1/13/2023 8:30:00 PM 2.25 36.05 0.209 6.64 72.21 10.87
1/13/2023 8:45:00 PM 2.23 36.014 0.221 6.67 72.01 10.91
1/13/2023 9:00:00 PM 2.21 35.978 0.219 6.66 72.34 10.9
1/13/2023 9:15:00 PM 2.19 35.942 0.2 6.64 72.48 10.82
1/13/2023 9:30:00 PM 2.17 35.906 0.21 6.65 72.14 10.77
1/13/2023 9:45:00 PM 2.15 35.87 0.23 6.66 72.15 10.68
1/13/2023 10:00:00 PM 2.13 35.834 0.213 6.66 71.68 10.87
1/13/2023 10:15:00 PM 2.1 35.78 0.241 6.65 71.99 10.8
1/13/2023 10:30:00 PM 2.08 35.744 0.237 6.64 71.87 10.82
1/13/2023 10:45:00 PM 2.06 35.708 0.206 6.65 72.4 10.9
1/13/2023 11:00:00 PM 2.04 35.672 0.215 6.65 73.08 10.94
1/13/2023 11:15:00 PM 2.02 35.636 0.214 6.66 72.96 10.88
1/13/2023 11:30:00 PM 2 35.6 0.234 6.67 72.87 10.95
1/13/2023 11:45:00 PM 1.97 35.546 0.223 6.65 73.31 11.12
1/14/2023 12:00:00 AM 1.95 35.51 0.222 6.65 73.15 11.03
1/14/2023 12:15:00 AM 1.91 35.438 0.228 6.66 73.21 10.94
1/14/2023 12:30:00 AM 1.88 35.384 0.216 6.65 73.31 11
1/14/2023 12:45:00 AM 1.86 35.348 0.236 6.66 73.51 10.97
1/14/2023 1:00:00 AM 1.84 35.312 0.24 6.67 73.65 11
1/14/2023 1:15:00 AM 1.81 35.258 0.239 6.66 73.4 10.96
1/14/2023 1:30:00 AM 1.78 35.204 0.224 6.66 73.49 11.06
1/14/2023 1:45:00 AM 1.75 35.15 0.203 6.64 73.34 10.9
1/14/2023 2:00:00 AM 1.71 35.078 0.226 6.65 73.72 10.94
1/14/2023 2:15:00 AM 1.69 35.042 0.241 6.65 73.23 10.89
1/14/2023 2:30:00 AM 1.66 34.988 0.236 6.66 73.07 10.92
1/14/2023 2:45:00 AM 1.63 34.934 0.234 6.66 73.05 10.86
1/14/2023 3:00:00 AM 1.61 34.898 0.242 6.67 73.35 10.81
1/14/2023 3:15:00 AM 1.59 34.862 0.242 6.62 73.17 10.91
1/14/2023 3:30:00 AM 1.57 34.826 0.238 6.64 73 10.84
1/14/2023 3:45:00 AM 1.55 34.79 0.237 6.65 73.2 10.89
1/14/2023 4:00:00 AM 1.52 34.736 0.237 6.65 73.39 10.86
1/14/2023 4:15:00 AM 1.49 34.682 0.239 6.65 73.23 10.8
1/14/2023 4:30:00 AM 1.46 34.628 0.244 6.67 73.47 10.89
1/14/2023 4:45:00 AM 1.43 34.574 0.239 6.67 73.45 10.94
1/14/2023 5:00:00 AM 1.41 34.538 0.243 6.66 73.42 10.93
1/14/2023 5:15:00 AM 1.39 34.502 0.242 6.66 73.36 10.99
1/14/2023 5:30:00 AM 1.37 34.466 0.235 6.66 73.32 10.94
1/14/2023 5:45:00 AM 1.35 34.43 0.242 6.66 73.07 10.94
1/14/2023 6:00:00 AM 1.32 34.376 0.239 6.66 73.16 10.9
1/14/2023 6:15:00 AM 1.29 34.322 0.236 6.66 73.29 10.95
1/14/2023 6:30:00 AM 1.27 34.286 0.198 6.65 73.35 10.94
1/14/2023 6:45:00 AM 1.25 34.25 0.232 6.68 72.92 10.89
1/14/2023 7:00:00 AM 1.23 34.214 0.204 6.65 73.48 10.87
1/14/2023 7:15:00 AM 1.22 34.196 0.223 6.65 73.07 10.91
1/14/2023 7:30:00 AM 1.2 34.16 0.235 6.66 73.38 10.97
1/14/2023 7:45:00 AM 1.17 34.106 0.238 6.66 73.38 10.96
1/14/2023 8:00:00 AM 1.15 34.07 0.238 6.65 73.06 11.01
1/14/2023 8:15:00 AM 1.12 34.016 0.239 6.65 72.89 11.05
1/14/2023 8:30:00 AM 1.09 33.962 0.238 6.66 72.98 10.96
1/14/2023 8:45:00 AM 1.05 33.89 0.239 6.64 72.84 10.94
1/14/2023 9:00:00 AM 1.03 33.854 0.24 6.63 72.37 10.97
1/14/2023 9:15:00 AM 1.02 33.836 0.236 6.64 72.75 10.93
1/14/2023 9:30:00 AM 1.01 33.818 0.242 6.65 72.46 10.97
1/14/2023 9:45:00 AM 1 33.8 0.245 6.65 72.64 10.91
1/14/2023 10:00:00 AM 1 33.8 0.231 6.66 72.74 11.03
1/14/2023 10:15:00 AM 1 33.8 0.218 6.65 72.75 11.13
1/14/2023 10:30:00 AM 1 33.8 0.233 6.67 72.96 11.03
1/14/2023 10:45:00 AM 1 33.8 0.236 6.65 72.92 11.07
1/14/2023 11:00:00 AM 0.99 33.782 0.234 6.65 72.83 11.1
1/14/2023 11:15:00 AM 0.99 33.782 0.219 6.66 72.93 11.02
1/14/2023 11:30:00 AM 0.99 33.782 0.214 6.66 72.88 11.07
1/14/2023 11:45:00 AM 0.99 33.782 0.205 6.69 72.56 11.07
1/14/2023 12:00:00 PM 0.98 33.764 0.228 6.67 72.51 11.12
1/14/2023 12:15:00 PM 0.97 33.746 0.241 6.67 72.58 11.17
1/14/2023 12:30:00 PM 0.97 33.746 0.242 6.67 72.62 11.2
1/14/2023 12:45:00 PM 0.97 33.746 0.239 6.66 72.67 11.27
1/14/2023 1:00:00 PM 0.98 33.764 0.24 6.69 72.44 11.27
1/14/2023 1:15:00 PM 1 33.8 0.222 6.67 72.79 11.3
1/14/2023 1:30:00 PM 1.02 33.836 0.239 6.67 72.78 11.37
1/14/2023 1:45:00 PM 1.04 33.872 0.221 6.68 72.9 11.35
1/14/2023 2:00:00 PM 1.06 33.908 0.237 6.69 72.84 11.39
1/14/2023 2:15:00 PM 1.06 33.908 0.241 6.68 72.81 11.41
1/14/2023 2:30:00 PM 1.06 33.908 0.24 6.67 72.55 11.43
1/14/2023 2:45:00 PM 1.06 33.908 0.19 6.7 73.49 11.43
1/14/2023 3:00:00 PM 1.05 33.89 0.229 6.68 73.56 11.49
1/14/2023 3:15:00 PM 1.06 33.908 0.234 6.67 73.08 11.42
1/14/2023 3:30:00 PM 1.06 33.908 0.226 6.67 73.1 11.4
1/14/2023 3:45:00 PM 1.06 33.908 0.216 6.68 73.12 11.44
1/14/2023 4:00:00 PM 1.06 33.908 0.238 6.69 73.64 11.44
1/14/2023 4:15:00 PM 1.06 33.908 0.232 6.69 73.31 11.55
1/14/2023 4:30:00 PM 1.05 33.89 0.217 6.7 73.21 11.53
1/14/2023 4:45:00 PM 1.04 33.872 0.24 6.67 73.05 11.52
1/14/2023 5:00:00 PM 1.03 33.854 0.242 6.68 72.93 11.51
1/14/2023 5:15:00 PM 1.02 33.836 0.222 6.69 73.09 11.49
1/14/2023 5:30:00 PM 1.01 33.818 0.238 6.67 72.99 11.51
1/14/2023 5:45:00 PM 0.99 33.782 0.222 6.66 72.93 11.5
1/14/2023 6:00:00 PM 0.96 33.728 0.228 6.67 73.45 11.51
1/14/2023 6:15:00 PM 0.93 33.674 0.216 6.66 73.08 11.54
1/14/2023 6:30:00 PM 0.9 33.62 0.219 6.64 72.84 11.57
1/14/2023 6:45:00 PM 0.86 33.548 0.216 6.66 73.13 11.54
1/14/2023 7:00:00 PM 0.84 33.512 0.227 6.67 72.98 11.59
1/14/2023 7:15:00 PM 0.82 33.476 0.215 6.67 72.99 11.52
1/14/2023 7:30:00 PM 0.79 33.422 0.236 6.66 72.86 11.5
1/14/2023 7:45:00 PM 0.78 33.404 0.246 6.67 72.8 11.51
1/14/2023 8:00:00 PM 0.76 33.368 0.221 6.66 72.89 11.51
1/14/2023 8:15:00 PM 0.74 33.332 0.22 6.69 72.99 11.47
1/14/2023 8:30:00 PM 0.72 33.296 0.21 6.66 72.59 11.54
1/14/2023 8:45:00 PM 0.7 33.26 0.211 6.68 72.84 11.51
1/14/2023 9:00:00 PM 0.68 33.224 0.212 6.67 72.77 11.51
1/14/2023 9:15:00 PM 0.67 33.206 0.218 6.67 72.84 11.46
1/14/2023 9:30:00 PM 0.66 33.188 0.21 6.69 72.98 11.47
1/14/2023 9:45:00 PM 0.64 33.152 0.221 6.7 72.56 11.47
1/14/2023 10:00:00 PM 0.62 33.116 0.231 6.68 72.61 11.43
1/14/2023 10:15:00 PM 0.6 33.08 0.212 6.68 72.26 11.44
1/14/2023 10:30:00 PM 0.57 33.026 0.206 6.68 72.27 11.48
1/14/2023 10:45:00 PM 0.54 32.972 0.214 6.68 72.63 11.43
1/14/2023 11:00:00 PM 0.52 32.936 0.217 6.68 72.86 11.42
1/14/2023 11:15:00 PM 0.5 32.9 0.24 6.69 72.98 11.38
1/14/2023 11:30:00 PM 0.49 32.882 0.246 6.68 73.07 11.38
1/14/2023 11:45:00 PM 0.48 32.864 0.248 6.68 73.41 11.32
1/15/2023 12:00:00 AM 0.48 32.864 0.25 6.67 73.45 11.38
1/15/2023 12:15:00 AM 0.47 32.846 0.226 6.67 73.34 11.38
1/15/2023 12:30:00 AM 0.46 32.828 0.228 6.68 73.14 11.34
1/15/2023 12:45:00 AM 0.46 32.828 0.231 6.66 73.2 11.31
1/15/2023 1:00:00 AM 0.46 32.828 0.242 6.66 73.12 11.27
1/15/2023 1:15:00 AM 0.45 32.81 0.217 6.66 72.9 11.26
1/15/2023 1:30:00 AM 0.45 32.81 0.231 6.67 72.84 11.27
1/15/2023 1:45:00 AM 0.44 32.792 0.215 6.68 72.7 11.34
1/15/2023 2:00:00 AM 0.44 32.792 0.243 6.68 72.69 11.29
1/15/2023 2:15:00 AM 0.42 32.756 0.238 6.69 72.97 11.31
1/15/2023 2:30:00 AM 0.4 32.72 0.218 6.67 72.85 11.26
1/15/2023 2:45:00 AM 0.38 32.684 0.18 6.7 73.05 11.26
1/15/2023 3:00:00 AM 0.37 32.666 0.24 6.68 72.96 11.21
1/15/2023 3:15:00 AM 0.36 32.648 0.231 6.69 72.85 11.18
1/15/2023 3:30:00 AM 0.36 32.648 0.237 6.69 72.92 11.18
1/15/2023 3:45:00 AM 0.36 32.648 0.222 6.69 73.05 11.19
1/15/2023 4:00:00 AM 0.36 32.648 0.246 6.69 73.15 11.14
1/15/2023 4:15:00 AM 0.36 32.648 0.22 6.68 73.32 11.11
1/15/2023 4:30:00 AM 0.37 32.666 0.251 6.67 73.2 11.13
1/15/2023 4:45:00 AM 0.38 32.684 0.247 6.68 73.43 11.07
1/15/2023 5:00:00 AM 0.39 32.702 0.257 6.69 73.33 11.05
1/15/2023 5:15:00 AM 0.4 32.72 0.228 6.69 73.49 11.01
1/15/2023 5:30:00 AM 0.41 32.738 0.232 6.69 73.49 11.05
1/15/2023 5:45:00 AM 0.42 32.756 0.238 6.69 73.57 11.01
1/15/2023 6:00:00 AM 0.42 32.756 0.186 6.68 73.36 10.98
1/15/2023 6:15:00 AM 0.42 32.756 0.223 6.67 73.43 10.92
1/15/2023 6:30:00 AM 0.41 32.738 0.255 6.68 73.66 10.95
1/15/2023 6:45:00 AM 0.4 32.72 0.249 6.69 73.55 10.89
1/15/2023 7:00:00 AM 0.39 32.702 0.243 6.68 73.67 10.86
1/15/2023 7:15:00 AM 0.37 32.666 0.239 6.67 73.62 10.88
1/15/2023 7:30:00 AM 0.36 32.648 0.237 6.67 73.47 10.89
1/15/2023 7:45:00 AM 0.35 32.63 0.246 6.67 73.46 10.83
1/15/2023 8:00:00 AM 0.34 32.612 0.231 6.68 73.72 10.8
1/15/2023 8:15:00 AM 0.32 32.576 0.259 6.66 73.97 10.71
1/15/2023 8:30:00 AM 0.31 32.558 0.262 6.65 73.87 10.72
1/15/2023 8:45:00 AM 0.31 32.558 0.233 6.66 73.83 10.67
1/15/2023 9:00:00 AM 0.3 32.54 0.254 6.69 73.66 10.68
1/15/2023 9:15:00 AM 0.31 32.558 0.251 6.68 73.71 10.65
1/15/2023 9:30:00 AM 0.33 32.594 0.249 6.67 73.68 10.65
1/15/2023 9:45:00 AM 0.35 32.63 0.253 6.67 73.73 10.69
1/15/2023 10:00:00 AM 0.38 32.684 0.241 6.69 73.82 10.64
1/15/2023 10:15:00 AM 0.41 32.738 0.258 6.67 73.98 10.61
1/15/2023 10:30:00 AM 0.45 32.81 0.258 6.67 74.47 10.58
1/15/2023 10:45:00 AM 0.49 32.882 0.262 6.68 74.41 10.63
1/15/2023 11:00:00 AM 0.53 32.954 0.267 6.68 74.36 10.65
1/15/2023 11:15:00 AM 0.58 33.044 0.261 6.7 74.48 10.72
1/15/2023 11:30:00 AM 0.62 33.116 0.257 6.69 74.72 10.74
1/15/2023 11:45:00 AM 0.68 33.224 0.263 6.67 74.9 10.72
1/15/2023 12:00:00 PM 0.74 33.332 0.249 6.66 74.99 10.64
1/15/2023 12:15:00 PM 0.79 33.422 0.264 6.66 75.12 10.58
1/15/2023 12:30:00 PM 0.86 33.548 0.238 6.66 75.45 10.58
1/15/2023 12:45:00 PM 0.93 33.674 0.243 6.69 75.83 10.55
1/15/2023 1:00:00 PM 1 33.8 0.254 6.68 75.68 10.49
1/15/2023 1:15:00 PM 1.07 33.926 0.251 6.67 75.82 10.48
1/15/2023 1:30:00 PM 1.15 34.07 0.257 6.66 75.42 10.39
1/15/2023 1:45:00 PM 1.22 34.196 0.261 6.68 76.13 10.36
1/15/2023 2:00:00 PM 1.28 34.304 0.226 6.69 75.75 10.31
1/15/2023 2:15:00 PM 1.34 34.412 0.256 6.69 75.43 10.36
1/15/2023 2:30:00 PM 1.38 34.484 0.254 6.68 76.3 10.3
1/15/2023 2:45:00 PM 1.43 34.574 0.262 6.68 76.35 10.36
1/15/2023 3:00:00 PM 1.46 34.628 0.26 6.68 76.24 10.24
1/15/2023 3:15:00 PM 1.49 34.682 0.264 6.66 76.11 10.24
1/15/2023 3:30:00 PM 1.52 34.736 0.266 6.66 76.23 10.18
1/15/2023 3:45:00 PM 1.53 34.754 0.257 6.66 76.24 10.2
1/15/2023 4:00:00 PM 1.54 34.772 0.235 6.66 76.88 10.21
1/15/2023 4:15:00 PM 1.54 34.772 0.256 6.65 77.34 10.13
1/15/2023 4:30:00 PM 1.53 34.754 0.235 6.67 77.71 10.15
1/15/2023 4:45:00 PM 1.51 34.718 0.26 6.67 77.44 10.1
1/15/2023 5:00:00 PM 1.49 34.682 0.25 6.65 77.74 10.07
1/15/2023 5:15:00 PM 1.46 34.628 0.253 6.66 77.32 10.07
1/15/2023 5:30:00 PM 1.43 34.574 0.261 6.65 77.36 9.99
1/15/2023 5:45:00 PM 1.39 34.502 0.263 6.65 77.67 9.98
1/15/2023 6:00:00 PM 1.36 34.448 0.261 6.66 77.53 9.99
1/15/2023 6:15:00 PM 1.33 34.394 0.257 6.64 77.34 9.99
1/15/2023 6:30:00 PM 1.29 34.322 0.263 6.65 77.57 10.01
1/15/2023 6:45:00 PM 1.25 34.25 0.249 6.66 77.84 10.02
1/15/2023 7:00:00 PM 1.21 34.178 0.248 6.65 77.99 10.02
1/15/2023 7:15:00 PM 1.17 34.106 0.23 6.65 78.21 10.02
1/15/2023 7:30:00 PM 1.12 34.016 0.189 6.65 79.47 10.05
1/15/2023 7:45:00 PM 1.08 33.944 0.207 6.65 78.54 10.15
1/15/2023 8:00:00 PM 1.04 33.872 0.251 6.65 78.3 10.02
1/15/2023 8:15:00 PM 1 33.8 0.255 6.65 78.61 10.01
1/15/2023 8:30:00 PM 0.96 33.728 0.233 6.64 78.69 10.07
1/15/2023 8:45:00 PM 0.91 33.638 0.243 6.64 78.62 10.05
1/15/2023 9:00:00 PM 0.87 33.566 0.249 6.65 78.67 10.05
1/15/2023 9:15:00 PM 0.83 33.494 0.258 6.65 78.56 10.07
1/15/2023 9:30:00 PM 0.79 33.422 0.236 6.64 78.54 10.06
1/15/2023 9:45:00 PM 0.76 33.368 0.269 6.63 78.88 10.06
1/15/2023 10:00:00 PM 0.73 33.314 0.24 6.63 78.8 10.05
1/15/2023 10:15:00 PM 0.71 33.278 0.233 6.64 78.86 10.07
1/15/2023 10:30:00 PM 0.69 33.242 0.247 6.65 78.69 10.06
1/15/2023 10:45:00 PM 0.68 33.224 0.242 6.64 78.83 10.06
1/15/2023 11:00:00 PM 0.66 33.188 0.238 6.64 79.31 10.09
1/15/2023 11:15:00 PM 0.64 33.152 0.239 6.66 79.13 10.03
1/15/2023 11:30:00 PM 0.64 33.152 0.257 6.65 79.29 10.02
1/15/2023 11:45:00 PM 0.64 33.152 0.274 6.67 79.27 10.05
1/16/2023 12:00:00 AM 0.64 33.152 0.28 6.65 78.93 9.98
1/16/2023 12:15:00 AM 0.64 33.152 0.269 6.65 79.22 9.91
1/16/2023 12:30:00 AM 0.64 33.152 0.236 6.65 79.38 9.86
1/16/2023 12:45:00 AM 0.63 33.134 0.278 6.65 79.43 9.8
1/16/2023 1:00:00 AM 0.64 33.152 0.255 6.64 79.44 9.87
1/16/2023 1:15:00 AM 0.66 33.188 0.284 6.64 79.24 9.76
1/16/2023 1:30:00 AM 0.68 33.224 0.252 6.65 79.25 9.7
1/16/2023 1:45:00 AM 0.69 33.242 0.236 6.68 78.88 9.72
1/16/2023 2:00:00 AM 0.69 33.242 0.244 6.64 78.68 9.68
1/16/2023 2:15:00 AM 0.67 33.206 0.27 6.64 78.84 9.67
1/16/2023 2:30:00 AM 0.65 33.17 0.253 6.64 79.14 9.66
1/16/2023 2:45:00 AM 0.62 33.116 0.269 6.67 79.29 9.62
1/16/2023 3:00:00 AM 0.58 33.044 21.807 6.66 79.27 8.83
1/16/2023 3:15:00 AM 0.54 32.972 0.3 6.65 79.24 9.64
1/16/2023 3:30:00 AM 0.5 32.9 0.292 6.66 79.12 9.6
1/16/2023 3:45:00 AM 0.48 32.864 0.293 6.66 79.06 9.58
1/16/2023 4:00:00 AM 0.46 32.828 0.291 6.66 78.8 9.53
1/16/2023 4:15:00 AM 0.45 32.81 0.283 6.66 79.24 9.55
1/16/2023 4:30:00 AM 0.44 32.792 0.259 6.65 79.26 9.54
1/16/2023 4:45:00 AM 0.43 32.774 0.264 6.66 79.81 9.48
1/16/2023 5:00:00 AM 0.42 32.756 0.258 6.66 79.6 9.48
1/16/2023 5:15:00 AM 0.42 32.756 0.258 6.66 79.42 9.44
1/16/2023 5:30:00 AM 0.41 32.738 0.253 6.67 79.42 9.52
1/16/2023 5:45:00 AM 0.4 32.72 0.27 6.68 79.47 9.45
1/16/2023 6:00:00 AM 0.39 32.702 0.266 6.65 79.63 9.42
1/16/2023 6:15:00 AM 0.39 32.702 0.244 6.67 79.85 9.35
1/16/2023 6:30:00 AM 0.38 32.684 0.276 6.66 79.82 9.27
1/16/2023 6:45:00 AM 0.37 32.666 0.27 6.67 80.03 9.25
1/16/2023 7:00:00 AM 0.35 32.63 0.264 6.66 79.81 9.18
1/16/2023 7:15:00 AM 0.35 32.63 0.259 6.67 79.78 9.09
1/16/2023 7:30:00 AM 0.34 32.612 0.272 6.66 79.84 9.06
1/16/2023 7:45:00 AM 0.34 32.612 0.266 6.66 80.03 9.06
1/16/2023 8:00:00 AM 0.34 32.612 0.257 6.65 80.05 9.03
1/16/2023 8:15:00 AM 0.34 32.612 0.259 6.67 80.34 9.01
1/16/2023 8:30:00 AM 0.34